Darstellungsparameter: Aktuell verwendete Einstellungen:
Skalierung der Graphiken ... ?
xyx+y,   Skalierungsfaktor:      Skalierung: Modus: x, Faktor: 1
Darstellungszeitraum ... ?
Vom - - bis: - -   Zeitraum: 28.12.2004 - 27.06.2005
Min/Max/Avg-Anzeige ... ?
Zeige MMA aktuell
Zeige MMA Monat
Zeige MMA alles
Zeige --A aktuell
Zeige --A Monat
Zeige --A alles
Keine MMA-Anzeige
MMA:
Keine MMA-Graphiken
MMA-Basis: 28.12.2004 - 27.06.2005
Quicknavigation für Darstellung... ?
Tage:      1T, 2T, 3T, 5T -1T -2T -3T -5T +1T +2T +3T +5T
Wochen: 1W, 2W, 3W -1W -2W -3W +1W +2W +3W
Monate: 1M, 3M, 6M -1M -3M -6M +1M +3M +6M
Jahre:    1J, 3J, 5J, 10J -1J -3J -5J -10J +1J +3J +5J +10J
Nutze für die Darstellung ... ?
Originaldaten oder Mittelwerte auf ...
Stundenbasis Tagesbasis Wochenbasis
Monatsbasis Jahresbasis      Datenbasis: Original-Daten
Darstellen als:
Statistik (Auto) Statistik J:M      Darstellung:
Zur Graphik,    zurück zur Übersicht aller Sensoren.
 
Tabellarische Datenbersicht: ?
 
Sensor: Nr:Datum:Temp:Abs-Feuchte:Windchill:Wind:
Aussen-T/F 1 28-12-2004 00:06:01 -0.4 C 3.2 g/m*3 -0.4 C 0 km/h
2 28-12-2004 00:18:03 -0.8 C 3.12 g/m*3 -0.8 C 0 km/h
3 28-12-2004 00:30:03 -1 C 3.12 g/m*3 -1 C 0 km/h
4 28-12-2004 00:42:02 -0.9 C 3.19 g/m*3 -0.9 C 0 km/h
5 28-12-2004 00:54:02 -0.7 C 3.18 g/m*3 -0.7 C 0 km/h
6 28-12-2004 01:06:02 -0.5 C 3.23 g/m*3 -0.5 C 0 km/h
7 28-12-2004 01:18:01 -0.4 C 3.2 g/m*3 -0.4 C 0 km/h
8 28-12-2004 01:30:02 -0.3 C 3.23 g/m*3 -0.3 C 0 km/h
9 28-12-2004 01:42:01 -0.2 C 3.25 g/m*3 -0.2 C 0 km/h
10 28-12-2004 01:54:02 -0.2 C 3.25 g/m*3 -0.2 C 0 km/h
11 28-12-2004 02:06:01 -0.3 C 3.27 g/m*3 -0.3 C 0 km/h
12 28-12-2004 02:18:01 -0.2 C 3.3 g/m*3 -0.2 C 0 km/h
13 28-12-2004 02:30:01 -0.1 C 3.32 g/m*3 -0.1 C 0 km/h
14 28-12-2004 02:42:02 -0.1 C 3.32 g/m*3 -0.1 C 0 km/h
15 28-12-2004 02:55:05 -0.5 C 3.23 g/m*3 -0.5 C 0 km/h
16 28-12-2004 03:07:05 -0.9 C 3.19 g/m*3 -0.9 C 0 km/h
17 28-12-2004 03:19:05 -0.9 C 3.23 g/m*3 -0.9 C 0 km/h
18 28-12-2004 03:31:02 -1.1 C 3.19 g/m*3 -1.1 C 0 km/h
19 28-12-2004 03:43:02 -1 C 3.25 g/m*3 -1 C 0 km/h
20 28-12-2004 03:55:03 -1 C 3.25 g/m*3 -1 C 0 km/h
21 28-12-2004 04:07:03 -1 C 3.3 g/m*3 -1 C 0 km/h
22 28-12-2004 04:19:03 -1 C 3.25 g/m*3 -1 C 0 km/h
23 28-12-2004 04:31:02 -1.2 C 3.25 g/m*3 -1.2 C 0 km/h
24 28-12-2004 04:43:02 -1.4 C 3.21 g/m*3 -1.4 C 0 km/h
25 28-12-2004 04:55:02 -1.3 C 3.23 g/m*3 -1.3 C 0 km/h
Sensor: Nr:Datum:Temp:Abs-Feuchte:Windchill:Wind:
Aussen-T/F 26 28-12-2004 05:07:02 -1.5 C 3.19 g/m*3 -1.5 C 0 km/h
27 28-12-2004 05:19:02 -1.6 C 3.21 g/m*3 -1.6 C 0 km/h
28 28-12-2004 05:31:02 -1.5 C 3.27 g/m*3 -1.5 C 0 km/h
29 28-12-2004 05:43:03 -1.3 C 3.32 g/m*3 -1.3 C 0 km/h
30 28-12-2004 05:55:01 -0.9 C 3.23 g/m*3 -0.9 C 0 km/h
31 28-12-2004 06:07:02 -0.7 C 3.23 g/m*3 -0.7 C 0 km/h
32 28-12-2004 06:19:02 -0.6 C 3.25 g/m*3 -0.6 C 0 km/h
33 28-12-2004 06:31:02 -0.6 C 3.21 g/m*3 -0.6 C 0 km/h
34 28-12-2004 06:43:02 -0.6 C 3.25 g/m*3 -0.6 C 0 km/h
35 28-12-2004 06:55:02 -0.6 C 3.25 g/m*3 -0.6 C 0 km/h
36 28-12-2004 07:07:03 -0.6 C 3.11 g/m*3 -0.6 C 0 km/h
37 28-12-2004 07:19:03 -0.6 C 3.11 g/m*3 -0.6 C 0 km/h
38 28-12-2004 07:31:02 -0.6 C 3.07 g/m*3 -0.6 C 0 km/h
39 28-12-2004 07:43:02 -0.6 C 3.02 g/m*3 -0.6 C 0 km/h
40 28-12-2004 07:55:01 -0.5 C 3.04 g/m*3 -0.5 C 0 km/h
41 28-12-2004 08:07:01 -0.5 C 3.04 g/m*3 -0.5 C 0 km/h
42 28-12-2004 08:19:01 -0.5 C 3.04 g/m*3 -0.5 C 0 km/h
43 28-12-2004 08:31:02 -0.4 C 3.06 g/m*3 -0.4 C 0 km/h
44 28-12-2004 08:43:02 -0.4 C 3.02 g/m*3 -0.4 C 0 km/h
45 28-12-2004 08:55:02 -0.4 C 3.02 g/m*3 -0.4 C 0 km/h
46 28-12-2004 09:07:02 -0.4 C 3.06 g/m*3 -0.4 C 0 km/h
47 28-12-2004 09:19:01 -0.3 C 3.04 g/m*3 -0.3 C 0 km/h
48 28-12-2004 09:31:02 -0.3 C 3.04 g/m*3 -0.3 C 0 km/h
49 28-12-2004 09:43:02 -0.2 C 3.11 g/m*3 -0.2 C 0 km/h
50 28-12-2004 09:55:04 0 C 3.15 g/m*3 0 C 0 km/h
Sensor: Nr:Datum:Temp:Abs-Feuchte:Windchill:Wind:
Aussen-T/F 51 28-12-2004 10:07:02 0.2 C 3.19 g/m*3 0.2 C 0 km/h
52 28-12-2004 10:19:02 0.3 C 3.17 g/m*3 0.3 C 0 km/h
53 28-12-2004 10:31:02 0.3 C 3.22 g/m*3 0.3 C 0 km/h
54 28-12-2004 10:43:02 0.4 C 3.19 g/m*3 0.4 C 0 km/h
55 28-12-2004 10:55:02 0.4 C 3.19 g/m*3 0.4 C 0 km/h
56 28-12-2004 11:07:03 0.4 C 3.19 g/m*3 0.4 C 0 km/h
57 28-12-2004 11:19:02 0.4 C 3.29 g/m*3 0.4 C 0 km/h
58 28-12-2004 11:31:02 0.3 C 3.46 g/m*3 0.3 C 0 km/h
59 28-12-2004 11:43:02 0.1 C 3.56 g/m*3 0.1 C 0 km/h
60 28-12-2004 11:55:01 0.2 C 3.64 g/m*3 0.2 C 0 km/h
61 28-12-2004 12:07:01 0.3 C 3.66 g/m*3 0.3 C 0 km/h
62 28-12-2004 12:19:02 0.3 C 3.66 g/m*3 0.3 C 0 km/h
63 28-12-2004 12:31:03 0.4 C 3.74 g/m*3 0.4 C 0 km/h
64 28-12-2004 12:43:03 0.5 C 3.71 g/m*3 0.5 C 0 km/h
65 28-12-2004 12:55:02 0.3 C 3.76 g/m*3 0.3 C 0 km/h
66 28-12-2004 13:07:02 0.3 C 3.86 g/m*3 0.3 C 0 km/h
67 28-12-2004 13:19:01 0.3 C 3.91 g/m*3 0.3 C 0 km/h
68 28-12-2004 13:31:03 0.4 C 3.84 g/m*3 0.4 C 0 km/h
69 28-12-2004 13:43:03 0.5 C 3.86 g/m*3 0.5 C 0 km/h
70 28-12-2004 13:55:04 0.4 C 3.88 g/m*3 0.4 C 0 km/h
71 28-12-2004 14:07:03 0.4 C 3.98 g/m*3 0.4 C 0 km/h
72 28-12-2004 14:19:03 0.3 C 4.01 g/m*3 0.3 C 0 km/h
73 28-12-2004 14:31:03 0.3 C 4.06 g/m*3 0.3 C 0 km/h
74 28-12-2004 14:43:03 0.3 C 4.11 g/m*3 0.3 C 0 km/h
75 28-12-2004 14:55:02 0.2 C 4.13 g/m*3 0.2 C 0 km/h
Sensor: Nr:Datum:Temp:Abs-Feuchte:Windchill:Wind:
Aussen-T/F 76 28-12-2004 15:07:02 0.2 C 4.18 g/m*3 0.2 C 0 km/h
77 28-12-2004 15:19:02 0.3 C 4.2 g/m*3 0.3 C 0 km/h
78 28-12-2004 15:31:02 0.3 C 4.25 g/m*3 0.3 C 0 km/h
79 28-12-2004 15:43:02 0.4 C 4.28 g/m*3 0.4 C 0 km/h
80 28-12-2004 15:55:02 0.3 C 4.25 g/m*3 0.3 C 0 km/h
81 28-12-2004 16:07:02 0.3 C 4.25 g/m*3 0.3 C 0 km/h
82 28-12-2004 16:19:03 0.3 C 4.25 g/m*3 0.3 C 0 km/h
83 28-12-2004 16:31:02 0.3 C 4.25 g/m*3 0.3 C 0 km/h
84 28-12-2004 16:43:02 0.3 C 4.3 g/m*3 0.3 C 0 km/h
85 28-12-2004 16:55:02 0.2 C 4.27 g/m*3 0.2 C 0 km/h
86 28-12-2004 17:07:03 0.3 C 4.35 g/m*3 0.3 C 0 km/h
87 28-12-2004 17:19:02 0.3 C 4.35 g/m*3 0.3 C 0 km/h
88 28-12-2004 17:31:02 0.2 C 4.37 g/m*3 0.2 C 0 km/h
89 28-12-2004 17:43:02 0.2 C 4.37 g/m*3 0.2 C 0 km/h
90 28-12-2004 17:55:04 0.2 C 4.37 g/m*3 0.2 C 0 km/h
91 28-12-2004 18:07:03 0.2 C 4.42 g/m*3 0.2 C 0 km/h
92 28-12-2004 18:19:02 0.5 C 4.51 g/m*3 0.5 C 0 km/h
93 28-12-2004 18:31:02 0.4 C 4.48 g/m*3 0.4 C 0 km/h
94 28-12-2004 18:43:02 0.6 C 4.54 g/m*3 0.6 C 0 km/h
95 28-12-2004 18:55:02 0.6 C 4.54 g/m*3 0.6 C 0 km/h
96 28-12-2004 19:07:03 0.7 C 4.58 g/m*3 0.7 C 0 km/h
97 28-12-2004 19:19:03 0.7 C 4.63 g/m*3 0.7 C 0 km/h
98 28-12-2004 19:31:02 0.7 C 4.63 g/m*3 0.7 C 0 km/h
99 28-12-2004 19:43:02 0.8 C 4.66 g/m*3 0.8 C 0 km/h
100 28-12-2004 19:55:02 0.8 C 4.66 g/m*3 0.8 C 0 km/h
Sensor: Nr:Datum:Temp:Abs-Feuchte:Windchill:Wind:
Aussen-T/F 101 28-12-2004 20:07:02 1 C 4.67 g/m*3 1 C 0 km/h
102 28-12-2004 20:19:02 1 C 4.67 g/m*3 1 C 0 km/h
103 28-12-2004 20:31:02 1 C 4.67 g/m*3 1 C 0 km/h
104 28-12-2004 20:43:02 1.2 C 4.79 g/m*3 1.2 C 0 km/h
105 28-12-2004 20:55:02 2 C 5 g/m*3 2 C 0 km/h
106 28-12-2004 21:07:02 2.2 C 5.01 g/m*3 2.2 C 0 km/h
107 28-12-2004 21:19:02 2.2 C 4.96 g/m*3 2.2 C 0 km/h
108 28-12-2004 21:31:02 2.9 C 4.9 g/m*3 2.9 C 0 km/h
109 28-12-2004 21:43:02 2.7 C 4.66 g/m*3 2.7 C 0 km/h
110 28-12-2004 21:55:02 3.1 C 4.67 g/m*3 3.1 C 0 km/h
111 28-12-2004 22:07:02 3 C 4.58 g/m*3 3 C 0 km/h
112 28-12-2004 22:19:02 3 C 4.58 g/m*3 3 C 0 km/h
113 28-12-2004 22:31:02 2.7 C 4.49 g/m*3 2.7 C 0 km/h
114 28-12-2004 22:43:02 3.1 C 4.49 g/m*3 3.1 C 0 km/h
115 28-12-2004 22:55:01 2.9 C 4.49 g/m*3 2.9 C 0 km/h
116 28-12-2004 23:07:02 2.6 C 4.51 g/m*3 2.6 C 0 km/h
117 28-12-2004 23:19:02 2.6 C 4.51 g/m*3 2.6 C 0 km/h
118 28-12-2004 23:31:02 2.4 C 4.45 g/m*3 2.4 C 0 km/h
119 28-12-2004 23:43:02 2.4 C 4.45 g/m*3 2.4 C 0 km/h
120 28-12-2004 23:55:02 2.4 C 4.45 g/m*3 2.4 C 0 km/h
121 29-12-2004 00:07:02 2.5 C 4.43 g/m*3 2.5 C 0 km/h
122 29-12-2004 00:19:02 2.4 C 4.4 g/m*3 2.4 C 0 km/h
123 29-12-2004 00:31:03 2.4 C 4.4 g/m*3 2.4 C 0 km/h
124 29-12-2004 00:43:03 2.2 C 4.39 g/m*3 2.2 C 0 km/h
125 29-12-2004 00:55:02 2.1 C 4.36 g/m*3 2.1 C 0 km/h
Sensor: Nr:Datum:Temp:Abs-Feuchte:Windchill:Wind:
Aussen-T/F 126 29-12-2004 01:07:02 2.1 C 4.36 g/m*3 2.1 C 0 km/h
127 29-12-2004 01:19:03 1.9 C 4.36 g/m*3 1.9 C 0 km/h
128 29-12-2004 01:31:02 1.8 C 4.39 g/m*3 1.8 C 0 km/h
129 29-12-2004 01:43:02 1.9 C 4.42 g/m*3 1.9 C 0 km/h
130 29-12-2004 01:55:02 1.9 C 4.42 g/m*3 1.9 C 0 km/h
131 29-12-2004 02:07:02 2 C 4.39 g/m*3 2 C 0 km/h
132 29-12-2004 02:19:03 2.3 C 4.42 g/m*3 2.3 C 0 km/h
133 29-12-2004 02:31:02 2.3 C 4.42 g/m*3 2.3 C 0 km/h
134 29-12-2004 02:43:02 2.2 C 4.39 g/m*3 2.2 C 0 km/h
135 29-12-2004 02:56:02 2.2 C 4.45 g/m*3 2.2 C 0 km/h
136 29-12-2004 03:08:02 1.9 C 4.53 g/m*3 1.9 C 0 km/h
137 29-12-2004 03:20:03 1.8 C 4.6 g/m*3 1.8 C 0 km/h
138 29-12-2004 03:32:03 1.8 C 4.66 g/m*3 1.8 C 0 km/h
139 29-12-2004 03:44:03 1.7 C 4.68 g/m*3 1.7 C 0 km/h
140 29-12-2004 03:56:03 1.7 C 4.68 g/m*3 1.7 C 0 km/h
141 29-12-2004 04:08:02 1.8 C 4.71 g/m*3 1.8 C 0 km/h
142 29-12-2004 04:20:02 1.8 C 4.71 g/m*3 1.8 C 0 km/h
143 29-12-2004 04:32:02 1.9 C 4.75 g/m*3 1.9 C 0 km/h
144 29-12-2004 04:44:02 1.9 C 4.69 g/m*3 1.9 C 0 km/h
145 29-12-2004 04:56:03 2.2 C 4.73 g/m*3 2.2 C 0 km/h
146 29-12-2004 05:08:03 2.3 C 4.71 g/m*3 2.3 C 0 km/h
147 29-12-2004 05:20:03 2.3 C 4.71 g/m*3 2.3 C 0 km/h
148 29-12-2004 05:32:02 2.3 C 4.65 g/m*3 2.3 C 0 km/h
149 29-12-2004 05:44:02 2.2 C 4.62 g/m*3 2.2 C 0 km/h
150 29-12-2004 05:56:01 2.3 C 4.65 g/m*3 2.3 C 0 km/h
Sensor: Nr:Datum:Temp:Abs-Feuchte:Windchill:Wind:
Aussen-T/F 151 29-12-2004 06:08:01 2.4 C 4.68 g/m*3 2.4 C 0 km/h
152 29-12-2004 06:20:02 2.4 C 4.62 g/m*3 2.4 C 0 km/h
153 29-12-2004 06:32:02 2.3 C 4.65 g/m*3 2.3 C 0 km/h
154 29-12-2004 06:44:02 2.3 C 4.65 g/m*3 2.3 C 0 km/h
155 29-12-2004 06:56:01 2.1 C 4.59 g/m*3 2.1 C 0 km/h
156 29-12-2004 07:08:02 1.7 C 4.63 g/m*3 1.7 C 0 km/h
157 29-12-2004 07:20:02 1.6 C 4.65 g/m*3 1.6 C 0 km/h
158 29-12-2004 07:32:01 1.7 C 4.74 g/m*3 1.7 C 0 km/h
159 29-12-2004 07:44:01 1.5 C 4.67 g/m*3 1.5 C 0 km/h
160 29-12-2004 07:56:01 1.2 C 4.63 g/m*3 1.2 C 0 km/h
161 29-12-2004 08:08:01 1.3 C 4.72 g/m*3 1.3 C 0 km/h
162 29-12-2004 08:20:01 1.3 C 4.72 g/m*3 1.3 C 0 km/h
163 29-12-2004 08:32:01 1.4 C 4.75 g/m*3 1.4 C 0 km/h
164 29-12-2004 08:44:01 1.4 C 4.75 g/m*3 1.4 C 0 km/h
165 29-12-2004 08:56:01 1.5 C 4.83 g/m*3 1.5 C 0 km/h
166 29-12-2004 09:08:01 1.6 C 4.87 g/m*3 1.6 C 0 km/h
167 29-12-2004 09:20:02 1.7 C 4.9 g/m*3 1.7 C 0 km/h
168 29-12-2004 09:32:01 1.8 C 4.93 g/m*3 1.8 C 0 km/h
169 29-12-2004 09:44:01 2 C 4.89 g/m*3 2 C 0 km/h
170 29-12-2004 09:56:03 2.2 C 4.9 g/m*3 2.2 C 0 km/h
171 29-12-2004 10:08:03 2.3 C 4.93 g/m*3 2.3 C 0 km/h
172 29-12-2004 10:20:03 2.4 C 4.91 g/m*3 2.4 C 0 km/h
173 29-12-2004 10:32:03 2.5 C 4.89 g/m*3 2.5 C 0 km/h
174 29-12-2004 10:44:03 2.7 C 4.89 g/m*3 2.7 C 0 km/h
175 29-12-2004 10:56:02 2.8 C 4.93 g/m*3 2.8 C 0 km/h
Sensor: Nr:Datum:Temp:Abs-Feuchte:Windchill:Wind:
Aussen-T/F 176 29-12-2004 11:08:02 2.8 C 4.93 g/m*3 2.8 C 0 km/h
177 29-12-2004 11:20:02 2.9 C 4.96 g/m*3 2.9 C 0 km/h
178 29-12-2004 11:32:02 2.9 C 4.9 g/m*3 2.9 C 0 km/h
179 29-12-2004 11:44:02 3 C 4.93 g/m*3 3 C 0 km/h
180 29-12-2004 11:56:01 3.1 C 4.91 g/m*3 3.1 C 0 km/h
181 29-12-2004 12:08:01 3.1 C 4.85 g/m*3 3.1 C 0 km/h
182 29-12-2004 12:20:02 3.3 C 4.91 g/m*3 3.3 C 0 km/h
183 29-12-2004 12:32:02 3.4 C 4.89 g/m*3 3.4 C 0 km/h
184 29-12-2004 12:44:02 3.5 C 4.92 g/m*3 3.5 C 0 km/h
185 29-12-2004 12:56:02 3.4 C 4.89 g/m*3 3.4 C 0 km/h
186 29-12-2004 13:08:02 3.5 C 4.92 g/m*3 3.5 C 0 km/h
187 29-12-2004 13:20:01 3.5 C 4.92 g/m*3 3.5 C 0 km/h
188 29-12-2004 13:32:02 3.5 C 4.92 g/m*3 3.5 C 0 km/h
189 29-12-2004 13:44:02 3.6 C 4.95 g/m*3 3.6 C 0 km/h
190 29-12-2004 13:56:02 3.6 C 4.95 g/m*3 3.6 C 0 km/h
191 29-12-2004 14:08:02 3.7 C 4.92 g/m*3 3.7 C 0 km/h
192 29-12-2004 14:20:02 3.7 C 4.92 g/m*3 3.7 C 0 km/h
193 29-12-2004 14:32:02 3.8 C 4.96 g/m*3 3.8 C 0 km/h
194 29-12-2004 14:44:02 3.6 C 4.89 g/m*3 3.6 C 0 km/h
195 29-12-2004 14:56:01 3.8 C 5.02 g/m*3 3.8 C 0 km/h
196 29-12-2004 15:08:02 3.8 C 4.96 g/m*3 3.8 C 0 km/h
197 29-12-2004 15:20:01 3.9 C 4.99 g/m*3 3.9 C 0 km/h
198 29-12-2004 15:32:01 3.8 C 4.96 g/m*3 3.8 C 0 km/h
199 29-12-2004 15:44:01 3.8 C 5.02 g/m*3 3.8 C 0 km/h
200 29-12-2004 15:56:02 3.8 C 5.02 g/m*3 3.8 C 0 km/h
Sensor: Nr:Datum:Temp:Abs-Feuchte:Windchill:Wind:
Aussen-T/F 201 29-12-2004 16:08:02 3.7 C 5.05 g/m*3 3.7 C 0 km/h
202 29-12-2004 16:20:02 3.6 C 5.01 g/m*3 3.6 C 0 km/h
203 29-12-2004 16:32:02 3.3 C 4.91 g/m*3 3.3 C 0 km/h
204 29-12-2004 16:44:02 3.2 C 4.94 g/m*3 3.2 C 0 km/h
205 29-12-2004 16:56:02 3 C 4.88 g/m*3 3 C 0 km/h
206 29-12-2004 17:08:02 2.7 C 4.84 g/m*3 2.7 C 0 km/h
207 29-12-2004 17:20:02 2.8 C 4.93 g/m*3 2.8 C 0 km/h
208 29-12-2004 17:32:03 2.8 C 4.93 g/m*3 2.8 C 0 km/h
209 29-12-2004 17:44:03 2.4 C 4.74 g/m*3 2.4 C 0 km/h
210 29-12-2004 17:56:02 2 C 4.61 g/m*3 2 C 0 km/h
211 29-12-2004 18:08:02 1.7 C 4.63 g/m*3 1.7 C 0 km/h
212 29-12-2004 18:20:02 1.6 C 4.65 g/m*3 1.6 C 0 km/h
213 29-12-2004 18:32:02 1.5 C 4.62 g/m*3 1.5 C 0 km/h
214 29-12-2004 18:44:02 1.9 C 4.86 g/m*3 1.9 C 0 km/h
215 29-12-2004 18:56:02 2.1 C 4.87 g/m*3 2.1 C 0 km/h
216 29-12-2004 19:08:02 2.2 C 4.9 g/m*3 2.2 C 0 km/h
217 29-12-2004 19:20:02 2 C 4.83 g/m*3 2 C 0 km/h
218 29-12-2004 19:32:02 1.9 C 4.8 g/m*3 1.9 C 0 km/h
219 29-12-2004 19:44:03 2.1 C 4.81 g/m*3 2.1 C 0 km/h
220 29-12-2004 19:56:01 2.2 C 4.84 g/m*3 2.2 C 0 km/h
221 29-12-2004 20:08:02 2.2 C 4.84 g/m*3 2.2 C 0 km/h
222 29-12-2004 20:20:02 2.2 C 4.84 g/m*3 2.2 C 0 km/h
223 29-12-2004 20:32:02 2.3 C 4.88 g/m*3 2.3 C 0 km/h
224 29-12-2004 20:44:02 2.3 C 4.82 g/m*3 2.3 C 0 km/h
225 29-12-2004 20:56:01 2.3 C 4.82 g/m*3 2.3 C 0 km/h
Sensor: Nr:Datum:Temp:Abs-Feuchte:Windchill:Wind:
Aussen-T/F 226 29-12-2004 21:08:02 2.2 C 4.79 g/m*3 2.2 C 0 km/h
227 29-12-2004 21:20:01 2.1 C 4.76 g/m*3 2.1 C 0 km/h
228 29-12-2004 21:32:02 2 C 4.78 g/m*3 2 C 0 km/h
229 29-12-2004 21:44:02 2 C 4.78 g/m*3 2 C 0 km/h
230 29-12-2004 21:56:02 2 C 4.78 g/m*3 2 C 0 km/h
231 29-12-2004 22:08:02 2 C 4.78 g/m*3 2 C 0 km/h
232 29-12-2004 22:20:02 1.9 C 4.75 g/m*3 1.9 C 0 km/h
233 29-12-2004 22:32:03 1.9 C 4.75 g/m*3 1.9 C 0 km/h
234 29-12-2004 22:44:03 1.9 C 4.75 g/m*3 1.9 C 0 km/h
235 29-12-2004 22:56:02 1.9 C 4.69 g/m*3 1.9 C 0 km/h
236 29-12-2004 23:08:02 1.7 C 4.63 g/m*3 1.7 C 0 km/h
237 29-12-2004 23:20:02 1.5 C 4.62 g/m*3 1.5 C 0 km/h
238 29-12-2004 23:32:02 1.6 C 4.65 g/m*3 1.6 C 0 km/h
239 29-12-2004 23:44:02 1.6 C 4.65 g/m*3 1.6 C 0 km/h
240 29-12-2004 23:56:02 1.5 C 4.62 g/m*3 1.5 C 0 km/h
241 30-12-2004 00:08:02 1.2 C 4.53 g/m*3 1.2 C 0 km/h
242 30-12-2004 00:20:03 1.1 C 4.49 g/m*3 1.1 C 0 km/h
243 30-12-2004 00:32:02 1 C 4.46 g/m*3 1 C 0 km/h
244 30-12-2004 00:44:02 0.8 C 4.45 g/m*3 0.8 C 0 km/h
245 30-12-2004 00:56:02 0.6 C 4.39 g/m*3 0.6 C 0 km/h
246 30-12-2004 01:08:02 0.6 C 4.39 g/m*3 0.6 C 0 km/h
247 30-12-2004 01:20:02 0.4 C 4.38 g/m*3 0.4 C 0 km/h
248 30-12-2004 01:32:01 0.4 C 4.38 g/m*3 0.4 C 0 km/h
249 30-12-2004 01:44:01 0.4 C 4.38 g/m*3 0.4 C 0 km/h
250 30-12-2004 01:56:02 0.5 C 4.41 g/m*3 0.5 C 0 km/h
Sensor: Nr:Datum:Temp:Abs-Feuchte:Windchill:Wind:
Aussen-T/F 251 30-12-2004 02:08:02 0.4 C 4.38 g/m*3 0.4 C 0 km/h
252 30-12-2004 02:20:03 0.4 C 4.43 g/m*3 0.4 C 0 km/h
253 30-12-2004 02:32:03 0.3 C 4.4 g/m*3 0.3 C 0 km/h
254 30-12-2004 02:44:03 0.2 C 4.37 g/m*3 0.2 C 0 km/h
255 30-12-2004 02:56:02 0.5 C 4.46 g/m*3 0.5 C 0 km/h
256 30-12-2004 03:08:02 0.6 C 4.49 g/m*3 0.6 C 0 km/h
257 30-12-2004 03:20:01 0.6 C 4.49 g/m*3 0.6 C 0 km/h
258 30-12-2004 03:32:01 0.7 C 4.58 g/m*3 0.7 C 0 km/h
259 30-12-2004 03:44:01 0.8 C 4.61 g/m*3 0.8 C 0 km/h
260 30-12-2004 03:56:01 0.9 C 4.64 g/m*3 0.9 C 0 km/h
261 30-12-2004 04:08:02 0.9 C 4.64 g/m*3 0.9 C 0 km/h
262 30-12-2004 04:20:01 1 C 4.67 g/m*3 1 C 0 km/h
263 30-12-2004 04:32:02 1.1 C 4.7 g/m*3 1.1 C 0 km/h
264 30-12-2004 04:44:02 1.1 C 4.7 g/m*3 1.1 C 0 km/h
265 30-12-2004 04:56:02 1.1 C 4.7 g/m*3 1.1 C 0 km/h
266 30-12-2004 05:08:01 1.2 C 4.74 g/m*3 1.2 C 0 km/h
267 30-12-2004 05:20:02 1.2 C 4.74 g/m*3 1.2 C 0 km/h
268 30-12-2004 05:32:02 1.2 C 4.68 g/m*3 1.2 C 0 km/h
269 30-12-2004 05:44:02 1.2 C 4.68 g/m*3 1.2 C 0 km/h
270 30-12-2004 05:56:01 1.3 C 4.72 g/m*3 1.3 C 0 km/h
271 30-12-2004 06:08:01 1.4 C 4.69 g/m*3 1.4 C 0 km/h
272 30-12-2004 06:20:02 2 C 4.56 g/m*3 2 C 0 km/h
273 30-12-2004 06:32:01 2.3 C 4.42 g/m*3 2.3 C 0 km/h
274 30-12-2004 06:44:01 2.5 C 4.43 g/m*3 2.5 C 0 km/h
275 30-12-2004 06:56:01 2.6 C 4.4 g/m*3 2.6 C 0 km/h
Sensor: Nr:Datum:Temp:Abs-Feuchte:Windchill:Wind:
Aussen-T/F 276 30-12-2004 07:08:01 2.5 C 4.37 g/m*3 2.5 C 0 km/h
277 30-12-2004 07:20:02 2.4 C 4.45 g/m*3 2.4 C 0 km/h
278 30-12-2004 07:32:01 2.6 C 4.4 g/m*3 2.6 C 0 km/h
279 30-12-2004 07:44:01 3 C 4.22 g/m*3 3 C 0 km/h
280 30-12-2004 07:56:01 3.1 C 4.19 g/m*3 3.1 C 0 km/h
281 30-12-2004 08:08:02 3.1 C 4.19 g/m*3 3.1 C 0 km/h
282 30-12-2004 08:20:02 3.1 C 4.25 g/m*3 3.1 C 0 km/h
283 30-12-2004 08:32:01 3.1 C 4.19 g/m*3 3.1 C 0 km/h
284 30-12-2004 08:44:01 3.1 C 4.25 g/m*3 3.1 C 0 km/h
285 30-12-2004 08:56:01 3.3 C 4.31 g/m*3 3.3 C 0 km/h
286 30-12-2004 09:08:01 3.4 C 4.28 g/m*3 3.4 C 0 km/h
287 30-12-2004 09:20:01 3.4 C 4.28 g/m*3 3.4 C 0 km/h
288 30-12-2004 09:32:01 3.5 C 4.3 g/m*3 3.5 C 0 km/h
289 30-12-2004 09:44:01 3.6 C 4.33 g/m*3 3.6 C 0 km/h
290 30-12-2004 09:56:02 3.7 C 4.3 g/m*3 3.7 C 0 km/h
291 30-12-2004 10:08:02 3.8 C 4.39 g/m*3 3.8 C 0 km/h
292 30-12-2004 10:20:01 4 C 4.32 g/m*3 4 C 0 km/h
293 30-12-2004 10:32:01 4.2 C 4.38 g/m*3 4.2 C 0 km/h
294 30-12-2004 10:44:01 4.3 C 4.35 g/m*3 4.3 C 0 km/h
295 30-12-2004 10:56:01 4.4 C 4.37 g/m*3 4.4 C 0 km/h
296 30-12-2004 11:08:01 4.5 C 4.4 g/m*3 4.5 C 0 km/h
297 30-12-2004 11:20:01 4.6 C 4.37 g/m*3 4.6 C 0 km/h
298 30-12-2004 11:32:02 4.7 C 4.4 g/m*3 4.7 C 0 km/h
299 30-12-2004 11:44:02 4.6 C 4.37 g/m*3 4.6 C 0 km/h
300 30-12-2004 11:56:02 4.7 C 4.4 g/m*3 4.7 C 0 km/h
Sensor: Nr:Datum:Temp:Abs-Feuchte:Windchill:Wind:
Aussen-T/F 301 30-12-2004 12:08:01 4.9 C 4.46 g/m*3 4.9 C 0 km/h
302 30-12-2004 12:20:01 4.9 C 4.39 g/m*3 4.9 C 0 km/h
303 30-12-2004 12:32:01 5 C 4.28 g/m*3 5 C 0 km/h
304 30-12-2004 12:44:01 5 C 4.21 g/m*3 5 C 0 km/h
305 30-12-2004 12:56:01 5.1 C 4.31 g/m*3 5.1 C 0 km/h
306 30-12-2004 13:08:02 5.2 C 4.27 g/m*3 5.2 C 0 km/h
307 30-12-2004 13:20:02 5.2 C 4.34 g/m*3 5.2 C 0 km/h
308 30-12-2004 13:32:02 5.1 C 4.38 g/m*3 5.1 C 0 km/h
309 30-12-2004 13:44:03 4.8 C 4.56 g/m*3 4.8 C 0 km/h
310 30-12-2004 13:56:01 4.7 C 4.66 g/m*3 4.7 C 0 km/h
311 30-12-2004 14:08:02 4.9 C 4.66 g/m*3 4.9 C 0 km/h
312 30-12-2004 14:20:02 5 C 4.48 g/m*3 5 C 0 km/h
313 30-12-2004 14:32:02 5 C 4.42 g/m*3 5 C 0 km/h
314 30-12-2004 14:44:02 4.8 C 4.56 g/m*3 4.8 C 0 km/h
315 30-12-2004 14:56:03 4.8 C 4.69 g/m*3 4.8 C 0 km/h
316 30-12-2004 15:08:02 4.8 C 4.63 g/m*3 4.8 C 0 km/h
317 30-12-2004 15:20:02 4.9 C 4.52 g/m*3 4.9 C 0 km/h
318 30-12-2004 15:32:02 5 C 4.42 g/m*3 5 C 0 km/h
319 30-12-2004 15:44:02 5 C 4.42 g/m*3 5 C 0 km/h
320 30-12-2004 15:56:02 5 C 4.48 g/m*3 5 C 0 km/h
321 30-12-2004 16:08:02 5 C 4.48 g/m*3 5 C 0 km/h
322 30-12-2004 16:20:02 5 C 4.42 g/m*3 5 C 0 km/h
323 30-12-2004 16:32:02 5 C 4.42 g/m*3 5 C 0 km/h
324 30-12-2004 16:44:02 4.8 C 4.49 g/m*3 4.8 C 0 km/h
325 30-12-2004 16:56:02 4.8 C 4.49 g/m*3 4.8 C 0 km/h
Sensor: Nr:Datum:Temp:Abs-Feuchte:Windchill:Wind:
Aussen-T/F 326 30-12-2004 17:08:01 4.7 C 4.53 g/m*3 4.7 C 0 km/h
327 30-12-2004 17:20:01 4.7 C 4.53 g/m*3 4.7 C 0 km/h
328 30-12-2004 17:32:02 4.7 C 4.6 g/m*3 4.7 C 0 km/h
329 30-12-2004 17:44:02 4.6 C 4.57 g/m*3 4.6 C 0 km/h
330 30-12-2004 17:56:02 4.5 C 4.73 g/m*3 4.5 C 0 km/h
331 30-12-2004 18:08:02 4.5 C 4.8 g/m*3 4.5 C 0 km/h
332 30-12-2004 18:20:02 4.3 C 4.86 g/m*3 4.3 C 0 km/h
333 30-12-2004 18:32:01 4.3 C 4.93 g/m*3 4.3 C 0 km/h
334 30-12-2004 18:44:01 4.4 C 4.96 g/m*3 4.4 C 0 km/h
335 30-12-2004 18:56:02 4.4 C 4.9 g/m*3 4.4 C 0 km/h
336 30-12-2004 19:08:01 4.3 C 4.99 g/m*3 4.3 C 0 km/h
337 30-12-2004 19:20:01 4.1 C 4.99 g/m*3 4.1 C 0 km/h
338 30-12-2004 19:32:01 4.1 C 4.99 g/m*3 4.1 C 0 km/h
339 30-12-2004 19:44:01 4.2 C 5.03 g/m*3 4.2 C 0 km/h
340 30-12-2004 19:56:02 4.3 C 4.99 g/m*3 4.3 C 0 km/h
341 30-12-2004 20:08:02 4.1 C 5.12 g/m*3 4.1 C 0 km/h
342 30-12-2004 20:20:01 4.1 C 5.12 g/m*3 4.1 C 0 km/h
343 30-12-2004 20:32:01 4.1 C 5.12 g/m*3 4.1 C 0 km/h
344 30-12-2004 20:44:02 4.2 C 5.09 g/m*3 4.2 C 0 km/h
345 30-12-2004 20:56:02 4.2 C 5.09 g/m*3 4.2 C 0 km/h
346 30-12-2004 21:08:02 4.2 C 5.03 g/m*3 4.2 C 0 km/h
347 30-12-2004 21:20:01 4.2 C 5.03 g/m*3 4.2 C 0 km/h
348 30-12-2004 21:32:02 4.2 C 5.03 g/m*3 4.2 C 0 km/h
349 30-12-2004 21:44:02 4.3 C 5.06 g/m*3 4.3 C 0 km/h
350 30-12-2004 21:56:01 4.3 C 5.06 g/m*3 4.3 C 0 km/h
Sensor: Nr:Datum:Temp:Abs-Feuchte:Windchill:Wind:
Aussen-T/F 351 30-12-2004 22:08:02 4.3 C 5.06 g/m*3 4.3 C 0 km/h
352 30-12-2004 22:20:02 4.3 C 5.06 g/m*3 4.3 C 0 km/h
353 30-12-2004 22:32:02 4.3 C 5.06 g/m*3 4.3 C 0 km/h
354 30-12-2004 22:44:02 4.3 C 5.06 g/m*3 4.3 C 0 km/h
355 30-12-2004 22:56:02 4.3 C 5.06 g/m*3 4.3 C 0 km/h
356 30-12-2004 23:08:01 4.3 C 5.12 g/m*3 4.3 C 0 km/h
357 30-12-2004 23:20:01 4.3 C 5.12 g/m*3 4.3 C 0 km/h
358 30-12-2004 23:32:01 4.3 C 5.12 g/m*3 4.3 C 0 km/h
359 30-12-2004 23:44:01 4.3 C 5.12 g/m*3 4.3 C 0 km/h
360 30-12-2004 23:56:02 4.3 C 5.12 g/m*3 4.3 C 0 km/h
361 31-12-2004 00:08:02 4.4 C 5.16 g/m*3 4.4 C 0 km/h
362 31-12-2004 00:20:02 4.4 C 5.16 g/m*3 4.4 C 0 km/h
363 31-12-2004 00:32:01 4.4 C 5.16 g/m*3 4.4 C 0 km/h
364 31-12-2004 00:44:01 4.4 C 5.16 g/m*3 4.4 C 0 km/h
365 31-12-2004 00:56:02 4.4 C 5.16 g/m*3 4.4 C 0 km/h
366 31-12-2004 01:08:01 4.4 C 5.16 g/m*3 4.4 C 0 km/h
367 31-12-2004 01:20:02 4.4 C 5.16 g/m*3 4.4 C 0 km/h
368 31-12-2004 01:32:02 4.4 C 5.22 g/m*3 4.4 C 0 km/h
369 31-12-2004 01:44:02 4.4 C 5.22 g/m*3 4.4 C 0 km/h
370 31-12-2004 01:56:01 4.4 C 5.22 g/m*3 4.4 C 0 km/h
371 31-12-2004 02:08:01 4.4 C 5.22 g/m*3 4.4 C 0 km/h
372 31-12-2004 02:20:01 4.5 C 5.26 g/m*3 4.5 C 0 km/h
373 31-12-2004 02:32:01 4.5 C 5.26 g/m*3 4.5 C 0 km/h
374 31-12-2004 02:44:01 4.5 C 5.32 g/m*3 4.5 C 0 km/h
375 31-12-2004 02:57:06 4.5 C 5.26 g/m*3 4.5 C 0 km/h
Sensor: Nr:Datum:Temp:Abs-Feuchte:Windchill:Wind:
Aussen-T/F 376 31-12-2004 03:09:06 4.5 C 5.32 g/m*3 4.5 C 0 km/h
377 31-12-2004 03:21:07 4.5 C 5.32 g/m*3 4.5 C 0 km/h
378 31-12-2004 03:33:02 4.5 C 5.32 g/m*3 4.5 C 0 km/h
379 31-12-2004 03:45:02 4.6 C 5.36 g/m*3 4.6 C 0 km/h
380 31-12-2004 03:57:02 4.7 C 5.33 g/m*3 4.7 C 0 km/h
381 31-12-2004 04:09:01 4.7 C 5.33 g/m*3 4.7 C 0 km/h
382 31-12-2004 04:21:02 4.8 C 5.43 g/m*3 4.8 C 0 km/h
383 31-12-2004 04:33:02 4.7 C 5.4 g/m*3 4.7 C 0 km/h
384 31-12-2004 04:45:02 4.8 C 5.43 g/m*3 4.8 C 0 km/h
385 31-12-2004 04:57:02 4.9 C 5.47 g/m*3 4.9 C 0 km/h
386 31-12-2004 05:09:03 5 C 5.37 g/m*3 5 C 0 km/h
387 31-12-2004 05:21:02 5 C 5.37 g/m*3 5 C 0 km/h
388 31-12-2004 05:33:02 5.1 C 5.4 g/m*3 5.1 C 0 km/h
389 31-12-2004 05:45:03 5 C 5.44 g/m*3 5 C 0 km/h
390 31-12-2004 05:57:03 5.1 C 5.47 g/m*3 5.1 C 0 km/h
391 31-12-2004 06:09:02 5.1 C 5.47 g/m*3 5.1 C 0 km/h
392 31-12-2004 06:21:02 5.1 C 5.47 g/m*3 5.1 C 0 km/h
393 31-12-2004 06:33:02 5.1 C 5.47 g/m*3 5.1 C 0 km/h
394 31-12-2004 06:45:02 5.1 C 5.54 g/m*3 5.1 C 0 km/h
395 31-12-2004 06:57:02 5.3 C 5.61 g/m*3 5.3 C 0 km/h
396 31-12-2004 07:09:02 5.4 C 5.65 g/m*3 5.4 C 0 km/h
397 31-12-2004 07:21:02 5.4 C 5.65 g/m*3 5.4 C 0 km/h
398 31-12-2004 07:33:02 5.4 C 5.65 g/m*3 5.4 C 0 km/h
399 31-12-2004 07:45:02 5.4 C 5.65 g/m*3 5.4 C 0 km/h
400 31-12-2004 07:57:02 5.4 C 5.72 g/m*3 5.4 C 0 km/h
Sensor: Nr:Datum:Temp:Abs-Feuchte:Windchill:Wind:
Aussen-T/F 401 31-12-2004 08:09:02 5.5 C 5.76 g/m*3 5.5 C 0 km/h
402 31-12-2004 08:21:02 5.5 C 5.76 g/m*3 5.5 C 0 km/h
403 31-12-2004 08:33:02 5.6 C 5.73 g/m*3 5.6 C 0 km/h
404 31-12-2004 08:45:01 5.6 C 5.73 g/m*3 5.6 C 0 km/h
405 31-12-2004 08:57:01 5.7 C 5.76 g/m*3 5.7 C 0 km/h
406 31-12-2004 09:09:02 5.8 C 5.8 g/m*3 5.8 C 0 km/h
407 31-12-2004 09:21:02 5.8 C 5.8 g/m*3 5.8 C 0 km/h
408 31-12-2004 09:33:01 5.8 C 5.8 g/m*3 5.8 C 0 km/h
409 31-12-2004 09:45:01 5.8 C 5.8 g/m*3 5.8 C 0 km/h
410 31-12-2004 09:57:01 5.8 C 5.8 g/m*3 5.8 C 0 km/h
411 31-12-2004 10:09:02 5.8 C 5.8 g/m*3 5.8 C 0 km/h
412 31-12-2004 10:21:02 5.9 C 5.91 g/m*3 5.9 C 0 km/h
413 31-12-2004 10:33:01 6 C 5.81 g/m*3 6 C 0 km/h
414 31-12-2004 10:45:01 6 C 5.88 g/m*3 6 C 0 km/h
415 31-12-2004 10:57:01 6 C 5.88 g/m*3 6 C 0 km/h
416 31-12-2004 11:09:01 6.1 C 5.92 g/m*3 6.1 C 0 km/h
417 31-12-2004 11:21:01 6.3 C 5.92 g/m*3 6.3 C 0 km/h
418 31-12-2004 11:33:02 6.4 C 5.96 g/m*3 6.4 C 0 km/h
419 31-12-2004 11:45:02 6.4 C 5.96 g/m*3 6.4 C 0 km/h
420 31-12-2004 11:57:02 6.5 C 6 g/m*3 6.5 C 0 km/h
421 31-12-2004 12:09:02 6.7 C 6 g/m*3 6.7 C 0 km/h
422 31-12-2004 12:21:02 6.8 C 6.04 g/m*3 6.8 C 0 km/h
423 31-12-2004 12:33:02 6.9 C 6 g/m*3 6.9 C 0 km/h
424 31-12-2004 12:45:01 7 C 5.97 g/m*3 7 C 0 km/h
425 31-12-2004 12:57:01 7.1 C 6.08 g/m*3 7.1 C 0 km/h
Sensor: Nr:Datum:Temp:Abs-Feuchte:Windchill:Wind:
Aussen-T/F 426 31-12-2004 13:09:01 7.3 C 6.08 g/m*3 7.3 C 0 km/h
427 31-12-2004 13:21:01 7.3 C 6.08 g/m*3 7.3 C 0 km/h
428 31-12-2004 13:33:02 7.1 C 6.08 g/m*3 7.1 C 0 km/h
429 31-12-2004 13:45:02 7 C 6.04 g/m*3 7 C 0 km/h
430 31-12-2004 13:57:02 7 C 6.12 g/m*3 7 C 0 km/h
431 31-12-2004 14:09:02 7 C 6.12 g/m*3 7 C 0 km/h
432 31-12-2004 14:21:02 7.1 C 6.16 g/m*3 7.1 C 0 km/h
433 31-12-2004 14:33:02 7.1 C 6.16 g/m*3 7.1 C 0 km/h
434 31-12-2004 14:45:01 7.1 C 6.16 g/m*3 7.1 C 0 km/h
435 31-12-2004 14:57:01 7.1 C 6.24 g/m*3 7.1 C 0 km/h
436 31-12-2004 15:09:02 7 C 6.35 g/m*3 7 C 0 km/h
437 31-12-2004 15:21:02 7 C 6.43 g/m*3 7 C 0 km/h
438 31-12-2004 15:33:03 7.1 C 6.47 g/m*3 7.1 C 0 km/h
439 31-12-2004 15:45:03 7.2 C 6.59 g/m*3 7.2 C 0 km/h
440 31-12-2004 15:57:03 7.2 C 6.59 g/m*3 7.2 C 0 km/h
441 31-12-2004 16:09:02 7.2 C 6.52 g/m*3 7.2 C 0 km/h
442 31-12-2004 16:21:03 7.3 C 6.56 g/m*3 7.3 C 0 km/h
443 31-12-2004 16:33:03 7.4 C 6.6 g/m*3 7.4 C 0 km/h
444 31-12-2004 16:45:04 7.5 C 6.56 g/m*3 7.5 C 0 km/h
445 31-12-2004 16:57:04 7.5 C 6.56 g/m*3 7.5 C 0 km/h
446 31-12-2004 17:09:07 7.7 C 6.57 g/m*3 7.7 C 0 km/h
447 31-12-2004 17:21:04 7.9 C 6.65 g/m*3 7.9 C 0 km/h
448 31-12-2004 17:33:00 7.9 C 6.57 g/m*3 7.9 C 0 km/h
449 31-12-2004 17:45:02 8 C 6.53 g/m*3 8 C 0 km/h
450 31-12-2004 17:57:02 7.7 C 6.65 g/m*3 7.7 C 0 km/h
Sensor: Nr:Datum:Temp:Abs-Feuchte:Windchill:Wind:
Aussen-T/F 451 31-12-2004 18:09:02 7.7 C 6.73 g/m*3 7.7 C 0 km/h
452 31-12-2004 18:21:02 7.7 C 6.73 g/m*3 7.7 C 0 km/h
453 31-12-2004 18:33:02 7.7 C 6.73 g/m*3 7.7 C 0 km/h
454 31-12-2004 18:45:01 7.8 C 6.77 g/m*3 7.8 C 0 km/h
455 31-12-2004 18:57:01 8 C 6.7 g/m*3 8 C 0 km/h
456 31-12-2004 19:09:02 8.1 C 6.57 g/m*3 8.1 C 0 km/h
457 31-12-2004 19:21:02 8.2 C 6.62 g/m*3 8.2 C 0 km/h
458 31-12-2004 19:33:01 8.2 C 6.62 g/m*3 8.2 C 0 km/h
459 31-12-2004 19:45:03 8.1 C 6.57 g/m*3 8.1 C 0 km/h
460 31-12-2004 19:57:03 8.2 C 6.62 g/m*3 8.2 C 0 km/h
461 31-12-2004 20:09:02 8.2 C 6.62 g/m*3 8.2 C 0 km/h
462 31-12-2004 20:21:02 8.3 C 6.66 g/m*3 8.3 C 0 km/h
463 31-12-2004 20:33:01 8.2 C 6.62 g/m*3 8.2 C 0 km/h
464 31-12-2004 20:45:02 8.1 C 6.57 g/m*3 8.1 C 0 km/h
465 31-12-2004 20:57:02 8.3 C 6.66 g/m*3 8.3 C 0 km/h
466 31-12-2004 21:09:02 8.2 C 6.62 g/m*3 8.2 C 0 km/h
467 31-12-2004 21:21:02 8.2 C 6.62 g/m*3 8.2 C 0 km/h
468 31-12-2004 21:33:02 8.2 C 6.62 g/m*3 8.2 C 0 km/h
469 31-12-2004 21:45:02 8 C 6.7 g/m*3 8 C 0 km/h
470 31-12-2004 21:57:02 8.1 C 6.74 g/m*3 8.1 C 0 km/h
471 31-12-2004 22:09:02 8.4 C 6.79 g/m*3 8.4 C 0 km/h
472 31-12-2004 22:21:02 8.3 C 6.66 g/m*3 8.3 C 0 km/h
473 31-12-2004 22:33:02 8.1 C 6.66 g/m*3 8.1 C 0 km/h
474 31-12-2004 22:45:01 8.2 C 6.62 g/m*3 8.2 C 0 km/h
475 31-12-2004 22:57:01 8.1 C 6.57 g/m*3 8.1 C 0 km/h
Sensor: Nr:Datum:Temp:Abs-Feuchte:Windchill:Wind:
Aussen-T/F 476 31-12-2004 23:09:01 8 C 6.61 g/m*3 8 C 0 km/h
477 31-12-2004 23:21:01 8.1 C 6.66 g/m*3 8.1 C 0 km/h
478 31-12-2004 23:33:01 8.2 C 6.62 g/m*3 8.2 C 0 km/h
479 31-12-2004 23:45:01 8.1 C 6.57 g/m*3 8.1 C 0 km/h
480 31-12-2004 23:57:01 8.1 C 6.57 g/m*3 8.1 C 0 km/h
481 01-01-2005 00:09:02 8 C 6.53 g/m*3 8 C 0 km/h
482 01-01-2005 00:21:02 7.8 C 6.77 g/m*3 7.8 C 0 km/h
483 01-01-2005 00:33:02 7.7 C 6.89 g/m*3 7.7 C 0 km/h
484 01-01-2005 00:45:35 7.6 C 6.85 g/m*3 7.6 C 0 km/h
485 01-01-2005 00:57:35 7.6 C 6.85 g/m*3 7.6 C 0 km/h
486 01-01-2005 01:09:51 7.7 C 6.89 g/m*3 7.7 C 0 km/h
487 01-01-2005 01:21:18 7.8 C 6.94 g/m*3 7.8 C 0 km/h
488 01-01-2005 01:33:19 7.9 C 6.9 g/m*3 7.9 C 0 km/h
489 01-01-2005 01:45:35 7.8 C 6.94 g/m*3 7.8 C 0 km/h
490 01-01-2005 01:57:02 7.8 C 6.94 g/m*3 7.8 C 0 km/h
491 01-01-2005 02:09:17 7.8 C 6.86 g/m*3 7.8 C 0 km/h
492 01-01-2005 02:21:17 7.8 C 6.86 g/m*3 7.8 C 0 km/h
493 01-01-2005 02:33:45 7.9 C 6.9 g/m*3 7.9 C 0 km/h
494 01-01-2005 02:45:02 7.9 C 6.82 g/m*3 7.9 C 0 km/h
495 01-01-2005 02:57:02 7.8 C 6.77 g/m*3 7.8 C 0 km/h
496 01-01-2005 03:09:02 7.9 C 6.82 g/m*3 7.9 C 0 km/h
497 01-01-2005 03:19:01 7.9 C 6.82 g/m*3 7.9 C 0 km/h
498 01-01-2005 03:46:58 7.8 C 6.86 g/m*3 7.8 C 0 km/h
499 01-01-2005 03:58:58 7.7 C 6.81 g/m*3 7.7 C 0 km/h
500 01-01-2005 04:10:58 7.8 C 6.94 g/m*3 7.8 C 0 km/h
Sensor: Nr:Datum:Temp:Abs-Feuchte:Windchill:Wind:
Aussen-T/F 501 01-01-2005 04:22:14 7.7 C 6.89 g/m*3 7.7 C 0 km/h
502 01-01-2005 04:34:41 7.8 C 6.94 g/m*3 7.8 C 0 km/h
503 01-01-2005 04:46:41 7.7 C 6.73 g/m*3 7.7 C 0 km/h
504 01-01-2005 04:58:57 7.6 C 6.69 g/m*3 7.6 C 0 km/h
505 01-01-2005 05:10:29 7.6 C 6.61 g/m*3 7.6 C 0 km/h
506 01-01-2005 05:22:24 7.5 C 6.56 g/m*3 7.5 C 0 km/h
507 01-01-2005 05:34:24 7.2 C 6.36 g/m*3 7.2 C 0 km/h
508 01-01-2005 05:46:10 7 C 6.28 g/m*3 7 C 0 km/h
509 01-01-2005 05:58:05 6.8 C 6.27 g/m*3 6.8 C 0 km/h
510 01-01-2005 06:10:52 6.8 C 6.27 g/m*3 6.8 C 0 km/h
511 01-01-2005 06:22:47 6.8 C 6.27 g/m*3 6.8 C 0 km/h
512 01-01-2005 06:34:33 6.8 C 6.19 g/m*3 6.8 C 0 km/h
513 01-01-2005 06:46:29 6.8 C 6.19 g/m*3 6.8 C 0 km/h
514 01-01-2005 06:58:15 6.8 C 6.19 g/m*3 6.8 C 0 km/h
515 01-01-2005 07:10:15 6.8 C 6.19 g/m*3 6.8 C 0 km/h
516 01-01-2005 07:22:10 6.7 C 6.08 g/m*3 6.7 C 0 km/h
517 01-01-2005 07:34:56 6.7 C 6.08 g/m*3 6.7 C 0 km/h
518 01-01-2005 07:46:51 6.6 C 5.96 g/m*3 6.6 C 0 km/h
519 01-01-2005 07:58:37 6.4 C 5.89 g/m*3 6.4 C 0 km/h
520 01-01-2005 08:10:33 6.3 C 5.85 g/m*3 6.3 C 0 km/h
521 01-01-2005 08:22:19 6.2 C 5.88 g/m*3 6.2 C 0 km/h
522 01-01-2005 08:34:20 6.2 C 5.96 g/m*3 6.2 C 0 km/h
523 01-01-2005 08:46:15 6.2 C 5.96 g/m*3 6.2 C 0 km/h
524 01-01-2005 08:58:01 6.2 C 5.96 g/m*3 6.2 C 0 km/h
525 01-01-2005 09:10:56 6.2 C 6.03 g/m*3 6.2 C 0 km/h
Sensor: Nr:Datum:Temp:Abs-Feuchte:Windchill:Wind:
Aussen-T/F 526 01-01-2005 09:22:42 6.2 C 6.03 g/m*3 6.2 C 0 km/h
527 01-01-2005 09:34:59 6.2 C 6.03 g/m*3 6.2 C 0 km/h
528 01-01-2005 09:46:02 6.4 C 6.11 g/m*3 6.4 C 0 km/h
529 01-01-2005 09:58:02 6.5 C 6.15 g/m*3 6.5 C 0 km/h
530 01-01-2005 10:10:02 6.6 C 6.19 g/m*3 6.6 C 0 km/h
531 01-01-2005 10:22:02 6.7 C 6.23 g/m*3 6.7 C 0 km/h
532 01-01-2005 10:34:02 6.7 C 6.23 g/m*3 6.7 C 0 km/h
533 01-01-2005 10:46:02 6.7 C 6.23 g/m*3 6.7 C 0 km/h
534 01-01-2005 10:58:02 6.8 C 6.27 g/m*3 6.8 C 0 km/h
535 01-01-2005 11:10:02 6.9 C 6.16 g/m*3 6.9 C 0 km/h
536 01-01-2005 11:22:02 6.9 C 6.16 g/m*3 6.9 C 0 km/h
537 01-01-2005 11:34:02 6.9 C 6.16 g/m*3 6.9 C 0 km/h
538 01-01-2005 11:46:02 7.1 C 6.24 g/m*3 7.1 C 0 km/h
539 01-01-2005 11:58:02 7.3 C 6.32 g/m*3 7.3 C 0 km/h
540 01-01-2005 12:10:02 7.5 C 6.32 g/m*3 7.5 C 0 km/h
541 01-01-2005 12:22:02 7.8 C 6.45 g/m*3 7.8 C 0 km/h
542 01-01-2005 12:34:02 8 C 6.45 g/m*3 8 C 0 km/h
543 01-01-2005 12:46:01 8.1 C 6.41 g/m*3 8.1 C 0 km/h
544 01-01-2005 12:58:01 8.3 C 6.49 g/m*3 8.3 C 0 km/h
545 01-01-2005 13:10:02 8.6 C 6.53 g/m*3 8.6 C 0 km/h
546 01-01-2005 13:22:01 8.7 C 6.23 g/m*3 8.7 C 0 km/h
547 01-01-2005 13:34:02 8.7 C 6.14 g/m*3 8.7 C 0 km/h
548 01-01-2005 13:46:02 8.7 C 6.14 g/m*3 8.7 C 0 km/h
549 01-01-2005 13:58:02 8.7 C 6.05 g/m*3 8.7 C 0 km/h
550 01-01-2005 14:10:03 8.7 C 6.05 g/m*3 8.7 C 0 km/h
Sensor: Nr:Datum:Temp:Abs-Feuchte:Windchill:Wind:
Aussen-T/F 551 01-01-2005 14:22:03 8.7 C 5.97 g/m*3 8.7 C 0 km/h
552 01-01-2005 14:34:02 8.7 C 5.97 g/m*3 8.7 C 0 km/h
553 01-01-2005 14:46:01 8.6 C 5.84 g/m*3 8.6 C 0 km/h
554 01-01-2005 14:58:01 8.4 C 5.94 g/m*3 8.4 C 0 km/h
555 01-01-2005 15:10:02 8.4 C 5.94 g/m*3 8.4 C 0 km/h
556 01-01-2005 15:22:01 8.4 C 5.94 g/m*3 8.4 C 0 km/h
557 01-01-2005 15:34:01 8.3 C 5.9 g/m*3 8.3 C 0 km/h
558 01-01-2005 15:46:02 8.3 C 5.98 g/m*3 8.3 C 0 km/h
559 01-01-2005 15:58:02 8.2 C 5.86 g/m*3 8.2 C 0 km/h
560 01-01-2005 16:10:02 8.2 C 5.95 g/m*3 8.2 C 0 km/h
561 01-01-2005 16:22:02 8.1 C 5.91 g/m*3 8.1 C 0 km/h
562 01-01-2005 16:34:02 8 C 5.95 g/m*3 8 C 0 km/h
563 01-01-2005 16:58:29 8 C 5.79 g/m*3 8 C 0 km/h
564 01-01-2005 17:10:30 7.9 C 5.83 g/m*3 7.9 C 0 km/h
565 01-01-2005 17:22:30 7.9 C 5.91 g/m*3 7.9 C 0 km/h
566 01-01-2005 17:34:03 7.9 C 5.83 g/m*3 7.9 C 0 km/h
567 01-01-2005 17:46:02 8 C 5.7 g/m*3 8 C 0 km/h
568 01-01-2005 17:58:02 8.1 C 5.66 g/m*3 8.1 C 0 km/h
569 01-01-2005 18:10:01 8 C 5.7 g/m*3 8 C 0 km/h
570 01-01-2005 18:22:01 7.7 C 5.68 g/m*3 7.7 C 0 km/h
571 01-01-2005 18:34:00 7.7 C 5.76 g/m*3 7.7 C 0 km/h
572 01-01-2005 18:46:03 7.9 C 5.75 g/m*3 7.9 C 0 km/h
573 01-01-2005 18:58:03 7.9 C 5.75 g/m*3 7.9 C 0 km/h
574 01-01-2005 19:10:02 8.1 C 5.66 g/m*3 8.1 C 0 km/h
575 01-01-2005 19:22:01 8 C 5.7 g/m*3 8 C 0 km/h
Sensor: Nr:Datum:Temp:Abs-Feuchte:Windchill:Wind:
Aussen-T/F 576 01-01-2005 19:34:01 8.2 C 5.61 g/m*3 8.2 C 0 km/h
577 01-01-2005 19:46:02 8.4 C 5.68 g/m*3 8.4 C 0 km/h
578 01-01-2005 19:58:02 8.4 C 5.77 g/m*3 8.4 C 0 km/h
579 01-01-2005 20:10:03 8.5 C 5.81 g/m*3 8.5 C 0 km/h
580 01-01-2005 20:22:03 8.7 C 5.79 g/m*3 8.7 C 0 km/h
581 01-01-2005 20:34:03 8.7 C 5.88 g/m*3 8.7 C 0 km/h
582 01-01-2005 20:46:03 8.7 C 5.88 g/m*3 8.7 C 0 km/h
583 01-01-2005 20:58:03 8.7 C 5.88 g/m*3 8.7 C 0 km/h
584 01-01-2005 21:10:03 8.7 C 5.88 g/m*3 8.7 C 0 km/h
585 01-01-2005 21:22:03 8.7 C 5.97 g/m*3 8.7 C 0 km/h
586 01-01-2005 21:34:02 8.7 C 5.97 g/m*3 8.7 C 0 km/h
587 01-01-2005 21:46:03 9 C 5.99 g/m*3 9 C 0 km/h
588 01-01-2005 21:58:03 9 C 5.99 g/m*3 9 C 0 km/h
589 01-01-2005 22:10:03 9 C 6.08 g/m*3 9 C 0 km/h
590 01-01-2005 22:22:03 9.1 C 6.21 g/m*3 9.1 C 0 km/h
591 01-01-2005 22:34:03 9.2 C 6.34 g/m*3 9.2 C 0 km/h
592 01-01-2005 22:46:02 9 C 6.52 g/m*3 9 C 0 km/h
593 01-01-2005 22:58:02 8.9 C 6.83 g/m*3 8.9 C 0 km/h
594 01-01-2005 23:10:02 9.2 C 6.97 g/m*3 9.2 C 0 km/h
595 01-01-2005 23:22:02 9.5 C 7.1 g/m*3 9.5 C 0 km/h
596 01-01-2005 23:46:02 9.9 C 7.19 g/m*3 9.9 C 0 km/h
597 01-01-2005 23:58:02 10.1 C 7.19 g/m*3 10.1 C 0 km/h
598 02-01-2005 00:10:02 10.3 C 7.18 g/m*3 10.3 C 0 km/h
599 02-01-2005 00:22:03 10.4 C 7.32 g/m*3 10.4 C 0 km/h
600 02-01-2005 00:34:02 10.4 C 7.32 g/m*3 10.4 C 0 km/h
Sensor: Nr:Datum:Temp:Abs-Feuchte:Windchill:Wind:
Aussen-T/F 601 02-01-2005 00:46:02 10.4 C 7.32 g/m*3 10.4 C 0 km/h
602 02-01-2005 00:58:02 10.5 C 7.37 g/m*3 10.5 C 0 km/h
603 02-01-2005 01:10:02 10.2 C 7.52 g/m*3 10.2 C 0 km/h
604 02-01-2005 01:22:02 10 C 7.52 g/m*3 10 C 0 km/h
605 02-01-2005 01:34:02 10 C 7.42 g/m*3 10 C 0 km/h
606 02-01-2005 01:46:02 10.4 C 7.32 g/m*3 10.4 C 0 km/h
607 02-01-2005 01:58:02 10.9 C 7.16 g/m*3 10.9 C 0 km/h
608 02-01-2005 02:10:02 10.8 C 7.31 g/m*3 10.8 C 0 km/h
609 02-01-2005 02:22:03 10.1 C 7.56 g/m*3 10.1 C 0 km/h
610 02-01-2005 02:34:02 9.7 C 7.74 g/m*3 9.7 C 0 km/h
611 02-01-2005 02:47:04 8.7 C 6.4 g/m*3 8.7 C 0 km/h
612 02-01-2005 02:59:05 8.6 C 6.44 g/m*3 8.6 C 0 km/h
613 02-01-2005 03:11:04 8.4 C 6.36 g/m*3 8.4 C 0 km/h
614 02-01-2005 03:23:04 8.4 C 6.36 g/m*3 8.4 C 0 km/h
615 02-01-2005 03:35:03 8.2 C 6.2 g/m*3 8.2 C 0 km/h
616 02-01-2005 03:47:03 8 C 6.2 g/m*3 8 C 0 km/h
617 02-01-2005 03:59:03 7.8 C 6.28 g/m*3 7.8 C 0 km/h
618 02-01-2005 04:11:03 7.6 C 6.2 g/m*3 7.6 C 0 km/h
619 02-01-2005 04:23:02 7.5 C 6.16 g/m*3 7.5 C 0 km/h
620 02-01-2005 04:35:02 8.1 C 5.66 g/m*3 8.1 C 0 km/h
621 02-01-2005 04:47:03 7.9 C 5.42 g/m*3 7.9 C 0 km/h
622 02-01-2005 04:59:03 7.6 C 5.08 g/m*3 7.6 C 0 km/h
623 02-01-2005 05:11:02 7.5 C 4.96 g/m*3 7.5 C 0 km/h
624 02-01-2005 05:23:03 7.3 C 4.82 g/m*3 7.3 C 0 km/h
625 02-01-2005 05:35:03 6.9 C 4.85 g/m*3 6.9 C 0 km/h
Sensor: Nr:Datum:Temp:Abs-Feuchte:Windchill:Wind:
Aussen-T/F 626 02-01-2005 05:47:02 6.9 C 4.93 g/m*3 6.9 C 0 km/h
627 02-01-2005 05:59:02 6.8 C 4.89 g/m*3 6.8 C 0 km/h
628 02-01-2005 06:11:01 6.9 C 4.85 g/m*3 6.9 C 0 km/h
629 02-01-2005 06:23:02 6.7 C 4.79 g/m*3 6.7 C 0 km/h
630 02-01-2005 06:35:02 6.8 C 4.67 g/m*3 6.8 C 0 km/h
631 02-01-2005 06:47:02 6.6 C 4.6 g/m*3 6.6 C 0 km/h
632 02-01-2005 06:59:02 6.6 C 4.45 g/m*3 6.6 C 0 km/h
633 02-01-2005 07:11:03 6.6 C 4.45 g/m*3 6.6 C 0 km/h
634 02-01-2005 07:23:02 6.8 C 4.28 g/m*3 6.8 C 0 km/h
635 02-01-2005 07:35:02 6 C 4.43 g/m*3 6 C 0 km/h
636 02-01-2005 07:47:02 5.8 C 4.58 g/m*3 5.8 C 0 km/h
637 02-01-2005 07:59:02 5.5 C 4.57 g/m*3 5.5 C 0 km/h
638 02-01-2005 08:11:02 5.5 C 4.57 g/m*3 5.5 C 0 km/h
639 02-01-2005 08:23:01 5.5 C 4.49 g/m*3 5.5 C 0 km/h
640 02-01-2005 08:35:02 5.7 C 4.48 g/m*3 5.7 C 0 km/h
641 02-01-2005 08:47:01 5.8 C 4.3 g/m*3 5.8 C 0 km/h
642 02-01-2005 08:59:01 5.9 C 4.04 g/m*3 5.9 C 0 km/h
643 02-01-2005 09:11:01 5.9 C 3.97 g/m*3 5.9 C 0 km/h
644 02-01-2005 09:23:01 5.8 C 4.01 g/m*3 5.8 C 0 km/h
645 02-01-2005 09:35:02 5.9 C 4.04 g/m*3 5.9 C 0 km/h
646 02-01-2005 09:47:02 5.9 C 4.04 g/m*3 5.9 C 0 km/h
647 02-01-2005 09:59:02 5.9 C 4.04 g/m*3 5.9 C 0 km/h
648 02-01-2005 10:11:02 5.9 C 3.89 g/m*3 5.9 C 0 km/h
649 02-01-2005 10:23:02 6 C 3.77 g/m*3 6 C 0 km/h
650 02-01-2005 10:35:03 6.2 C 3.75 g/m*3 6.2 C 0 km/h
Sensor: Nr:Datum:Temp:Abs-Feuchte:Windchill:Wind:
Aussen-T/F 651 02-01-2005 10:47:02 6 C 3.63 g/m*3 6 C 0 km/h
652 02-01-2005 10:59:02 5.9 C 3.75 g/m*3 5.9 C 0 km/h
653 02-01-2005 11:11:02 6 C 3.56 g/m*3 6 C 0 km/h
654 02-01-2005 11:23:03 6.1 C 3.58 g/m*3 6.1 C 0 km/h
655 02-01-2005 11:35:03 6 C 3.56 g/m*3 6 C 0 km/h
656 02-01-2005 11:47:02 5.9 C 3.61 g/m*3 5.9 C 0 km/h
657 02-01-2005 11:59:02 5.9 C 3.68 g/m*3 5.9 C 0 km/h
658 02-01-2005 12:11:01 5.7 C 3.42 g/m*3 5.7 C 0 km/h
659 02-01-2005 12:23:02 5.6 C 3.53 g/m*3 5.6 C 0 km/h
660 02-01-2005 12:35:02 5.6 C 3.61 g/m*3 5.6 C 0 km/h
661 02-01-2005 12:47:01 5.8 C 3.44 g/m*3 5.8 C 0 km/h
662 02-01-2005 12:59:01 5.8 C 3.51 g/m*3 5.8 C 0 km/h
663 02-01-2005 13:11:02 5.8 C 3.3 g/m*3 5.8 C 0 km/h
664 02-01-2005 13:23:01 5.9 C 3.39 g/m*3 5.9 C 0 km/h
665 02-01-2005 13:35:02 6.1 C 3.29 g/m*3 6.1 C 0 km/h
666 02-01-2005 13:47:03 6.1 C 3.29 g/m*3 6.1 C 0 km/h
667 02-01-2005 13:59:03 6.2 C 3.24 g/m*3 6.2 C 0 km/h
668 02-01-2005 14:11:03 6.2 C 3.38 g/m*3 6.2 C 0 km/h
669 02-01-2005 14:23:02 5.9 C 3.61 g/m*3 5.9 C 0 km/h
670 02-01-2005 14:35:02 6.3 C 3.33 g/m*3 6.3 C 0 km/h
671 02-01-2005 14:47:02 6 C 3.41 g/m*3 6 C 0 km/h
672 02-01-2005 14:59:02 5.8 C 3.51 g/m*3 5.8 C 0 km/h
673 02-01-2005 15:11:02 5.6 C 3.53 g/m*3 5.6 C 0 km/h
674 02-01-2005 15:23:02 5.2 C 3.58 g/m*3 5.2 C 0 km/h
675 02-01-2005 15:35:02 5.1 C 3.69 g/m*3 5.1 C 0 km/h
Sensor: Nr:Datum:Temp:Abs-Feuchte:Windchill:Wind:
Aussen-T/F 676 02-01-2005 15:47:01 5 C 3.67 g/m*3 5 C 0 km/h
677 02-01-2005 15:59:01 5 C 3.67 g/m*3 5 C 0 km/h
678 02-01-2005 16:11:02 5 C 3.6 g/m*3 5 C 0 km/h
679 02-01-2005 16:23:02 4.8 C 3.62 g/m*3 4.8 C 0 km/h
680 02-01-2005 16:35:01 4.7 C 3.66 g/m*3 4.7 C 0 km/h
681 02-01-2005 16:47:01 4.6 C 3.64 g/m*3 4.6 C 0 km/h
682 02-01-2005 16:59:01 4.7 C 3.73 g/m*3 4.7 C 0 km/h
683 02-01-2005 17:11:02 4.6 C 3.77 g/m*3 4.6 C 0 km/h
684 02-01-2005 17:23:02 4.4 C 3.72 g/m*3 4.4 C 0 km/h
685 02-01-2005 17:35:01 4.4 C 3.66 g/m*3 4.4 C 0 km/h
686 02-01-2005 17:47:02 4.2 C 3.61 g/m*3 4.2 C 0 km/h
687 02-01-2005 17:59:02 4 C 3.62 g/m*3 4 C 0 km/h
688 02-01-2005 18:11:03 3.9 C 3.79 g/m*3 3.9 C 0 km/h
689 02-01-2005 18:23:02 3.7 C 3.86 g/m*3 3.7 C 0 km/h
690 02-01-2005 18:35:02 3.6 C 3.9 g/m*3 3.6 C 0 km/h
691 02-01-2005 18:47:01 3.5 C 3.94 g/m*3 3.5 C 0 km/h
692 02-01-2005 18:59:01 3.5 C 3.94 g/m*3 3.5 C 0 km/h
693 02-01-2005 19:11:02 3.2 C 3.92 g/m*3 3.2 C 0 km/h
694 02-01-2005 19:23:02 3.1 C 3.89 g/m*3 3.1 C 0 km/h
695 02-01-2005 19:35:01 2.9 C 3.96 g/m*3 2.9 C 0 km/h
696 02-01-2005 19:47:01 2.7 C 3.9 g/m*3 2.7 C 0 km/h
697 02-01-2005 19:59:01 2.6 C 3.88 g/m*3 2.6 C 0 km/h
698 02-01-2005 20:11:02 2.5 C 3.91 g/m*3 2.5 C 0 km/h
699 02-01-2005 20:23:02 2.6 C 3.94 g/m*3 2.6 C 0 km/h
700 02-01-2005 20:35:01 2.7 C 3.9 g/m*3 2.7 C 0 km/h
Sensor: Nr:Datum:Temp:Abs-Feuchte:Windchill:Wind:
Aussen-T/F 701 02-01-2005 20:47:01 3 C 3.92 g/m*3 3 C 0 km/h
702 02-01-2005 20:59:01 3.1 C 3.89 g/m*3 3.1 C 0 km/h
703 02-01-2005 21:11:02 3.1 C 3.89 g/m*3 3.1 C 0 km/h
704 02-01-2005 21:23:01 3.2 C 3.86 g/m*3 3.2 C 0 km/h
705 02-01-2005 21:35:01 3.3 C 3.94 g/m*3 3.3 C 0 km/h
706 02-01-2005 21:47:01 3.4 C 3.91 g/m*3 3.4 C 0 km/h
707 02-01-2005 21:59:01 3.6 C 3.96 g/m*3 3.6 C 0 km/h
708 02-01-2005 22:11:01 3.7 C 3.99 g/m*3 3.7 C 0 km/h
709 02-01-2005 22:23:02 4.1 C 3.9 g/m*3 4.1 C 0 km/h
710 02-01-2005 22:35:02 4.1 C 3.84 g/m*3 4.1 C 0 km/h
711 02-01-2005 22:47:03 3.8 C 3.95 g/m*3 3.8 C 0 km/h
712 02-01-2005 22:59:03 3.8 C 4.02 g/m*3 3.8 C 0 km/h
713 02-01-2005 23:11:02 3.8 C 4.02 g/m*3 3.8 C 0 km/h
714 02-01-2005 23:23:02 3.8 C 4.02 g/m*3 3.8 C 0 km/h
715 02-01-2005 23:35:02 4 C 3.94 g/m*3 4 C 0 km/h
716 02-01-2005 23:47:01 4 C 3.94 g/m*3 4 C 0 km/h
717 02-01-2005 23:59:01 4 C 3.94 g/m*3 4 C 0 km/h
718 03-01-2005 00:11:01 4 C 3.94 g/m*3 4 C 0 km/h
719 03-01-2005 00:23:02 4 C 3.94 g/m*3 4 C 0 km/h
720 03-01-2005 00:35:02 4 C 4.01 g/m*3 4 C 0 km/h
721 03-01-2005 00:47:01 4.1 C 4.03 g/m*3 4.1 C 0 km/h
722 03-01-2005 00:59:01 4.2 C 4.06 g/m*3 4.2 C 0 km/h
723 03-01-2005 01:11:01 4.2 C 4.06 g/m*3 4.2 C 0 km/h
724 03-01-2005 01:23:02 4.2 C 4.06 g/m*3 4.2 C 0 km/h
725 03-01-2005 01:35:01 4.3 C 4.09 g/m*3 4.3 C 0 km/h
Sensor: Nr:Datum:Temp:Abs-Feuchte:Windchill:Wind:
Aussen-T/F 726 03-01-2005 01:47:02 4.3 C 4.09 g/m*3 4.3 C 0 km/h
727 03-01-2005 01:59:02 4.3 C 4.09 g/m*3 4.3 C 0 km/h
728 03-01-2005 02:11:02 4.4 C 4.11 g/m*3 4.4 C 0 km/h
729 03-01-2005 02:23:03 4.3 C 4.09 g/m*3 4.3 C 0 km/h
730 03-01-2005 02:35:02 4.3 C 4.09 g/m*3 4.3 C 0 km/h
731 03-01-2005 02:48:04 4.2 C 4.06 g/m*3 4.2 C 0 km/h
732 03-01-2005 03:00:04 4.3 C 4.15 g/m*3 4.3 C 0 km/h
733 03-01-2005 03:12:04 4.3 C 4.15 g/m*3 4.3 C 0 km/h
734 03-01-2005 03:24:04 4.3 C 4.15 g/m*3 4.3 C 0 km/h
735 03-01-2005 03:36:02 4.4 C 4.11 g/m*3 4.4 C 0 km/h
736 03-01-2005 03:48:02 4.4 C 4.11 g/m*3 4.4 C 0 km/h
737 03-01-2005 04:00:02 4.4 C 4.11 g/m*3 4.4 C 0 km/h
738 03-01-2005 04:12:02 4.3 C 4.09 g/m*3 4.3 C 0 km/h
739 03-01-2005 04:24:02 4.4 C 4.11 g/m*3 4.4 C 0 km/h
740 03-01-2005 04:36:02 4.5 C 4.14 g/m*3 4.5 C 0 km/h
741 03-01-2005 04:48:03 4.5 C 4.14 g/m*3 4.5 C 0 km/h
742 03-01-2005 05:00:03 4.4 C 4.11 g/m*3 4.4 C 0 km/h
743 03-01-2005 05:12:02 4.5 C 4.14 g/m*3 4.5 C 0 km/h
744 03-01-2005 05:24:03 4.5 C 4.14 g/m*3 4.5 C 0 km/h
745 03-01-2005 05:36:03 4.6 C 4.17 g/m*3 4.6 C 0 km/h
746 03-01-2005 05:48:01 4.6 C 4.17 g/m*3 4.6 C 0 km/h
747 03-01-2005 06:00:01 4.6 C 4.17 g/m*3 4.6 C 0 km/h
748 03-01-2005 06:12:02 4.6 C 4.17 g/m*3 4.6 C 0 km/h
749 03-01-2005 06:24:02 4.5 C 4.21 g/m*3 4.5 C 0 km/h
750 03-01-2005 06:36:01 4.3 C 4.22 g/m*3 4.3 C 0 km/h
Sensor: Nr:Datum:Temp:Abs-Feuchte:Windchill:Wind:
Aussen-T/F 751 03-01-2005 06:48:01 4.1 C 4.22 g/m*3 4.1 C 0 km/h
752 03-01-2005 07:00:01 3.8 C 4.2 g/m*3 3.8 C 0 km/h
753 03-01-2005 07:12:02 3.8 C 4.27 g/m*3 3.8 C 0 km/h
754 03-01-2005 07:24:02 3.6 C 4.21 g/m*3 3.6 C 0 km/h
755 03-01-2005 07:36:02 3.7 C 4.24 g/m*3 3.7 C 0 km/h
756 03-01-2005 07:48:01 3.5 C 4.18 g/m*3 3.5 C 0 km/h
757 03-01-2005 08:00:01 3.5 C 4.18 g/m*3 3.5 C 0 km/h
758 03-01-2005 08:12:01 3.3 C 4.19 g/m*3 3.3 C 0 km/h
759 03-01-2005 08:24:01 3.3 C 4.19 g/m*3 3.3 C 0 km/h
760 03-01-2005 08:36:02 3.1 C 4.13 g/m*3 3.1 C 0 km/h
761 03-01-2005 08:48:02 3.2 C 4.22 g/m*3 3.2 C 0 km/h
762 03-01-2005 09:00:02 3.3 C 4.19 g/m*3 3.3 C 0 km/h
763 03-01-2005 09:12:03 3.4 C 4.21 g/m*3 3.4 C 0 km/h
764 03-01-2005 09:24:02 3.3 C 4.19 g/m*3 3.3 C 0 km/h
765 03-01-2005 09:36:02 3.6 C 4.27 g/m*3 3.6 C 0 km/h
766 03-01-2005 09:48:01 3.6 C 4.27 g/m*3 3.6 C 0 km/h
767 03-01-2005 10:00:01 3.8 C 4.27 g/m*3 3.8 C 0 km/h
768 03-01-2005 10:12:02 4 C 4.26 g/m*3 4 C 0 km/h
769 03-01-2005 10:24:01 4.4 C 4.24 g/m*3 4.4 C 0 km/h
770 03-01-2005 10:36:02 4.5 C 4.27 g/m*3 4.5 C 0 km/h
771 03-01-2005 10:48:02 4.9 C 4.32 g/m*3 4.9 C 0 km/h
772 03-01-2005 11:00:02 5 C 4.21 g/m*3 5 C 0 km/h
773 03-01-2005 11:12:03 5.1 C 4.31 g/m*3 5.1 C 0 km/h
774 03-01-2005 11:24:02 5.2 C 4.27 g/m*3 5.2 C 0 km/h
775 03-01-2005 11:36:02 5.3 C 4.3 g/m*3 5.3 C 0 km/h
Sensor: Nr:Datum:Temp:Abs-Feuchte:Windchill:Wind:
Aussen-T/F 776 03-01-2005 11:48:02 5.3 C 4.37 g/m*3 5.3 C 0 km/h
777 03-01-2005 12:00:02 5.5 C 4.35 g/m*3 5.5 C 0 km/h
778 03-01-2005 12:12:02 5.5 C 4.42 g/m*3 5.5 C 0 km/h
779 03-01-2005 12:24:02 5.6 C 4.38 g/m*3 5.6 C 0 km/h
780 03-01-2005 12:36:02 5.6 C 4.45 g/m*3 5.6 C 0 km/h
781 03-01-2005 12:48:01 5.7 C 4.41 g/m*3 5.7 C 0 km/h
782 03-01-2005 13:00:01 5.8 C 4.44 g/m*3 5.8 C 0 km/h
783 03-01-2005 13:12:02 5.8 C 4.51 g/m*3 5.8 C 0 km/h
784 03-01-2005 13:24:02 5.7 C 4.48 g/m*3 5.7 C 0 km/h
785 03-01-2005 13:36:02 5.6 C 4.52 g/m*3 5.6 C 0 km/h
786 03-01-2005 13:48:02 5.6 C 4.52 g/m*3 5.6 C 0 km/h
787 03-01-2005 14:00:02 5.6 C 4.6 g/m*3 5.6 C 0 km/h
788 03-01-2005 14:12:02 5.6 C 4.6 g/m*3 5.6 C 0 km/h
789 03-01-2005 14:24:02 5.7 C 4.7 g/m*3 5.7 C 0 km/h
790 03-01-2005 14:36:02 5.6 C 4.67 g/m*3 5.6 C 0 km/h
791 03-01-2005 14:48:01 5.6 C 4.74 g/m*3 5.6 C 0 km/h
792 03-01-2005 15:00:01 5.6 C 4.74 g/m*3 5.6 C 0 km/h
793 03-01-2005 15:12:02 5.5 C 4.78 g/m*3 5.5 C 0 km/h
794 03-01-2005 15:24:01 5.6 C 4.81 g/m*3 5.6 C 0 km/h
795 03-01-2005 15:36:01 5.7 C 4.91 g/m*3 5.7 C 0 km/h
796 03-01-2005 15:48:01 5.7 C 4.98 g/m*3 5.7 C 0 km/h
797 03-01-2005 16:00:01 5.6 C 5.02 g/m*3 5.6 C 0 km/h
798 03-01-2005 16:12:01 5.6 C 5.02 g/m*3 5.6 C 0 km/h
799 03-01-2005 16:24:01 5.6 C 5.02 g/m*3 5.6 C 0 km/h
800 03-01-2005 16:36:02 5.7 C 5.05 g/m*3 5.7 C 0 km/h
Sensor: Nr:Datum:Temp:Abs-Feuchte:Windchill:Wind:
Aussen-T/F 801 03-01-2005 16:48:02 5.7 C 5.12 g/m*3 5.7 C 0 km/h
802 03-01-2005 17:00:03 5.6 C 5.09 g/m*3 5.6 C 0 km/h
803 03-01-2005 17:12:03 5.5 C 5.13 g/m*3 5.5 C 0 km/h
804 03-01-2005 17:24:03 5.7 C 5.19 g/m*3 5.7 C 0 km/h
805 03-01-2005 17:36:02 5.8 C 5.23 g/m*3 5.8 C 0 km/h
806 03-01-2005 17:48:02 5.7 C 5.27 g/m*3 5.7 C 0 km/h
807 03-01-2005 18:00:02 5.7 C 5.27 g/m*3 5.7 C 0 km/h
808 03-01-2005 18:12:02 5.7 C 5.27 g/m*3 5.7 C 0 km/h
809 03-01-2005 18:24:02 5.7 C 5.19 g/m*3 5.7 C 0 km/h
810 03-01-2005 18:36:02 5.7 C 5.19 g/m*3 5.7 C 0 km/h
811 03-01-2005 18:48:03 5.8 C 5.23 g/m*3 5.8 C 0 km/h
812 03-01-2005 19:00:03 5.7 C 5.19 g/m*3 5.7 C 0 km/h
813 03-01-2005 19:12:03 5.7 C 5.19 g/m*3 5.7 C 0 km/h
814 03-01-2005 19:24:03 5.5 C 5.2 g/m*3 5.5 C 0 km/h
815 03-01-2005 19:36:02 5.6 C 5.23 g/m*3 5.6 C 0 km/h
816 03-01-2005 19:48:01 5.6 C 5.3 g/m*3 5.6 C 0 km/h
817 03-01-2005 20:00:01 5.6 C 5.37 g/m*3 5.6 C 0 km/h
818 03-01-2005 20:12:01 5.6 C 5.51 g/m*3 5.6 C 0 km/h
819 03-01-2005 20:24:02 5.3 C 5.61 g/m*3 5.3 C 0 km/h
820 03-01-2005 20:36:01 5.3 C 5.68 g/m*3 5.3 C 0 km/h
821 03-01-2005 20:48:01 5.3 C 5.68 g/m*3 5.3 C 0 km/h
822 03-01-2005 21:00:01 5.3 C 5.75 g/m*3 5.3 C 0 km/h
823 03-01-2005 21:12:02 5.3 C 5.75 g/m*3 5.3 C 0 km/h
824 03-01-2005 21:24:01 5.4 C 5.72 g/m*3 5.4 C 0 km/h
825 03-01-2005 21:36:02 5.7 C 5.69 g/m*3 5.7 C 0 km/h
Sensor: Nr:Datum:Temp:Abs-Feuchte:Windchill:Wind:
Aussen-T/F 826 03-01-2005 21:48:02 5.7 C 5.62 g/m*3 5.7 C 0 km/h
827 03-01-2005 22:00:02 5.9 C 5.62 g/m*3 5.9 C 0 km/h
828 03-01-2005 22:12:02 5.9 C 5.62 g/m*3 5.9 C 0 km/h
829 03-01-2005 22:24:02 5.9 C 5.62 g/m*3 5.9 C 0 km/h
830 03-01-2005 22:36:02 6 C 5.59 g/m*3 6 C 0 km/h
831 03-01-2005 22:48:01 6.1 C 5.55 g/m*3 6.1 C 0 km/h
832 03-01-2005 23:00:01 6 C 5.59 g/m*3 6 C 0 km/h
833 03-01-2005 23:12:02 5.8 C 5.66 g/m*3 5.8 C 0 km/h
834 03-01-2005 23:24:02 5.8 C 5.8 g/m*3 5.8 C 0 km/h
835 03-01-2005 23:36:02 5.9 C 5.84 g/m*3 5.9 C 0 km/h
836 03-01-2005 23:48:01 5.7 C 5.84 g/m*3 5.7 C 0 km/h
837 04-01-2005 00:00:01 5.7 C 5.84 g/m*3 5.7 C 0 km/h
838 04-01-2005 00:12:01 5.8 C 5.87 g/m*3 5.8 C 0 km/h
839 04-01-2005 00:24:02 5.6 C 5.8 g/m*3 5.6 C 0 km/h
840 04-01-2005 00:36:01 5.8 C 5.87 g/m*3 5.8 C 0 km/h
841 04-01-2005 00:48:03 5.9 C 5.91 g/m*3 5.9 C 0 km/h
842 04-01-2005 01:00:03 6.1 C 5.84 g/m*3 6.1 C 0 km/h
843 04-01-2005 01:12:03 6 C 5.81 g/m*3 6 C 0 km/h
844 04-01-2005 01:24:03 5.8 C 5.95 g/m*3 5.8 C 0 km/h
845 04-01-2005 01:36:02 5.8 C 5.95 g/m*3 5.8 C 0 km/h
846 04-01-2005 01:48:03 5.8 C 5.95 g/m*3 5.8 C 0 km/h
847 04-01-2005 02:00:03 6 C 5.95 g/m*3 6 C 0 km/h
848 04-01-2005 02:12:03 6 C 6.02 g/m*3 6 C 0 km/h
849 04-01-2005 02:24:03 6 C 6.02 g/m*3 6 C 0 km/h
850 04-01-2005 02:36:02 6 C 6.02 g/m*3 6 C 0 km/h
Sensor: Nr:Datum:Temp:Abs-Feuchte:Windchill:Wind:
Aussen-T/F 851 04-01-2005 02:49:04 6 C 6.02 g/m*3 6 C 0 km/h
852 04-01-2005 03:01:05 6 C 5.95 g/m*3 6 C 0 km/h
853 04-01-2005 03:13:04 6.2 C 5.96 g/m*3 6.2 C 0 km/h
854 04-01-2005 03:25:04 6.3 C 5.85 g/m*3 6.3 C 0 km/h
855 04-01-2005 03:37:03 6.5 C 5.77 g/m*3 6.5 C 0 km/h
856 04-01-2005 03:49:03 6.7 C 5.77 g/m*3 6.7 C 0 km/h
857 04-01-2005 04:01:02 6.8 C 5.74 g/m*3 6.8 C 0 km/h
858 04-01-2005 04:13:02 6.8 C 5.74 g/m*3 6.8 C 0 km/h
859 04-01-2005 04:25:02 6.7 C 5.77 g/m*3 6.7 C 0 km/h
860 04-01-2005 04:37:03 6.6 C 5.81 g/m*3 6.6 C 0 km/h
861 04-01-2005 04:49:02 6.7 C 5.85 g/m*3 6.7 C 0 km/h
862 04-01-2005 05:01:01 6.8 C 5.81 g/m*3 6.8 C 0 km/h
863 04-01-2005 05:13:01 6.9 C 5.85 g/m*3 6.9 C 0 km/h
864 04-01-2005 05:25:02 7 C 5.73 g/m*3 7 C 0 km/h
865 04-01-2005 05:37:02 7.1 C 5.77 g/m*3 7.1 C 0 km/h
866 04-01-2005 05:49:02 7 C 5.73 g/m*3 7 C 0 km/h
867 04-01-2005 06:01:02 7.1 C 5.77 g/m*3 7.1 C 0 km/h
868 04-01-2005 06:13:02 7.1 C 5.69 g/m*3 7.1 C 0 km/h
869 04-01-2005 06:25:02 7.2 C 5.73 g/m*3 7.2 C 0 km/h
870 04-01-2005 06:37:02 7.2 C 5.65 g/m*3 7.2 C 0 km/h
871 04-01-2005 06:49:02 7.3 C 5.61 g/m*3 7.3 C 0 km/h
872 04-01-2005 07:01:02 7.2 C 5.57 g/m*3 7.2 C 0 km/h
873 04-01-2005 07:13:02 7.2 C 5.57 g/m*3 7.2 C 0 km/h
874 04-01-2005 07:25:02 7.3 C 5.45 g/m*3 7.3 C 0 km/h
875 04-01-2005 07:37:02 7.1 C 5.38 g/m*3 7.1 C 0 km/h
Sensor: Nr:Datum:Temp:Abs-Feuchte:Windchill:Wind:
Aussen-T/F 876 04-01-2005 07:49:02 7.1 C 5.38 g/m*3 7.1 C 0 km/h
877 04-01-2005 08:01:02 7.1 C 5.3 g/m*3 7.1 C 0 km/h
878 04-01-2005 08:13:02 7.3 C 5.29 g/m*3 7.3 C 0 km/h
879 04-01-2005 08:25:02 7.1 C 5.23 g/m*3 7.1 C 0 km/h
880 04-01-2005 08:37:02 7.1 C 5.23 g/m*3 7.1 C 0 km/h
881 04-01-2005 08:49:02 7.1 C 5.15 g/m*3 7.1 C 0 km/h
882 04-01-2005 09:01:02 7.1 C 5.07 g/m*3 7.1 C 0 km/h
883 04-01-2005 09:13:02 6.9 C 5.08 g/m*3 6.9 C 0 km/h
884 04-01-2005 09:25:03 6.9 C 5.08 g/m*3 6.9 C 0 km/h
885 04-01-2005 09:37:02 6.9 C 5 g/m*3 6.9 C 0 km/h
886 04-01-2005 09:49:01 7 C 4.96 g/m*3 7 C 0 km/h
887 04-01-2005 10:01:01 7.1 C 4.91 g/m*3 7.1 C 0 km/h
888 04-01-2005 10:13:01 7.1 C 4.84 g/m*3 7.1 C 0 km/h
889 04-01-2005 10:25:01 7 C 4.8 g/m*3 7 C 0 km/h
890 04-01-2005 10:37:02 7.1 C 4.76 g/m*3 7.1 C 0 km/h
891 04-01-2005 10:49:02 7 C 4.73 g/m*3 7 C 0 km/h
892 04-01-2005 11:01:02 6.9 C 4.7 g/m*3 6.9 C 0 km/h
893 04-01-2005 11:13:02 6.8 C 4.74 g/m*3 6.8 C 0 km/h
894 04-01-2005 11:25:02 6.6 C 4.68 g/m*3 6.6 C 0 km/h
895 04-01-2005 11:37:02 6.5 C 4.57 g/m*3 6.5 C 0 km/h
896 04-01-2005 11:49:02 6.5 C 4.5 g/m*3 6.5 C 0 km/h
897 04-01-2005 12:01:02 6.5 C 4.5 g/m*3 6.5 C 0 km/h
898 04-01-2005 12:13:02 6.3 C 4.52 g/m*3 6.3 C 0 km/h
899 04-01-2005 12:25:02 6.2 C 4.56 g/m*3 6.2 C 0 km/h
900 04-01-2005 12:37:02 6.1 C 4.53 g/m*3 6.1 C 0 km/h
Sensor: Nr:Datum:Temp:Abs-Feuchte:Windchill:Wind:
Aussen-T/F 901 04-01-2005 12:49:02 6.2 C 4.49 g/m*3 6.2 C 0 km/h
902 04-01-2005 13:01:02 6.2 C 4.49 g/m*3 6.2 C 0 km/h
903 04-01-2005 13:13:02 5.9 C 4.47 g/m*3 5.9 C 0 km/h
904 04-01-2005 13:25:02 5.9 C 4.47 g/m*3 5.9 C 0 km/h
905 04-01-2005 13:37:02 5.8 C 4.44 g/m*3 5.8 C 0 km/h
906 04-01-2005 13:49:01 5.9 C 4.47 g/m*3 5.9 C 0 km/h
907 04-01-2005 14:01:01 5.8 C 4.44 g/m*3 5.8 C 0 km/h
908 04-01-2005 14:13:01 5.9 C 4.47 g/m*3 5.9 C 0 km/h
909 04-01-2005 14:25:02 5.9 C 4.47 g/m*3 5.9 C 0 km/h
910 04-01-2005 14:37:01 5.8 C 4.37 g/m*3 5.8 C 0 km/h
911 04-01-2005 14:49:02 5.7 C 4.41 g/m*3 5.7 C 0 km/h
912 04-01-2005 15:01:02 5.7 C 4.41 g/m*3 5.7 C 0 km/h
913 04-01-2005 15:13:02 5.7 C 4.41 g/m*3 5.7 C 0 km/h
914 04-01-2005 15:25:02 5.6 C 4.45 g/m*3 5.6 C 0 km/h
915 04-01-2005 15:37:02 5.8 C 4.51 g/m*3 5.8 C 0 km/h
916 04-01-2005 15:49:02 5.8 C 4.44 g/m*3 5.8 C 0 km/h
917 04-01-2005 16:01:02 5.7 C 4.48 g/m*3 5.7 C 0 km/h
918 04-01-2005 16:13:02 5.5 C 4.42 g/m*3 5.5 C 0 km/h
919 04-01-2005 16:25:02 5.2 C 4.41 g/m*3 5.2 C 0 km/h
920 04-01-2005 16:37:02 5.1 C 4.45 g/m*3 5.1 C 0 km/h
921 04-01-2005 16:49:03 4.9 C 4.46 g/m*3 4.9 C 0 km/h
922 04-01-2005 17:01:02 4.8 C 4.43 g/m*3 4.8 C 0 km/h
923 04-01-2005 17:13:02 4.7 C 4.4 g/m*3 4.7 C 0 km/h
924 04-01-2005 17:25:05 4.6 C 4.37 g/m*3 4.6 C 0 km/h
925 04-01-2005 17:37:04 4.3 C 4.35 g/m*3 4.3 C 0 km/h
Sensor: Nr:Datum:Temp:Abs-Feuchte:Windchill:Wind:
Aussen-T/F 926 04-01-2005 17:49:02 3.8 C 4.39 g/m*3 3.8 C 0 km/h
927 04-01-2005 18:01:02 3.7 C 4.42 g/m*3 3.7 C 0 km/h
928 04-01-2005 18:13:02 3.8 C 4.45 g/m*3 3.8 C 0 km/h
929 04-01-2005 18:25:01 4 C 4.39 g/m*3 4 C 0 km/h
930 04-01-2005 18:37:02 4.2 C 4.45 g/m*3 4.2 C 0 km/h
931 04-01-2005 18:49:02 4.3 C 4.35 g/m*3 4.3 C 0 km/h
932 04-01-2005 19:01:02 4.1 C 4.29 g/m*3 4.1 C 0 km/h
933 04-01-2005 19:13:02 4.1 C 4.29 g/m*3 4.1 C 0 km/h
934 04-01-2005 19:25:02 3.9 C 4.36 g/m*3 3.9 C 0 km/h
935 04-01-2005 19:37:03 3.9 C 4.36 g/m*3 3.9 C 0 km/h
936 04-01-2005 19:49:02 4 C 4.32 g/m*3 4 C 0 km/h
937 04-01-2005 20:01:01 4.3 C 4.28 g/m*3 4.3 C 0 km/h
938 04-01-2005 20:13:01 4.4 C 4.24 g/m*3 4.4 C 0 km/h
939 04-01-2005 20:25:02 4.3 C 4.22 g/m*3 4.3 C 0 km/h
940 04-01-2005 20:37:02 4.2 C 4.19 g/m*3 4.2 C 0 km/h
941 04-01-2005 20:49:01 4.3 C 4.22 g/m*3 4.3 C 0 km/h
942 04-01-2005 21:01:02 4.2 C 4.25 g/m*3 4.2 C 0 km/h
943 04-01-2005 21:13:02 4.3 C 4.22 g/m*3 4.3 C 0 km/h
944 04-01-2005 21:25:02 4.3 C 4.28 g/m*3 4.3 C 0 km/h
945 04-01-2005 21:37:02 4.4 C 4.31 g/m*3 4.4 C 0 km/h
946 04-01-2005 21:49:02 4.4 C 4.31 g/m*3 4.4 C 0 km/h
947 04-01-2005 22:01:03 4.4 C 4.31 g/m*3 4.4 C 0 km/h
948 04-01-2005 22:13:03 4.4 C 4.31 g/m*3 4.4 C 0 km/h
949 04-01-2005 22:25:03 4.3 C 4.35 g/m*3 4.3 C 0 km/h
950 04-01-2005 22:37:02 4.3 C 4.35 g/m*3 4.3 C 0 km/h
Sensor: Nr:Datum:Temp:Abs-Feuchte:Windchill:Wind:
Aussen-T/F 951 04-01-2005 22:49:01 4.4 C 4.37 g/m*3 4.4 C 0 km/h
952 04-01-2005 23:01:01 4.4 C 4.37 g/m*3 4.4 C 0 km/h
953 04-01-2005 23:13:01 4.5 C 4.4 g/m*3 4.5 C 0 km/h
954 04-01-2005 23:25:01 4.4 C 4.37 g/m*3 4.4 C 0 km/h
955 04-01-2005 23:37:01 4.4 C 4.31 g/m*3 4.4 C 0 km/h
956 04-01-2005 23:49:01 4.5 C 4.27 g/m*3 4.5 C 0 km/h
957 05-01-2005 00:01:01 4.5 C 4.27 g/m*3 4.5 C 0 km/h
958 05-01-2005 00:13:01 4.5 C 4.27 g/m*3 4.5 C 0 km/h
959 05-01-2005 00:25:03 4.5 C 4.21 g/m*3 4.5 C 0 km/h
960 05-01-2005 00:37:02 4.6 C 4.23 g/m*3 4.6 C 0 km/h
961 05-01-2005 00:49:03 4.6 C 4.23 g/m*3 4.6 C 0 km/h
962 05-01-2005 01:01:03 4.6 C 4.23 g/m*3 4.6 C 0 km/h
963 05-01-2005 01:13:03 4.4 C 4.24 g/m*3 4.4 C 0 km/h
964 05-01-2005 01:25:03 4.5 C 4.21 g/m*3 4.5 C 0 km/h
965 05-01-2005 01:37:02 4.3 C 4.22 g/m*3 4.3 C 0 km/h
966 05-01-2005 01:49:02 4.4 C 4.24 g/m*3 4.4 C 0 km/h
967 05-01-2005 02:01:02 4.4 C 4.24 g/m*3 4.4 C 0 km/h
968 05-01-2005 02:13:02 4.5 C 4.27 g/m*3 4.5 C 0 km/h
969 05-01-2005 02:25:02 4.5 C 4.27 g/m*3 4.5 C 0 km/h
970 05-01-2005 02:37:02 4.6 C 4.3 g/m*3 4.6 C 0 km/h
971 05-01-2005 02:50:03 4.6 C 4.37 g/m*3 4.6 C 0 km/h
972 05-01-2005 03:02:03 4.6 C 4.37 g/m*3 4.6 C 0 km/h
973 05-01-2005 03:14:04 4.6 C 4.37 g/m*3 4.6 C 0 km/h
974 05-01-2005 03:26:04 4.6 C 4.43 g/m*3 4.6 C 0 km/h
975 05-01-2005 03:38:02 4.5 C 4.54 g/m*3 4.5 C 0 km/h
Sensor: Nr:Datum:Temp:Abs-Feuchte:Windchill:Wind:
Aussen-T/F 976 05-01-2005 03:50:02 4.4 C 4.64 g/m*3 4.4 C 0 km/h
977 05-01-2005 04:02:02 4.5 C 4.6 g/m*3 4.5 C 0 km/h
978 05-01-2005 04:14:02 4.6 C 4.57 g/m*3 4.6 C 0 km/h
979 05-01-2005 04:26:03 4.5 C 4.54 g/m*3 4.5 C 0 km/h
980 05-01-2005 04:38:03 4.5 C 4.54 g/m*3 4.5 C 0 km/h
981 05-01-2005 04:50:02 4.5 C 4.6 g/m*3 4.5 C 0 km/h
982 05-01-2005 05:02:02 4.5 C 4.67 g/m*3 4.5 C 0 km/h
983 05-01-2005 05:14:02 4.4 C 4.64 g/m*3 4.4 C 0 km/h
984 05-01-2005 05:26:01 4.2 C 4.77 g/m*3 4.2 C 0 km/h
985 05-01-2005 05:38:02 4.1 C 4.93 g/m*3 4.1 C 0 km/h
986 05-01-2005 05:50:02 4 C 4.9 g/m*3 4 C 0 km/h
987 05-01-2005 06:02:02 4 C 4.96 g/m*3 4 C 0 km/h
988 05-01-2005 06:14:03 4 C 4.96 g/m*3 4 C 0 km/h
989 05-01-2005 06:26:02 4 C 4.96 g/m*3 4 C 0 km/h
990 05-01-2005 06:38:02 4 C 4.96 g/m*3 4 C 0 km/h
991 05-01-2005 06:50:01 4.1 C 4.99 g/m*3 4.1 C 0 km/h
992 05-01-2005 07:02:02 3.9 C 5.05 g/m*3 3.9 C 0 km/h
993 05-01-2005 07:14:02 3.8 C 5.14 g/m*3 3.8 C 0 km/h
994 05-01-2005 07:26:02 3.9 C 5.12 g/m*3 3.9 C 0 km/h
995 05-01-2005 07:38:03 4 C 5.02 g/m*3 4 C 0 km/h
996 05-01-2005 07:50:03 4.1 C 4.99 g/m*3 4.1 C 0 km/h
997 05-01-2005 08:02:02 4.1 C 4.99 g/m*3 4.1 C 0 km/h
998 05-01-2005 08:14:02 4.3 C 5.06 g/m*3 4.3 C 0 km/h
999 05-01-2005 08:26:02 4.2 C 5.03 g/m*3 4.2 C 0 km/h
1000 05-01-2005 08:38:03 4.3 C 4.99 g/m*3 4.3 C 0 km/h
Sensor: Nr:Datum:Temp:Abs-Feuchte:Windchill:Wind:
Aussen-T/F 1001 05-01-2005 08:50:02 4.3 C 4.99 g/m*3 4.3 C 0 km/h
1002 05-01-2005 09:02:02 4.3 C 4.99 g/m*3 4.3 C 0 km/h
1003 05-01-2005 09:14:02 4.3 C 4.99 g/m*3 4.3 C 0 km/h
1004 05-01-2005 09:26:02 4.3 C 4.99 g/m*3 4.3 C 0 km/h
1005 05-01-2005 09:38:02 4.4 C 5.03 g/m*3 4.4 C 0 km/h
1006 05-01-2005 09:50:02 4.4 C 5.03 g/m*3 4.4 C 0 km/h
1007 05-01-2005 10:02:02 4.5 C 5 g/m*3 4.5 C 0 km/h
1008 05-01-2005 10:14:02 4.4 C 5.09 g/m*3 4.4 C 0 km/h
1009 05-01-2005 10:26:02 4.4 C 5.09 g/m*3 4.4 C 0 km/h
1010 05-01-2005 10:38:04 4.6 C 5.16 g/m*3 4.6 C 0 km/h
1011 05-01-2005 10:50:03 4.7 C 5.06 g/m*3 4.7 C 0 km/h
1012 05-01-2005 11:02:02 4.7 C 5.06 g/m*3 4.7 C 0 km/h
1013 05-01-2005 11:14:02 4.8 C 5.1 g/m*3 4.8 C 0 km/h
1014 05-01-2005 11:26:02 5 C 5.03 g/m*3 5 C 0 km/h
1015 05-01-2005 11:38:02 5 C 5.03 g/m*3 5 C 0 km/h
1016 05-01-2005 11:50:02 5.1 C 5.06 g/m*3 5.1 C 0 km/h
1017 05-01-2005 12:02:02 5.3 C 5.06 g/m*3 5.3 C 0 km/h
1018 05-01-2005 12:14:02 5.3 C 5.06 g/m*3 5.3 C 0 km/h
1019 05-01-2005 12:26:03 5.5 C 5.13 g/m*3 5.5 C 0 km/h
1020 05-01-2005 12:38:02 5.4 C 5.09 g/m*3 5.4 C 0 km/h
1021 05-01-2005 12:50:01 5.4 C 5.09 g/m*3 5.4 C 0 km/h
1022 05-01-2005 13:02:01 5.3 C 5.06 g/m*3 5.3 C 0 km/h
1023 05-01-2005 13:14:01 5.4 C 5.16 g/m*3 5.4 C 0 km/h
1024 05-01-2005 13:26:01 5.3 C 5.2 g/m*3 5.3 C 0 km/h
1025 05-01-2005 13:38:02 5.2 C 5.23 g/m*3 5.2 C 0 km/h
Sensor: Nr:Datum:Temp:Abs-Feuchte:Windchill:Wind:
Aussen-T/F 1026 05-01-2005 13:50:01 5 C 5.37 g/m*3 5 C 0 km/h
1027 05-01-2005 14:02:02 5 C 5.37 g/m*3 5 C 0 km/h
1028 05-01-2005 14:14:02 5.2 C 5.37 g/m*3 5.2 C 0 km/h
1029 05-01-2005 14:26:02 5.1 C 5.4 g/m*3 5.1 C 0 km/h
1030 05-01-2005 14:38:02 5.1 C 5.4 g/m*3 5.1 C 0 km/h
1031 05-01-2005 14:50:02 5.1 C 5.47 g/m*3 5.1 C 0 km/h
1032 05-01-2005 15:02:03 5.2 C 5.44 g/m*3 5.2 C 0 km/h
1033 05-01-2005 15:14:03 5.4 C 5.44 g/m*3 5.4 C 0 km/h
1034 05-01-2005 15:26:02 5.4 C 5.37 g/m*3 5.4 C 0 km/h
1035 05-01-2005 15:38:02 5.5 C 5.41 g/m*3 5.5 C 0 km/h
1036 05-01-2005 15:50:01 5.4 C 5.44 g/m*3 5.4 C 0 km/h
1037 05-01-2005 16:02:02 5.4 C 5.44 g/m*3 5.4 C 0 km/h
1038 05-01-2005 16:14:02 5.2 C 5.51 g/m*3 5.2 C 0 km/h
1039 05-01-2005 16:26:02 5.1 C 5.61 g/m*3 5.1 C 0 km/h
1040 05-01-2005 16:38:01 5 C 5.64 g/m*3 5 C 0 km/h
1041 05-01-2005 16:50:01 5 C 5.71 g/m*3 5 C 0 km/h
1042 05-01-2005 17:02:02 5.1 C 5.81 g/m*3 5.1 C 0 km/h
1043 05-01-2005 17:14:02 5 C 5.78 g/m*3 5 C 0 km/h
1044 05-01-2005 17:26:02 5.1 C 5.88 g/m*3 5.1 C 0 km/h
1045 05-01-2005 17:38:02 5 C 5.91 g/m*3 5 C 0 km/h
1046 05-01-2005 17:50:02 4.9 C 5.94 g/m*3 4.9 C 0 km/h
1047 05-01-2005 18:02:01 4.9 C 5.94 g/m*3 4.9 C 0 km/h
1048 05-01-2005 18:14:01 5 C 5.91 g/m*3 5 C 0 km/h
1049 05-01-2005 18:26:02 4.9 C 5.94 g/m*3 4.9 C 0 km/h
1050 05-01-2005 18:38:02 4.7 C 5.86 g/m*3 4.7 C 0 km/h
Sensor: Nr:Datum:Temp:Abs-Feuchte:Windchill:Wind:
Aussen-T/F 1051 05-01-2005 18:50:05 4.7 C 5.93 g/m*3 4.7 C 0 km/h
1052 05-01-2005 19:02:02 4.7 C 6 g/m*3 4.7 C 0 km/h
1053 05-01-2005 19:14:02 4.7 C 6 g/m*3 4.7 C 0 km/h
1054 05-01-2005 19:26:03 4.7 C 6 g/m*3 4.7 C 0 km/h
1055 05-01-2005 19:38:04 4.7 C 6.06 g/m*3 4.7 C 0 km/h
1056 05-01-2005 19:50:03 4.8 C 6.1 g/m*3 4.8 C 0 km/h
1057 05-01-2005 20:02:03 5 C 6.12 g/m*3 5 C 0 km/h
1058 05-01-2005 20:14:03 5.1 C 6.16 g/m*3 5.1 C 0 km/h
1059 05-01-2005 20:26:02 5.4 C 6.28 g/m*3 5.4 C 0 km/h
1060 05-01-2005 20:38:02 5.7 C 6.26 g/m*3 5.7 C 0 km/h
1061 05-01-2005 20:50:01 5.6 C 6.15 g/m*3 5.6 C 0 km/h
1062 05-01-2005 21:02:01 5.9 C 6.13 g/m*3 5.9 C 0 km/h
1063 05-01-2005 21:14:01 5.9 C 6.13 g/m*3 5.9 C 0 km/h
1064 05-01-2005 21:26:02 5.8 C 6.09 g/m*3 5.8 C 0 km/h
1065 05-01-2005 21:38:02 5.8 C 6.16 g/m*3 5.8 C 0 km/h
1066 05-01-2005 21:50:02 5.7 C 6.12 g/m*3 5.7 C 0 km/h
1067 05-01-2005 22:02:02 5.7 C 6.12 g/m*3 5.7 C 0 km/h
1068 05-01-2005 22:14:02 5.7 C 6.12 g/m*3 5.7 C 0 km/h
1069 05-01-2005 22:26:02 5.7 C 6.19 g/m*3 5.7 C 0 km/h
1070 05-01-2005 22:38:03 5.7 C 6.19 g/m*3 5.7 C 0 km/h
1071 05-01-2005 22:50:02 5.7 C 6.26 g/m*3 5.7 C 0 km/h
1072 05-01-2005 23:02:02 5.7 C 6.33 g/m*3 5.7 C 0 km/h
1073 05-01-2005 23:14:02 5.5 C 6.25 g/m*3 5.5 C 0 km/h
1074 05-01-2005 23:26:02 5.6 C 6.36 g/m*3 5.6 C 0 km/h
1075 05-01-2005 23:38:02 5.7 C 6.48 g/m*3 5.7 C 0 km/h
Sensor: Nr:Datum:Temp:Abs-Feuchte:Windchill:Wind:
Aussen-T/F 1076 05-01-2005 23:50:02 5.8 C 6.52 g/m*3 5.8 C 0 km/h
1077 06-01-2005 00:02:02 5.8 C 6.38 g/m*3 5.8 C 0 km/h
1078 06-01-2005 00:14:02 5.8 C 6.3 g/m*3 5.8 C 0 km/h
1079 06-01-2005 00:26:02 5.9 C 6.2 g/m*3 5.9 C 0 km/h
1080 06-01-2005 00:38:03 6.3 C 5.92 g/m*3 6.3 C 0 km/h
1081 06-01-2005 00:50:02 6.1 C 5.84 g/m*3 6.1 C 0 km/h
1082 06-01-2005 01:02:02 6.4 C 5.89 g/m*3 6.4 C 0 km/h
1083 06-01-2005 01:14:02 6.8 C 5.89 g/m*3 6.8 C 0 km/h
1084 06-01-2005 01:26:02 6.7 C 5.93 g/m*3 6.7 C 0 km/h
1085 06-01-2005 01:38:02 6.4 C 6.04 g/m*3 6.4 C 0 km/h
1086 06-01-2005 01:50:02 6.7 C 6.23 g/m*3 6.7 C 0 km/h
1087 06-01-2005 02:02:02 6.4 C 6.11 g/m*3 6.4 C 0 km/h
1088 06-01-2005 02:14:02 6.3 C 6.14 g/m*3 6.3 C 0 km/h
1089 06-01-2005 02:26:02 6.3 C 6.22 g/m*3 6.3 C 0 km/h
1090 06-01-2005 02:38:02 6.3 C 6.22 g/m*3 6.3 C 0 km/h
1091 06-01-2005 02:51:03 6.6 C 6.19 g/m*3 6.6 C 0 km/h
1092 06-01-2005 03:03:03 6.9 C 6.08 g/m*3 6.9 C 0 km/h
1093 06-01-2005 03:15:04 7.2 C 5.89 g/m*3 7.2 C 0 km/h
1094 06-01-2005 03:27:04 7.1 C 5.93 g/m*3 7.1 C 0 km/h
1095 06-01-2005 03:39:02 6.9 C 6 g/m*3 6.9 C 0 km/h
1096 06-01-2005 03:51:02 7 C 5.97 g/m*3 7 C 0 km/h
1097 06-01-2005 04:03:01 7 C 5.97 g/m*3 7 C 0 km/h
1098 06-01-2005 04:15:01 6.9 C 6.08 g/m*3 6.9 C 0 km/h
1099 06-01-2005 04:27:01 6.7 C 6.15 g/m*3 6.7 C 0 km/h
1100 06-01-2005 04:39:01 6.6 C 6.19 g/m*3 6.6 C 0 km/h
Sensor: Nr:Datum:Temp:Abs-Feuchte:Windchill:Wind:
Aussen-T/F 1101 06-01-2005 04:51:02 6.5 C 6.22 g/m*3 6.5 C 0 km/h
1102 06-01-2005 05:03:02 6.5 C 6.3 g/m*3 6.5 C 0 km/h
1103 06-01-2005 05:15:02 6.5 C 6.37 g/m*3 6.5 C 0 km/h
1104 06-01-2005 05:27:02 6.5 C 6.37 g/m*3 6.5 C 0 km/h
1105 06-01-2005 05:39:02 6.4 C 6.41 g/m*3 6.4 C 0 km/h
1106 06-01-2005 05:51:02 6.4 C 6.41 g/m*3 6.4 C 0 km/h
1107 06-01-2005 06:03:02 6.3 C 6.37 g/m*3 6.3 C 0 km/h
1108 06-01-2005 06:15:02 6.4 C 6.41 g/m*3 6.4 C 0 km/h
1109 06-01-2005 06:27:02 6.5 C 6.45 g/m*3 6.5 C 0 km/h
1110 06-01-2005 06:39:02 6.4 C 6.41 g/m*3 6.4 C 0 km/h
1111 06-01-2005 06:51:02 6.3 C 6.37 g/m*3 6.3 C 0 km/h
1112 06-01-2005 07:03:02 6.2 C 6.25 g/m*3 6.2 C 0 km/h
1113 06-01-2005 07:15:02 6.1 C 6.06 g/m*3 6.1 C 0 km/h
1114 06-01-2005 07:27:02 6.1 C 6.14 g/m*3 6.1 C 0 km/h
1115 06-01-2005 07:39:03 5.6 C 6.08 g/m*3 5.6 C 0 km/h
1116 06-01-2005 07:51:02 5.6 C 6.15 g/m*3 5.6 C 0 km/h
1117 06-01-2005 08:03:01 5.3 C 6.03 g/m*3 5.3 C 0 km/h
1118 06-01-2005 08:15:02 5 C 5.91 g/m*3 5 C 0 km/h
1119 06-01-2005 08:27:02 5.2 C 6.06 g/m*3 5.2 C 0 km/h
1120 06-01-2005 08:39:01 5.3 C 6.03 g/m*3 5.3 C 0 km/h
1121 06-01-2005 08:51:01 5.4 C 6.07 g/m*3 5.4 C 0 km/h
1122 06-01-2005 09:03:02 5.6 C 6.08 g/m*3 5.6 C 0 km/h
1123 06-01-2005 09:15:01 5.7 C 5.98 g/m*3 5.7 C 0 km/h
1124 06-01-2005 09:27:01 5.7 C 5.91 g/m*3 5.7 C 0 km/h
1125 06-01-2005 09:39:02 5.5 C 5.83 g/m*3 5.5 C 0 km/h
Sensor: Nr:Datum:Temp:Abs-Feuchte:Windchill:Wind:
Aussen-T/F 1126 06-01-2005 09:51:01 5.8 C 5.95 g/m*3 5.8 C 0 km/h
1127 06-01-2005 10:03:02 6.1 C 5.84 g/m*3 6.1 C 0 km/h
1128 06-01-2005 10:15:01 6.1 C 5.7 g/m*3 6.1 C 0 km/h
1129 06-01-2005 10:27:02 6 C 5.73 g/m*3 6 C 0 km/h
1130 06-01-2005 10:39:01 5.9 C 5.77 g/m*3 5.9 C 0 km/h
1131 06-01-2005 10:51:02 6.5 C 5.77 g/m*3 6.5 C 0 km/h
1132 06-01-2005 11:03:02 6.8 C 5.89 g/m*3 6.8 C 0 km/h
1133 06-01-2005 11:15:02 7.1 C 5.77 g/m*3 7.1 C 0 km/h
1134 06-01-2005 11:27:02 7.2 C 5.73 g/m*3 7.2 C 0 km/h
1135 06-01-2005 11:39:02 7.3 C 5.93 g/m*3 7.3 C 0 km/h
1136 06-01-2005 11:51:01 7.6 C 5.96 g/m*3 7.6 C 0 km/h
1137 06-01-2005 12:03:01 7.7 C 5.92 g/m*3 7.7 C 0 km/h
1138 06-01-2005 12:15:01 7.5 C 5.92 g/m*3 7.5 C 0 km/h
1139 06-01-2005 12:27:01 7.7 C 5.84 g/m*3 7.7 C 0 km/h
1140 06-01-2005 12:39:01 7.9 C 5.83 g/m*3 7.9 C 0 km/h
1141 06-01-2005 12:51:01 7.8 C 5.63 g/m*3 7.8 C 0 km/h
1142 06-01-2005 13:03:02 8.2 C 5.53 g/m*3 8.2 C 0 km/h
1143 06-01-2005 13:15:01 8.3 C 5.39 g/m*3 8.3 C 0 km/h
1144 06-01-2005 13:27:01 8.6 C 5.5 g/m*3 8.6 C 0 km/h
1145 06-01-2005 13:39:02 8.5 C 5.29 g/m*3 8.5 C 0 km/h
1146 06-01-2005 13:51:02 8.6 C 5.24 g/m*3 8.6 C 0 km/h
1147 06-01-2005 14:03:02 8.3 C 5.06 g/m*3 8.3 C 0 km/h
1148 06-01-2005 14:15:02 8.2 C 5.02 g/m*3 8.2 C 0 km/h
1149 06-01-2005 14:27:02 8.1 C 5.08 g/m*3 8.1 C 0 km/h
1150 06-01-2005 14:39:03 8.1 C 5.08 g/m*3 8.1 C 0 km/h
Sensor: Nr:Datum:Temp:Abs-Feuchte:Windchill:Wind:
Aussen-T/F 1151 06-01-2005 14:51:02 7.9 C 5.01 g/m*3 7.9 C 0 km/h
1152 06-01-2005 15:03:02 7.8 C 5.06 g/m*3 7.8 C 0 km/h
1153 06-01-2005 15:15:02 7.5 C 5.12 g/m*3 7.5 C 0 km/h
1154 06-01-2005 15:27:02 7.6 C 5.08 g/m*3 7.6 C 0 km/h
1155 06-01-2005 15:39:03 7.7 C 5.19 g/m*3 7.7 C 0 km/h
1156 06-01-2005 15:51:02 7.6 C 5.24 g/m*3 7.6 C 0 km/h
1157 06-01-2005 16:03:02 7.4 C 5.25 g/m*3 7.4 C 0 km/h
1158 06-01-2005 16:15:02 6.9 C 5.39 g/m*3 6.9 C 0 km/h
1159 06-01-2005 16:27:02 6.4 C 5.36 g/m*3 6.4 C 0 km/h
1160 06-01-2005 16:39:01 6 C 5.37 g/m*3 6 C 0 km/h
1161 06-01-2005 16:51:01 6 C 5.3 g/m*3 6 C 0 km/h
1162 06-01-2005 17:03:02 6 C 5.23 g/m*3 6 C 0 km/h
1163 06-01-2005 17:15:02 5.8 C 5.3 g/m*3 5.8 C 0 km/h
1164 06-01-2005 17:27:02 5.4 C 5.23 g/m*3 5.4 C 0 km/h
1165 06-01-2005 17:39:02 5.1 C 5.2 g/m*3 5.1 C 0 km/h
1166 06-01-2005 17:51:03 4.8 C 5.3 g/m*3 4.8 C 0 km/h
1167 06-01-2005 18:03:03 4.7 C 5.33 g/m*3 4.7 C 0 km/h
1168 06-01-2005 18:15:03 4.5 C 5.26 g/m*3 4.5 C 0 km/h
1169 06-01-2005 18:27:03 4.5 C 5.39 g/m*3 4.5 C 0 km/h
1170 06-01-2005 18:39:02 5 C 5.44 g/m*3 5 C 0 km/h
1171 06-01-2005 18:51:03 5.6 C 5.37 g/m*3 5.6 C 0 km/h
1172 06-01-2005 19:03:02 6 C 5.37 g/m*3 6 C 0 km/h
1173 06-01-2005 19:15:02 5.9 C 5.26 g/m*3 5.9 C 0 km/h
1174 06-01-2005 19:27:02 5.9 C 5.34 g/m*3 5.9 C 0 km/h
1175 06-01-2005 19:39:02 6.2 C 5.29 g/m*3 6.2 C 0 km/h
Sensor: Nr:Datum:Temp:Abs-Feuchte:Windchill:Wind:
Aussen-T/F 1176 06-01-2005 19:51:01 6.2 C 5.37 g/m*3 6.2 C 0 km/h
1177 06-01-2005 20:03:02 6.2 C 5.37 g/m*3 6.2 C 0 km/h
1178 06-01-2005 20:15:02 6.3 C 5.4 g/m*3 6.3 C 0 km/h
1179 06-01-2005 20:27:02 6 C 5.3 g/m*3 6 C 0 km/h
1180 06-01-2005 20:39:01 6.1 C 5.41 g/m*3 6.1 C 0 km/h
1181 06-01-2005 20:51:01 6.5 C 5.55 g/m*3 6.5 C 0 km/h
1182 06-01-2005 21:03:02 6.8 C 5.58 g/m*3 6.8 C 0 km/h
1183 06-01-2005 21:15:02 6.8 C 5.58 g/m*3 6.8 C 0 km/h
1184 06-01-2005 21:27:02 6.5 C 5.55 g/m*3 6.5 C 0 km/h
1185 06-01-2005 21:39:02 6.3 C 5.55 g/m*3 6.3 C 0 km/h
1186 06-01-2005 21:51:01 6.2 C 5.59 g/m*3 6.2 C 0 km/h
1187 06-01-2005 22:03:02 6.4 C 5.74 g/m*3 6.4 C 0 km/h
1188 06-01-2005 22:15:02 6.5 C 5.77 g/m*3 6.5 C 0 km/h
1189 06-01-2005 22:27:02 6.6 C 5.81 g/m*3 6.6 C 0 km/h
1190 06-01-2005 22:39:02 7 C 5.73 g/m*3 7 C 0 km/h
1191 06-01-2005 22:51:02 6.9 C 5.77 g/m*3 6.9 C 0 km/h
1192 06-01-2005 23:03:02 6.7 C 5.77 g/m*3 6.7 C 0 km/h
1193 06-01-2005 23:15:02 6.8 C 5.81 g/m*3 6.8 C 0 km/h
1194 06-01-2005 23:27:02 7.2 C 5.81 g/m*3 7.2 C 0 km/h
1195 06-01-2005 23:39:02 7.4 C 5.88 g/m*3 7.4 C 0 km/h
1196 06-01-2005 23:51:01 7.5 C 5.84 g/m*3 7.5 C 0 km/h
1197 07-01-2005 00:03:02 7.7 C 5.92 g/m*3 7.7 C 0 km/h
1198 07-01-2005 00:15:02 7.9 C 5.91 g/m*3 7.9 C 0 km/h
1199 07-01-2005 00:27:02 8 C 5.87 g/m*3 8 C 0 km/h
1200 07-01-2005 00:39:01 8 C 5.79 g/m*3 8 C 0 km/h
Sensor: Nr:Datum:Temp:Abs-Feuchte:Windchill:Wind:
Aussen-T/F 1201 07-01-2005 00:51:02 8 C 5.79 g/m*3 8 C 0 km/h
1202 07-01-2005 01:03:01 8 C 5.87 g/m*3 8 C 0 km/h
1203 07-01-2005 01:15:01 8.1 C 5.82 g/m*3 8.1 C 0 km/h
1204 07-01-2005 01:27:01 8.2 C 5.78 g/m*3 8.2 C 0 km/h
1205 07-01-2005 01:39:02 8.3 C 5.82 g/m*3 8.3 C 0 km/h
1206 07-01-2005 01:51:02 8.3 C 5.82 g/m*3 8.3 C 0 km/h
1207 07-01-2005 02:03:02 8.5 C 5.81 g/m*3 8.5 C 0 km/h
1208 07-01-2005 02:15:02 8.6 C 5.84 g/m*3 8.6 C 0 km/h
1209 07-01-2005 02:27:02 8.6 C 5.84 g/m*3 8.6 C 0 km/h
1210 07-01-2005 02:39:02 8.7 C 5.79 g/m*3 8.7 C 0 km/h
1211 07-01-2005 02:52:04 8.6 C 5.84 g/m*3 8.6 C 0 km/h
1212 07-01-2005 03:04:04 8.5 C 5.81 g/m*3 8.5 C 0 km/h
1213 07-01-2005 03:16:04 8.5 C 5.81 g/m*3 8.5 C 0 km/h
1214 07-01-2005 03:28:04 8.6 C 5.76 g/m*3 8.6 C 0 km/h
1215 07-01-2005 03:40:03 8.7 C 5.79 g/m*3 8.7 C 0 km/h
1216 07-01-2005 03:52:03 8.7 C 5.79 g/m*3 8.7 C 0 km/h
1217 07-01-2005 04:04:03 8.7 C 5.79 g/m*3 8.7 C 0 km/h
1218 07-01-2005 04:16:03 8.9 C 5.78 g/m*3 8.9 C 0 km/h
1219 07-01-2005 04:28:03 8.9 C 5.78 g/m*3 8.9 C 0 km/h
1220 07-01-2005 04:40:02 8.9 C 5.78 g/m*3 8.9 C 0 km/h
1221 07-01-2005 04:52:02 8.9 C 5.87 g/m*3 8.9 C 0 km/h
1222 07-01-2005 05:04:02 9.1 C 5.77 g/m*3 9.1 C 0 km/h
1223 07-01-2005 05:16:02 9.1 C 5.77 g/m*3 9.1 C 0 km/h
1224 07-01-2005 05:28:02 9.1 C 5.77 g/m*3 9.1 C 0 km/h
1225 07-01-2005 05:40:02 9.1 C 5.77 g/m*3 9.1 C 0 km/h
Sensor: Nr:Datum:Temp:Abs-Feuchte:Windchill:Wind:
Aussen-T/F 1226 07-01-2005 05:52:01 9 C 5.82 g/m*3 9 C 0 km/h
1227 07-01-2005 06:04:02 9.1 C 5.77 g/m*3 9.1 C 0 km/h
1228 07-01-2005 06:16:02 9.2 C 5.89 g/m*3 9.2 C 0 km/h
1229 07-01-2005 06:28:02 9.2 C 5.89 g/m*3 9.2 C 0 km/h
1230 07-01-2005 06:40:01 9.4 C 5.97 g/m*3 9.4 C 0 km/h
1231 07-01-2005 06:52:01 9.2 C 5.89 g/m*3 9.2 C 0 km/h
1232 07-01-2005 07:04:02 9.1 C 5.94 g/m*3 9.1 C 0 km/h
1233 07-01-2005 07:16:02 9.2 C 5.98 g/m*3 9.2 C 0 km/h
1234 07-01-2005 07:28:02 9.4 C 5.97 g/m*3 9.4 C 0 km/h
1235 07-01-2005 07:40:02 9.5 C 6.01 g/m*3 9.5 C 0 km/h
1236 07-01-2005 07:52:02 9.6 C 6.05 g/m*3 9.6 C 0 km/h
1237 07-01-2005 08:04:01 9.7 C 6.08 g/m*3 9.7 C 0 km/h
1238 07-01-2005 08:16:01 9.7 C 6.08 g/m*3 9.7 C 0 km/h
1239 07-01-2005 08:28:01 9.7 C 6.08 g/m*3 9.7 C 0 km/h
1240 07-01-2005 08:40:01 9.7 C 5.99 g/m*3 9.7 C 0 km/h
1241 07-01-2005 08:52:01 9.7 C 5.99 g/m*3 9.7 C 0 km/h
1242 07-01-2005 09:04:02 9.8 C 6.03 g/m*3 9.8 C 0 km/h
1243 07-01-2005 09:16:02 9.8 C 6.03 g/m*3 9.8 C 0 km/h
1244 07-01-2005 09:28:02 9.8 C 6.03 g/m*3 9.8 C 0 km/h
1245 07-01-2005 09:40:02 9.7 C 5.99 g/m*3 9.7 C 0 km/h
1246 07-01-2005 09:52:01 9.7 C 5.99 g/m*3 9.7 C 0 km/h
1247 07-01-2005 10:04:02 9.8 C 6.03 g/m*3 9.8 C 0 km/h
1248 07-01-2005 10:16:01 9.8 C 6.03 g/m*3 9.8 C 0 km/h
1249 07-01-2005 10:28:01 9.8 C 6.03 g/m*3 9.8 C 0 km/h
1250 07-01-2005 10:40:01 9.8 C 6.03 g/m*3 9.8 C 0 km/h
Sensor: Nr:Datum:Temp:Abs-Feuchte:Windchill:Wind:
Aussen-T/F 1251 07-01-2005 10:52:02 9.8 C 6.03 g/m*3 9.8 C 0 km/h
1252 07-01-2005 11:04:02 9.9 C 5.98 g/m*3 9.9 C 0 km/h
1253 07-01-2005 11:16:02 10 C 5.92 g/m*3 10 C 0 km/h
1254 07-01-2005 11:28:02 10.2 C 6 g/m*3 10.2 C 0 km/h
1255 07-01-2005 11:40:02 10.5 C 6.01 g/m*3 10.5 C 0 km/h
1256 07-01-2005 11:52:02 10.5 C 6.01 g/m*3 10.5 C 0 km/h
1257 07-01-2005 12:04:02 10.5 C 6.11 g/m*3 10.5 C 0 km/h
1258 07-01-2005 12:16:02 10.6 C 6.05 g/m*3 10.6 C 0 km/h
1259 07-01-2005 12:28:02 10.7 C 6.09 g/m*3 10.7 C 0 km/h
1260 07-01-2005 12:40:03 10.7 C 6.19 g/m*3 10.7 C 0 km/h
1261 07-01-2005 12:52:02 10.6 C 6.15 g/m*3 10.6 C 0 km/h
1262 07-01-2005 13:04:03 10.6 C 6.15 g/m*3 10.6 C 0 km/h
1263 07-01-2005 13:16:02 10.7 C 6.19 g/m*3 10.7 C 0 km/h
1264 07-01-2005 13:28:02 10.8 C 6.23 g/m*3 10.8 C 0 km/h
1265 07-01-2005 13:40:02 11 C 6.21 g/m*3 11 C 0 km/h
1266 07-01-2005 13:52:01 11 C 6.21 g/m*3 11 C 0 km/h
1267 07-01-2005 14:04:02 11 C 6.21 g/m*3 11 C 0 km/h
1268 07-01-2005 14:16:02 11 C 6.21 g/m*3 11 C 0 km/h
1269 07-01-2005 14:28:02 11 C 6.21 g/m*3 11 C 0 km/h
1270 07-01-2005 14:40:01 11 C 6.21 g/m*3 11 C 0 km/h
1271 07-01-2005 14:52:02 11 C 6.21 g/m*3 11 C 0 km/h
1272 07-01-2005 15:04:02 11.1 C 6.25 g/m*3 11.1 C 0 km/h
1273 07-01-2005 15:16:03 11.1 C 6.25 g/m*3 11.1 C 0 km/h
1274 07-01-2005 15:28:03 11.1 C 6.35 g/m*3 11.1 C 0 km/h
1275 07-01-2005 15:40:02 11.2 C 6.39 g/m*3 11.2 C 0 km/h
Sensor: Nr:Datum:Temp:Abs-Feuchte:Windchill:Wind:
Aussen-T/F 1276 07-01-2005 15:52:04 11.2 C 6.39 g/m*3 11.2 C 0 km/h
1277 07-01-2005 16:04:03 11.3 C 6.43 g/m*3 11.3 C 0 km/h
1278 07-01-2005 16:16:02 11.1 C 6.45 g/m*3 11.1 C 0 km/h
1279 07-01-2005 16:28:02 11.1 C 6.45 g/m*3 11.1 C 0 km/h
1280 07-01-2005 16:40:02 11 C 6.41 g/m*3 11 C 0 km/h
1281 07-01-2005 16:52:01 11 C 6.41 g/m*3 11 C 0 km/h
1282 07-01-2005 17:04:03 11 C 6.51 g/m*3 11 C 0 km/h
1283 07-01-2005 17:16:02 10.9 C 6.56 g/m*3 10.9 C 0 km/h
1284 07-01-2005 17:28:02 10.8 C 6.52 g/m*3 10.8 C 0 km/h
1285 07-01-2005 17:40:02 10.9 C 6.56 g/m*3 10.9 C 0 km/h
1286 07-01-2005 17:52:02 10.8 C 6.52 g/m*3 10.8 C 0 km/h
1287 07-01-2005 18:04:02 10.9 C 6.56 g/m*3 10.9 C 0 km/h
1288 07-01-2005 18:16:03 10.9 C 6.56 g/m*3 10.9 C 0 km/h
1289 07-01-2005 18:28:03 10.9 C 6.56 g/m*3 10.9 C 0 km/h
1290 07-01-2005 18:40:02 11 C 6.51 g/m*3 11 C 0 km/h
1291 07-01-2005 18:52:02 11.1 C 6.55 g/m*3 11.1 C 0 km/h
1292 07-01-2005 19:04:02 11.1 C 6.55 g/m*3 11.1 C 0 km/h
1293 07-01-2005 19:16:02 11.2 C 6.59 g/m*3 11.2 C 0 km/h
1294 07-01-2005 19:28:02 11.1 C 6.55 g/m*3 11.1 C 0 km/h
1295 07-01-2005 19:40:02 11.1 C 6.55 g/m*3 11.1 C 0 km/h
1296 07-01-2005 19:52:02 11.1 C 6.55 g/m*3 11.1 C 0 km/h
1297 07-01-2005 20:04:02 11.1 C 6.55 g/m*3 11.1 C 0 km/h
1298 07-01-2005 20:16:01 11.1 C 6.55 g/m*3 11.1 C 0 km/h
1299 07-01-2005 20:28:01 11.1 C 6.55 g/m*3 11.1 C 0 km/h
1300 07-01-2005 20:40:01 11 C 6.61 g/m*3 11 C 0 km/h
Sensor: Nr:Datum:Temp:Abs-Feuchte:Windchill:Wind:
Aussen-T/F 1301 07-01-2005 20:52:01 10.8 C 6.72 g/m*3 10.8 C 0 km/h
1302 07-01-2005 21:04:02 10.7 C 6.78 g/m*3 10.7 C 0 km/h
1303 07-01-2005 21:16:02 10.7 C 6.68 g/m*3 10.7 C 0 km/h
1304 07-01-2005 21:28:02 10.8 C 6.62 g/m*3 10.8 C 0 km/h
1305 07-01-2005 21:40:02 10.9 C 6.56 g/m*3 10.9 C 0 km/h
1306 07-01-2005 21:52:01 11 C 6.51 g/m*3 11 C 0 km/h
1307 07-01-2005 22:04:01 11 C 6.41 g/m*3 11 C 0 km/h
1308 07-01-2005 22:16:01 11 C 6.41 g/m*3 11 C 0 km/h
1309 07-01-2005 22:28:01 11 C 6.41 g/m*3 11 C 0 km/h
1310 07-01-2005 22:40:02 10.9 C 6.47 g/m*3 10.9 C 0 km/h
1311 07-01-2005 22:52:02 10.8 C 6.42 g/m*3 10.8 C 0 km/h
1312 07-01-2005 23:04:02 10.9 C 6.37 g/m*3 10.9 C 0 km/h
1313 07-01-2005 23:16:02 11 C 6.21 g/m*3 11 C 0 km/h
1314 07-01-2005 23:28:02 11 C 6.11 g/m*3 11 C 0 km/h
1315 07-01-2005 23:40:02 11 C 6.11 g/m*3 11 C 0 km/h
1316 07-01-2005 23:52:01 11 C 6.01 g/m*3 11 C 0 km/h
1317 08-01-2005 00:04:02 11 C 6.01 g/m*3 11 C 0 km/h
1318 08-01-2005 00:16:03 10.9 C 5.97 g/m*3 10.9 C 0 km/h
1319 08-01-2005 00:28:03 10.9 C 5.97 g/m*3 10.9 C 0 km/h
1320 08-01-2005 00:40:01 11 C 5.81 g/m*3 11 C 0 km/h
1321 08-01-2005 00:52:02 11 C 5.81 g/m*3 11 C 0 km/h
1322 08-01-2005 01:04:02 10.9 C 5.87 g/m*3 10.9 C 0 km/h
1323 08-01-2005 01:16:02 10.9 C 5.87 g/m*3 10.9 C 0 km/h
1324 08-01-2005 01:28:02 10.9 C 5.77 g/m*3 10.9 C 0 km/h
1325 08-01-2005 01:40:02 10.8 C 5.73 g/m*3 10.8 C 0 km/h
Sensor: Nr:Datum:Temp:Abs-Feuchte:Windchill:Wind:
Aussen-T/F 1326 08-01-2005 01:52:03 10.6 C 5.66 g/m*3 10.6 C 0 km/h
1327 08-01-2005 02:04:02 10.4 C 5.59 g/m*3 10.4 C 0 km/h
1328 08-01-2005 02:16:02 10.3 C 5.65 g/m*3 10.3 C 0 km/h
1329 08-01-2005 02:28:02 10.2 C 5.61 g/m*3 10.2 C 0 km/h
1330 08-01-2005 02:40:02 10 C 5.64 g/m*3 10 C 0 km/h
1331 08-01-2005 02:52:01 9.8 C 5.66 g/m*3 9.8 C 0 km/h
1332 08-01-2005 03:04:01 9.7 C 5.62 g/m*3 9.7 C 0 km/h
1333 08-01-2005 03:16:02 9.6 C 5.68 g/m*3 9.6 C 0 km/h
1334 08-01-2005 03:28:02 9.6 C 5.68 g/m*3 9.6 C 0 km/h
1335 08-01-2005 03:40:02 9.5 C 5.64 g/m*3 9.5 C 0 km/h
1336 08-01-2005 03:52:02 9.2 C 5.63 g/m*3 9.2 C 0 km/h
1337 08-01-2005 04:04:01 9 C 5.64 g/m*3 9 C 0 km/h
1338 08-01-2005 04:16:02 8.8 C 5.66 g/m*3 8.8 C 0 km/h
1339 08-01-2005 04:28:02 8.8 C 5.66 g/m*3 8.8 C 0 km/h
1340 08-01-2005 04:40:02 8.7 C 5.62 g/m*3 8.7 C 0 km/h
1341 08-01-2005 04:52:02 8.7 C 5.62 g/m*3 8.7 C 0 km/h
1342 08-01-2005 05:04:02 8.5 C 5.64 g/m*3 8.5 C 0 km/h
1343 08-01-2005 05:16:02 8.7 C 5.62 g/m*3 8.7 C 0 km/h
1344 08-01-2005 05:28:02 8.5 C 5.55 g/m*3 8.5 C 0 km/h
1345 08-01-2005 05:40:01 8.6 C 5.59 g/m*3 8.6 C 0 km/h
1346 08-01-2005 05:52:01 8.7 C 5.53 g/m*3 8.7 C 0 km/h
1347 08-01-2005 06:04:01 8.7 C 5.53 g/m*3 8.7 C 0 km/h
1348 08-01-2005 06:16:01 8.7 C 5.53 g/m*3 8.7 C 0 km/h
1349 08-01-2005 06:28:01 8.5 C 5.46 g/m*3 8.5 C 0 km/h
1350 08-01-2005 06:40:01 8.5 C 5.38 g/m*3 8.5 C 0 km/h
Sensor: Nr:Datum:Temp:Abs-Feuchte:Windchill:Wind:
Aussen-T/F 1351 08-01-2005 06:52:01 8.5 C 5.46 g/m*3 8.5 C 0 km/h
1352 08-01-2005 07:04:01 8.6 C 5.41 g/m*3 8.6 C 0 km/h
1353 08-01-2005 07:16:02 8.6 C 5.33 g/m*3 8.6 C 0 km/h
1354 08-01-2005 07:28:02 8.7 C 5.36 g/m*3 8.7 C 0 km/h
1355 08-01-2005 07:40:01 8.7 C 5.28 g/m*3 8.7 C 0 km/h
1356 08-01-2005 07:52:02 8.5 C 5.21 g/m*3 8.5 C 0 km/h
1357 08-01-2005 08:04:01 8.6 C 5.16 g/m*3 8.6 C 0 km/h
1358 08-01-2005 08:16:02 8.6 C 5.07 g/m*3 8.6 C 0 km/h
1359 08-01-2005 08:28:02 8.6 C 4.98 g/m*3 8.6 C 0 km/h
1360 08-01-2005 08:40:01 8.6 C 4.81 g/m*3 8.6 C 0 km/h
1361 08-01-2005 08:52:01 8.8 C 4.7 g/m*3 8.8 C 0 km/h
1362 08-01-2005 09:04:02 9 C 4.5 g/m*3 9 C 0 km/h
1363 08-01-2005 09:16:02 9 C 4.5 g/m*3 9 C 0 km/h
1364 08-01-2005 09:28:02 9 C 4.5 g/m*3 9 C 0 km/h
1365 08-01-2005 09:40:01 9.3 C 4.49 g/m*3 9.3 C 0 km/h
1366 08-01-2005 09:52:01 9.5 C 4.46 g/m*3 9.5 C 0 km/h
1367 08-01-2005 10:04:01 9.3 C 4.4 g/m*3 9.3 C 0 km/h
1368 08-01-2005 10:16:01 9.5 C 4.46 g/m*3 9.5 C 0 km/h
1369 08-01-2005 10:28:01 9.6 C 4.49 g/m*3 9.6 C 0 km/h
1370 08-01-2005 10:40:05 9.5 C 4.46 g/m*3 9.5 C 0 km/h
1371 08-01-2005 10:43:02 9.5 C 4.46 g/m*3 9.5 C 0 km/h
1372 08-01-2005 10:53:02 9.6 C 4.49 g/m*3 9.6 C 0 km/h
1373 08-01-2005 11:03:01 10 C 4.51 g/m*3 10 C 0 km/h
1374 08-01-2005 11:13:01 10.2 C 4.57 g/m*3 10.2 C 0 km/h
1375 08-01-2005 11:23:01 10.4 C 4.63 g/m*3 10.4 C 0 km/h
Sensor: Nr:Datum:Temp:Abs-Feuchte:Windchill:Wind:
Aussen-T/F 1376 08-01-2005 11:33:02 10.5 C 4.66 g/m*3 10.5 C 0 km/h
1377 08-01-2005 11:43:02 10.6 C 4.68 g/m*3 10.6 C 0 km/h
1378 08-01-2005 11:53:01 10.6 C 4.78 g/m*3 10.6 C 0 km/h
1379 08-01-2005 12:03:02 10.5 C 4.85 g/m*3 10.5 C 0 km/h
1380 08-01-2005 12:13:02 10.5 C 4.85 g/m*3 10.5 C 0 km/h
1381 08-01-2005 12:23:01 10.6 C 4.88 g/m*3 10.6 C 0 km/h
1382 08-01-2005 12:33:02 10.6 C 4.88 g/m*3 10.6 C 0 km/h
1383 08-01-2005 12:43:02 10.6 C 5.08 g/m*3 10.6 C 0 km/h
1384 08-01-2005 12:53:02 10.6 C 5.27 g/m*3 10.6 C 0 km/h
1385 08-01-2005 13:03:01 10.4 C 5.49 g/m*3 10.4 C 0 km/h
1386 08-01-2005 13:13:01 10.2 C 5.8 g/m*3 10.2 C 0 km/h
1387 08-01-2005 13:23:01 10 C 5.92 g/m*3 10 C 0 km/h
1388 08-01-2005 13:33:01 9.9 C 6.16 g/m*3 9.9 C 0 km/h
1389 08-01-2005 13:43:01 9.9 C 6.26 g/m*3 9.9 C 0 km/h
1390 08-01-2005 13:53:01 10 C 6.2 g/m*3 10 C 0 km/h
1391 08-01-2005 14:03:01 10 C 6.2 g/m*3 10 C 0 km/h
1392 08-01-2005 14:13:01 10 C 6.2 g/m*3 10 C 0 km/h
1393 08-01-2005 14:23:01 10.1 C 6.24 g/m*3 10.1 C 0 km/h
1394 08-01-2005 14:33:02 10.1 C 6.24 g/m*3 10.1 C 0 km/h
1395 08-01-2005 14:43:02 10.2 C 6.28 g/m*3 10.2 C 0 km/h
1396 08-01-2005 14:45:01 10.2 C 6.28 g/m*3 10.2 C 0 km/h
1397 08-01-2005 14:57:01 10.1 C 6.24 g/m*3 10.1 C 0 km/h
1398 08-01-2005 15:09:01 10.2 C 6.28 g/m*3 10.2 C 0 km/h
1399 08-01-2005 15:21:01 10.2 C 6.28 g/m*3 10.2 C 0 km/h
1400 08-01-2005 15:33:02 10.1 C 6.24 g/m*3 10.1 C 0 km/h
Sensor: Nr:Datum:Temp:Abs-Feuchte:Windchill:Wind:
Aussen-T/F 1401 08-01-2005 15:45:02 10.1 C 6.34 g/m*3 10.1 C 0 km/h
1402 08-01-2005 15:57:02 10.1 C 6.24 g/m*3 10.1 C 0 km/h
1403 08-01-2005 16:09:01 10 C 6.2 g/m*3 10 C 0 km/h
1404 08-01-2005 16:21:02 9.9 C 6.35 g/m*3 9.9 C 0 km/h
1405 08-01-2005 16:33:02 9.9 C 6.35 g/m*3 9.9 C 0 km/h
1406 08-01-2005 16:45:02 9.9 C 6.35 g/m*3 9.9 C 0 km/h
1407 08-01-2005 16:57:02 10 C 6.2 g/m*3 10 C 0 km/h
1408 08-01-2005 17:09:01 10 C 6.11 g/m*3 10 C 0 km/h
1409 08-01-2005 17:21:01 9.9 C 6.26 g/m*3 9.9 C 0 km/h
1410 08-01-2005 17:33:01 9.3 C 6.29 g/m*3 9.3 C 0 km/h
1411 08-01-2005 17:45:01 9.4 C 6.06 g/m*3 9.4 C 0 km/h
1412 08-01-2005 17:57:01 9.9 C 5.23 g/m*3 9.9 C 0 km/h
1413 08-01-2005 18:09:01 9.8 C 5.01 g/m*3 9.8 C 0 km/h
1414 08-01-2005 18:21:02 9.9 C 4.76 g/m*3 9.9 C 0 km/h
1415 08-01-2005 18:33:01 9.7 C 4.79 g/m*3 9.7 C 0 km/h
1416 08-01-2005 18:45:01 9.5 C 4.64 g/m*3 9.5 C 0 km/h
1417 08-01-2005 18:57:01 9.5 C 4.28 g/m*3 9.5 C 0 km/h
1418 08-01-2005 19:09:02 9 C 4.14 g/m*3 9 C 0 km/h
1419 08-01-2005 19:21:02 8.6 C 4.12 g/m*3 8.6 C 0 km/h
1420 08-01-2005 19:33:01 8.5 C 4.18 g/m*3 8.5 C 0 km/h
1421 08-01-2005 19:45:01 8.3 C 4.13 g/m*3 8.3 C 0 km/h
1422 08-01-2005 19:57:01 8.4 C 4.16 g/m*3 8.4 C 0 km/h
1423 08-01-2005 20:09:01 8.2 C 4.19 g/m*3 8.2 C 0 km/h
1424 08-01-2005 20:21:01 8 C 4.22 g/m*3 8 C 0 km/h
1425 08-01-2005 20:33:01 8 C 4.22 g/m*3 8 C 0 km/h
Sensor: Nr:Datum:Temp:Abs-Feuchte:Windchill:Wind:
Aussen-T/F 1426 08-01-2005 20:45:02 7.9 C 4.27 g/m*3 7.9 C 0 km/h
1427 08-01-2005 20:57:02 7.9 C 4.19 g/m*3 7.9 C 0 km/h
1428 08-01-2005 21:09:01 7.7 C 4.14 g/m*3 7.7 C 0 km/h
1429 08-01-2005 21:21:01 7.6 C 4.19 g/m*3 7.6 C 0 km/h
1430 08-01-2005 21:33:01 7.5 C 4.16 g/m*3 7.5 C 0 km/h
1431 08-01-2005 21:45:02 7.4 C 4.14 g/m*3 7.4 C 0 km/h
1432 08-01-2005 21:57:02 7.3 C 4.11 g/m*3 7.3 C 0 km/h
1433 08-01-2005 22:09:02 7.3 C 4.11 g/m*3 7.3 C 0 km/h
1434 08-01-2005 22:21:02 7.3 C 4.03 g/m*3 7.3 C 0 km/h
1435 08-01-2005 22:33:01 7.3 C 4.03 g/m*3 7.3 C 0 km/h
1436 08-01-2005 22:45:01 7.3 C 4.11 g/m*3 7.3 C 0 km/h
1437 08-01-2005 22:57:01 7.3 C 4.19 g/m*3 7.3 C 0 km/h
1438 08-01-2005 23:09:02 7.2 C 4.24 g/m*3 7.2 C 0 km/h
1439 08-01-2005 23:21:01 7 C 4.26 g/m*3 7 C 0 km/h
1440 08-01-2005 23:33:02 6.9 C 4.39 g/m*3 6.9 C 0 km/h
1441 08-01-2005 23:45:02 6.9 C 4.46 g/m*3 6.9 C 0 km/h
1442 08-01-2005 23:57:02 6.8 C 4.44 g/m*3 6.8 C 0 km/h
1443 09-01-2005 00:09:01 6.8 C 4.44 g/m*3 6.8 C 0 km/h
1444 09-01-2005 00:21:02 6.8 C 4.44 g/m*3 6.8 C 0 km/h
1445 09-01-2005 00:33:01 6.9 C 4.39 g/m*3 6.9 C 0 km/h
1446 09-01-2005 00:45:01 6.8 C 4.44 g/m*3 6.8 C 0 km/h
1447 09-01-2005 00:57:02 6.7 C 4.48 g/m*3 6.7 C 0 km/h
1448 09-01-2005 01:09:01 6.6 C 4.53 g/m*3 6.6 C 0 km/h
1449 09-01-2005 01:21:02 6.5 C 4.57 g/m*3 6.5 C 0 km/h
1450 09-01-2005 01:33:01 6.4 C 4.55 g/m*3 6.4 C 0 km/h
Sensor: Nr:Datum:Temp:Abs-Feuchte:Windchill:Wind:
Aussen-T/F 1451 09-01-2005 01:45:01 6.4 C 4.62 g/m*3 6.4 C 0 km/h
1452 09-01-2005 01:57:01 6.3 C 4.59 g/m*3 6.3 C 0 km/h
1453 09-01-2005 02:09:01 6.4 C 4.62 g/m*3 6.4 C 0 km/h
1454 09-01-2005 02:21:01 6.5 C 4.65 g/m*3 6.5 C 0 km/h
1455 09-01-2005 02:33:01 6.5 C 4.57 g/m*3 6.5 C 0 km/h
1456 09-01-2005 02:46:04 6.6 C 4.68 g/m*3 6.6 C 0 km/h
1457 09-01-2005 02:58:04 6.7 C 4.64 g/m*3 6.7 C 0 km/h
1458 09-01-2005 03:10:04 6.8 C 4.67 g/m*3 6.8 C 0 km/h
1459 09-01-2005 03:22:04 6.7 C 4.71 g/m*3 6.7 C 0 km/h
1460 09-01-2005 03:34:02 6.7 C 4.71 g/m*3 6.7 C 0 km/h
1461 09-01-2005 03:46:02 6.7 C 4.71 g/m*3 6.7 C 0 km/h
1462 09-01-2005 03:58:02 6.7 C 4.71 g/m*3 6.7 C 0 km/h
1463 09-01-2005 04:10:02 6.7 C 4.64 g/m*3 6.7 C 0 km/h
1464 09-01-2005 04:22:03 6.8 C 4.67 g/m*3 6.8 C 0 km/h
1465 09-01-2005 04:34:03 6.8 C 4.67 g/m*3 6.8 C 0 km/h
1466 09-01-2005 04:46:02 6.9 C 4.62 g/m*3 6.9 C 0 km/h
1467 09-01-2005 04:58:02 6.9 C 4.62 g/m*3 6.9 C 0 km/h
1468 09-01-2005 05:10:02 6.9 C 4.62 g/m*3 6.9 C 0 km/h
1469 09-01-2005 05:22:02 6.9 C 4.62 g/m*3 6.9 C 0 km/h
1470 09-01-2005 05:34:01 6.9 C 4.62 g/m*3 6.9 C 0 km/h
1471 09-01-2005 05:46:01 6.8 C 4.67 g/m*3 6.8 C 0 km/h
1472 09-01-2005 05:58:01 6.8 C 4.74 g/m*3 6.8 C 0 km/h
1473 09-01-2005 06:10:02 6.7 C 4.79 g/m*3 6.7 C 0 km/h
1474 09-01-2005 06:22:01 6.7 C 4.79 g/m*3 6.7 C 0 km/h
1475 09-01-2005 06:34:01 6.6 C 4.83 g/m*3 6.6 C 0 km/h
Sensor: Nr:Datum:Temp:Abs-Feuchte:Windchill:Wind:
Aussen-T/F 1476 09-01-2005 06:46:02 6.6 C 4.91 g/m*3 6.6 C 0 km/h
1477 09-01-2005 06:58:02 6.6 C 4.98 g/m*3 6.6 C 0 km/h
1478 09-01-2005 07:10:02 6.8 C 4.97 g/m*3 6.8 C 0 km/h
1479 09-01-2005 07:22:01 6.8 C 4.82 g/m*3 6.8 C 0 km/h
1480 09-01-2005 07:34:02 7 C 4.73 g/m*3 7 C 0 km/h
1481 09-01-2005 07:46:03 6.9 C 4.85 g/m*3 6.9 C 0 km/h
1482 09-01-2005 07:58:03 6.9 C 4.85 g/m*3 6.9 C 0 km/h
1483 09-01-2005 08:10:02 7 C 4.73 g/m*3 7 C 0 km/h
1484 09-01-2005 08:22:02 6.9 C 4.7 g/m*3 6.9 C 0 km/h
1485 09-01-2005 08:34:03 6.7 C 4.79 g/m*3 6.7 C 0 km/h
1486 09-01-2005 08:46:02 6.4 C 4.77 g/m*3 6.4 C 0 km/h
1487 09-01-2005 08:58:02 6.5 C 4.8 g/m*3 6.5 C 0 km/h
1488 09-01-2005 09:10:02 6.4 C 4.84 g/m*3 6.4 C 0 km/h
1489 09-01-2005 09:22:02 6.6 C 4.91 g/m*3 6.6 C 0 km/h
1490 09-01-2005 09:34:02 7 C 4.8 g/m*3 7 C 0 km/h
1491 09-01-2005 09:46:01 7.1 C 4.76 g/m*3 7.1 C 0 km/h
1492 09-01-2005 09:58:01 7.2 C 4.79 g/m*3 7.2 C 0 km/h
1493 09-01-2005 10:10:02 7.3 C 4.9 g/m*3 7.3 C 0 km/h
1494 09-01-2005 10:22:01 7.2 C 4.87 g/m*3 7.2 C 0 km/h
1495 09-01-2005 10:34:01 7.2 C 4.87 g/m*3 7.2 C 0 km/h
1496 09-01-2005 10:46:01 7 C 4.8 g/m*3 7 C 0 km/h
1497 09-01-2005 10:58:01 7 C 4.88 g/m*3 7 C 0 km/h
1498 09-01-2005 11:10:01 7 C 4.88 g/m*3 7 C 0 km/h
1499 09-01-2005 11:22:03 7.4 C 4.77 g/m*3 7.4 C 0 km/h
1500 09-01-2005 11:34:02 7.6 C 4.75 g/m*3 7.6 C 0 km/h
Sensor: Nr:Datum:Temp:Abs-Feuchte:Windchill:Wind:
Aussen-T/F 1501 09-01-2005 11:46:02 7.9 C 4.76 g/m*3 7.9 C 0 km/h
1502 09-01-2005 11:58:02 8 C 4.71 g/m*3 8 C 0 km/h
1503 09-01-2005 12:10:02 8.1 C 4.74 g/m*3 8.1 C 0 km/h
1504 09-01-2005 12:22:02 8.2 C 4.77 g/m*3 8.2 C 0 km/h
1505 09-01-2005 12:34:02 8.3 C 4.8 g/m*3 8.3 C 0 km/h
1506 09-01-2005 12:46:01 8.6 C 4.81 g/m*3 8.6 C 0 km/h
1507 09-01-2005 12:58:01 8.7 C 4.84 g/m*3 8.7 C 0 km/h
1508 09-01-2005 13:10:02 8.7 C 4.84 g/m*3 8.7 C 0 km/h
1509 09-01-2005 13:22:02 8.7 C 4.84 g/m*3 8.7 C 0 km/h
1510 09-01-2005 13:34:01 8.7 C 4.84 g/m*3 8.7 C 0 km/h
1511 09-01-2005 13:46:01 8.8 C 4.96 g/m*3 8.8 C 0 km/h
1512 09-01-2005 13:58:01 8.6 C 4.98 g/m*3 8.6 C 0 km/h
1513 09-01-2005 14:10:02 8.5 C 4.95 g/m*3 8.5 C 0 km/h
1514 09-01-2005 14:22:01 8.5 C 4.87 g/m*3 8.5 C 0 km/h
1515 09-01-2005 14:34:02 8.5 C 4.87 g/m*3 8.5 C 0 km/h
1516 09-01-2005 14:46:01 8.4 C 4.75 g/m*3 8.4 C 0 km/h
1517 09-01-2005 14:58:01 8.2 C 4.69 g/m*3 8.2 C 0 km/h
1518 09-01-2005 15:10:01 8.2 C 4.77 g/m*3 8.2 C 0 km/h
1519 09-01-2005 15:22:01 8.2 C 4.77 g/m*3 8.2 C 0 km/h
1520 09-01-2005 15:34:01 8 C 4.8 g/m*3 8 C 0 km/h
1521 09-01-2005 15:46:01 7.9 C 4.93 g/m*3 7.9 C 0 km/h
1522 09-01-2005 15:58:01 7.6 C 4.83 g/m*3 7.6 C 0 km/h
1523 09-01-2005 16:10:02 7.3 C 4.9 g/m*3 7.3 C 0 km/h
1524 09-01-2005 16:22:02 7.2 C 4.95 g/m*3 7.2 C 0 km/h
1525 09-01-2005 16:34:02 7 C 4.96 g/m*3 7 C 0 km/h
Sensor: Nr:Datum:Temp:Abs-Feuchte:Windchill:Wind:
Aussen-T/F 1526 09-01-2005 16:46:02 6.8 C 5.05 g/m*3 6.8 C 0 km/h
1527 09-01-2005 16:58:02 6.4 C 4.99 g/m*3 6.4 C 0 km/h
1528 09-01-2005 17:10:02 6.3 C 5.03 g/m*3 6.3 C 0 km/h
1529 09-01-2005 17:22:02 6 C 4.94 g/m*3 6 C 0 km/h
1530 09-01-2005 17:34:02 5.8 C 5.01 g/m*3 5.8 C 0 km/h
1531 09-01-2005 17:46:01 5.6 C 5.02 g/m*3 5.6 C 0 km/h
1532 09-01-2005 17:58:01 5.4 C 5.02 g/m*3 5.4 C 0 km/h
1533 09-01-2005 18:10:01 5.5 C 5.06 g/m*3 5.5 C 0 km/h
1534 09-01-2005 18:22:01 5.4 C 5.02 g/m*3 5.4 C 0 km/h
1535 09-01-2005 18:34:02 5.3 C 5.06 g/m*3 5.3 C 0 km/h
1536 09-01-2005 18:46:02 5.4 C 5.09 g/m*3 5.4 C 0 km/h
1537 09-01-2005 18:58:02 5.9 C 5.26 g/m*3 5.9 C 0 km/h
1538 09-01-2005 19:10:02 6.1 C 5.11 g/m*3 6.1 C 0 km/h
1539 09-01-2005 19:22:02 5.9 C 5.19 g/m*3 5.9 C 0 km/h
1540 09-01-2005 19:34:02 6 C 5.15 g/m*3 6 C 0 km/h
1541 09-01-2005 19:46:02 6.4 C 5.22 g/m*3 6.4 C 0 km/h
1542 09-01-2005 19:58:02 6.4 C 5.14 g/m*3 6.4 C 0 km/h
1543 09-01-2005 20:10:03 6.2 C 5.15 g/m*3 6.2 C 0 km/h
1544 09-01-2005 20:22:02 5.8 C 5.16 g/m*3 5.8 C 0 km/h
1545 09-01-2005 20:34:02 5.7 C 5.27 g/m*3 5.7 C 0 km/h
1546 09-01-2005 20:46:02 6.3 C 5.4 g/m*3 6.3 C 0 km/h
1547 09-01-2005 20:58:02 6.3 C 5.33 g/m*3 6.3 C 0 km/h
1548 09-01-2005 21:10:02 5.9 C 5.26 g/m*3 5.9 C 0 km/h
1549 09-01-2005 21:22:02 6.1 C 5.41 g/m*3 6.1 C 0 km/h
1550 09-01-2005 21:34:03 6.1 C 5.41 g/m*3 6.1 C 0 km/h
Sensor: Nr:Datum:Temp:Abs-Feuchte:Windchill:Wind:
Aussen-T/F 1551 09-01-2005 21:46:02 6.1 C 5.41 g/m*3 6.1 C 0 km/h
1552 09-01-2005 21:58:02 6.3 C 5.48 g/m*3 6.3 C 0 km/h
1553 09-01-2005 22:10:02 6.5 C 5.55 g/m*3 6.5 C 0 km/h
1554 09-01-2005 22:22:02 6.5 C 5.55 g/m*3 6.5 C 0 km/h
1555 09-01-2005 22:34:02 7 C 5.66 g/m*3 7 C 0 km/h
1556 09-01-2005 22:46:01 7 C 5.58 g/m*3 7 C 0 km/h
1557 09-01-2005 22:58:01 7.2 C 5.65 g/m*3 7.2 C 0 km/h
1558 09-01-2005 23:10:01 7.2 C 5.65 g/m*3 7.2 C 0 km/h
1559 09-01-2005 23:22:02 7.2 C 5.65 g/m*3 7.2 C 0 km/h
1560 09-01-2005 23:34:02 8.1 C 6.24 g/m*3 8.1 C 0 km/h
1561 09-01-2005 23:46:02 9.2 C 6.43 g/m*3 9.2 C 0 km/h
1562 09-01-2005 23:58:02 9.4 C 6.42 g/m*3 9.4 C 0 km/h
1563 10-01-2005 00:10:02 9.3 C 6.38 g/m*3 9.3 C 0 km/h
1564 10-01-2005 00:22:02 8.9 C 6.39 g/m*3 8.9 C 0 km/h
1565 10-01-2005 00:34:02 8.9 C 6.39 g/m*3 8.9 C 0 km/h
1566 10-01-2005 00:46:02 9 C 6.35 g/m*3 9 C 0 km/h
1567 10-01-2005 00:58:02 8.9 C 6.39 g/m*3 8.9 C 0 km/h
1568 10-01-2005 01:10:02 8.9 C 6.39 g/m*3 8.9 C 0 km/h
1569 10-01-2005 01:22:02 8.9 C 6.39 g/m*3 8.9 C 0 km/h
1570 10-01-2005 01:34:02 8.8 C 6.35 g/m*3 8.8 C 0 km/h
1571 10-01-2005 01:46:02 8.8 C 6.44 g/m*3 8.8 C 0 km/h
1572 10-01-2005 01:58:02 8.8 C 6.44 g/m*3 8.8 C 0 km/h
1573 10-01-2005 02:10:02 9 C 6.52 g/m*3 9 C 0 km/h
1574 10-01-2005 02:22:03 9.6 C 6.6 g/m*3 9.6 C 0 km/h
1575 10-01-2005 02:34:02 10.1 C 6.52 g/m*3 10.1 C 0 km/h
Sensor: Nr:Datum:Temp:Abs-Feuchte:Windchill:Wind:
Aussen-T/F 1576 10-01-2005 02:47:03 10.3 C 6.61 g/m*3 10.3 C 0 km/h
1577 10-01-2005 02:59:03 10.5 C 6.69 g/m*3 10.5 C 0 km/h
1578 10-01-2005 03:11:03 10.5 C 6.69 g/m*3 10.5 C 0 km/h
1579 10-01-2005 03:23:03 10.5 C 6.79 g/m*3 10.5 C 0 km/h
1580 10-01-2005 03:35:02 10.6 C 6.73 g/m*3 10.6 C 0 km/h
1581 10-01-2005 03:47:02 10.7 C 6.78 g/m*3 10.7 C 0 km/h
1582 10-01-2005 03:59:02 11 C 6.81 g/m*3 11 C 0 km/h
1583 10-01-2005 04:11:01 11 C 6.81 g/m*3 11 C 0 km/h
1584 10-01-2005 04:23:02 11 C 6.81 g/m*3 11 C 0 km/h
1585 10-01-2005 04:35:02 11 C 6.81 g/m*3 11 C 0 km/h
1586 10-01-2005 04:47:02 11 C 6.81 g/m*3 11 C 0 km/h
1587 10-01-2005 04:59:02 11.1 C 6.85 g/m*3 11.1 C 0 km/h
1588 10-01-2005 05:11:02 11.1 C 6.85 g/m*3 11.1 C 0 km/h
1589 10-01-2005 05:23:02 11 C 6.91 g/m*3 11 C 0 km/h
1590 10-01-2005 05:35:02 11 C 6.91 g/m*3 11 C 0 km/h
1591 10-01-2005 05:47:02 11 C 6.91 g/m*3 11 C 0 km/h
1592 10-01-2005 05:59:02 11.1 C 6.95 g/m*3 11.1 C 0 km/h
1593 10-01-2005 06:11:02 11 C 6.91 g/m*3 11 C 0 km/h
1594 10-01-2005 06:23:02 10.9 C 6.96 g/m*3 10.9 C 0 km/h
1595 10-01-2005 06:35:03 11 C 7.01 g/m*3 11 C 0 km/h
1596 10-01-2005 06:47:02 11 C 7.01 g/m*3 11 C 0 km/h
1597 10-01-2005 06:59:02 11.1 C 7.05 g/m*3 11.1 C 0 km/h
1598 10-01-2005 07:11:02 11.1 C 7.05 g/m*3 11.1 C 0 km/h
1599 10-01-2005 07:23:02 11.3 C 7.04 g/m*3 11.3 C 0 km/h
1600 10-01-2005 07:35:02 11.4 C 6.98 g/m*3 11.4 C 0 km/h
Sensor: Nr:Datum:Temp:Abs-Feuchte:Windchill:Wind:
Aussen-T/F 1601 10-01-2005 07:47:02 11.3 C 6.94 g/m*3 11.3 C 0 km/h
1602 10-01-2005 07:59:03 11.3 C 6.94 g/m*3 11.3 C 0 km/h
1603 10-01-2005 08:11:02 11.3 C 6.94 g/m*3 11.3 C 0 km/h
1604 10-01-2005 08:23:03 11.4 C 6.98 g/m*3 11.4 C 0 km/h
1605 10-01-2005 08:35:02 11.4 C 6.98 g/m*3 11.4 C 0 km/h
1606 10-01-2005 08:47:01 11.3 C 6.94 g/m*3 11.3 C 0 km/h
1607 10-01-2005 08:59:01 11.2 C 6.89 g/m*3 11.2 C 0 km/h
1608 10-01-2005 09:11:01 11.2 C 6.89 g/m*3 11.2 C 0 km/h
1609 10-01-2005 09:23:02 11.3 C 6.94 g/m*3 11.3 C 0 km/h
1610 10-01-2005 09:35:01 11.4 C 6.88 g/m*3 11.4 C 0 km/h
1611 10-01-2005 09:47:02 11.5 C 6.92 g/m*3 11.5 C 0 km/h
1612 10-01-2005 09:59:02 11.7 C 6.9 g/m*3 11.7 C 0 km/h
1613 10-01-2005 10:11:02 11.9 C 6.88 g/m*3 11.9 C 0 km/h
1614 10-01-2005 10:23:02 12.1 C 6.76 g/m*3 12.1 C 0 km/h
1615 10-01-2005 10:35:02 12.2 C 6.8 g/m*3 12.2 C 0 km/h
1616 10-01-2005 10:47:01 12.4 C 6.77 g/m*3 12.4 C 0 km/h
1617 10-01-2005 10:59:01 12.6 C 6.86 g/m*3 12.6 C 0 km/h
1618 10-01-2005 11:11:01 12.8 C 6.83 g/m*3 12.8 C 0 km/h
1619 10-01-2005 11:23:02 12.9 C 6.88 g/m*3 12.9 C 0 km/h
1620 10-01-2005 11:35:01 13.1 C 6.73 g/m*3 13.1 C 0 km/h
1621 10-01-2005 11:47:01 13.3 C 6.59 g/m*3 13.3 C 0 km/h
1622 10-01-2005 11:59:01 13.5 C 6.55 g/m*3 13.5 C 0 km/h
1623 10-01-2005 12:11:01 13.7 C 6.51 g/m*3 13.7 C 0 km/h
1624 10-01-2005 12:23:01 13.9 C 6.35 g/m*3 13.9 C 0 km/h
1625 10-01-2005 12:35:01 14.1 C 6.07 g/m*3 14.1 C 0 km/h
Sensor: Nr:Datum:Temp:Abs-Feuchte:Windchill:Wind:
Aussen-T/F 1626 10-01-2005 12:47:02 14 C 6.03 g/m*3 14 C 0 km/h
1627 10-01-2005 12:59:02 13.9 C 6.11 g/m*3 13.9 C 0 km/h
1628 10-01-2005 13:11:02 14.1 C 6.07 g/m*3 14.1 C 0 km/h
1629 10-01-2005 13:23:03 14.2 C 5.74 g/m*3 14.2 C 0 km/h
1630 10-01-2005 13:35:07 15.1 C 5.68 g/m*3 15.1 C 0 km/h
1631 10-01-2005 13:47:02 15.9 C 5.69 g/m*3 15.9 C 0 km/h
1632 10-01-2005 13:59:02 15.8 C 5.79 g/m*3 15.8 C 0 km/h
1633 10-01-2005 14:11:02 15.3 C 5.62 g/m*3 15.3 C 0 km/h
1634 10-01-2005 14:23:02 14.6 C 5.63 g/m*3 14.6 C 0 km/h
1635 10-01-2005 14:35:02 14 C 5.67 g/m*3 14 C 0 km/h
1636 10-01-2005 14:47:01 13.7 C 5.92 g/m*3 13.7 C 0 km/h
1637 10-01-2005 14:59:01 13.2 C 5.97 g/m*3 13.2 C 0 km/h
1638 10-01-2005 15:11:01 12.7 C 6.23 g/m*3 12.7 C 0 km/h
1639 10-01-2005 15:23:01 12.2 C 6.26 g/m*3 12.2 C 0 km/h
1640 10-01-2005 15:35:01 12.1 C 6.11 g/m*3 12.1 C 0 km/h
1641 10-01-2005 15:47:01 12.7 C 5.68 g/m*3 12.7 C 0 km/h
1642 10-01-2005 15:59:01 12.2 C 5.72 g/m*3 12.2 C 0 km/h
1643 10-01-2005 16:11:01 11.7 C 5.96 g/m*3 11.7 C 0 km/h
1644 10-01-2005 16:23:02 11.2 C 5.88 g/m*3 11.2 C 0 km/h
1645 10-01-2005 16:35:01 11.1 C 5.84 g/m*3 11.1 C 0 km/h
1646 10-01-2005 16:47:01 10.8 C 5.93 g/m*3 10.8 C 0 km/h
1647 10-01-2005 16:59:01 10.7 C 5.89 g/m*3 10.7 C 0 km/h
1648 10-01-2005 17:11:02 10.7 C 5.89 g/m*3 10.7 C 0 km/h
1649 10-01-2005 17:23:00 10.3 C 5.84 g/m*3 10.3 C 0 km/h
1650 10-01-2005 17:35:02 10 C 5.83 g/m*3 10 C 0 km/h
Sensor: Nr:Datum:Temp:Abs-Feuchte:Windchill:Wind:
Aussen-T/F 1651 10-01-2005 17:47:02 9.7 C 5.81 g/m*3 9.7 C 0 km/h
1652 10-01-2005 17:59:02 9.5 C 5.83 g/m*3 9.5 C 0 km/h
1653 10-01-2005 18:11:02 9.2 C 5.8 g/m*3 9.2 C 0 km/h
1654 10-01-2005 18:23:02 9.1 C 5.77 g/m*3 9.1 C 0 km/h
1655 10-01-2005 18:35:02 9.1 C 5.77 g/m*3 9.1 C 0 km/h
1656 10-01-2005 18:47:02 8.9 C 5.78 g/m*3 8.9 C 0 km/h
1657 10-01-2005 18:59:02 8.8 C 5.74 g/m*3 8.8 C 0 km/h
1658 10-01-2005 19:11:02 8.6 C 5.67 g/m*3 8.6 C 0 km/h
1659 10-01-2005 19:23:02 8.7 C 5.62 g/m*3 8.7 C 0 km/h
1660 10-01-2005 19:35:02 8.7 C 5.62 g/m*3 8.7 C 0 km/h
1661 10-01-2005 19:47:02 8.8 C 5.57 g/m*3 8.8 C 0 km/h
1662 10-01-2005 19:59:02 8.9 C 5.61 g/m*3 8.9 C 0 km/h
1663 10-01-2005 20:11:03 8.5 C 5.55 g/m*3 8.5 C 0 km/h
1664 10-01-2005 20:23:03 9 C 5.55 g/m*3 9 C 0 km/h
1665 10-01-2005 20:35:03 9.1 C 5.41 g/m*3 9.1 C 0 km/h
1666 10-01-2005 20:47:02 8.8 C 5.4 g/m*3 8.8 C 0 km/h
1667 10-01-2005 20:59:02 8.9 C 5.43 g/m*3 8.9 C 0 km/h
1668 10-01-2005 21:11:02 9.2 C 5.45 g/m*3 9.2 C 0 km/h
1669 10-01-2005 21:23:02 9 C 5.29 g/m*3 9 C 0 km/h
1670 10-01-2005 21:35:02 9 C 5.11 g/m*3 9 C 0 km/h
1671 10-01-2005 21:47:01 9.1 C 5.15 g/m*3 9.1 C 0 km/h
1672 10-01-2005 21:59:01 8.8 C 5.05 g/m*3 8.8 C 0 km/h
1673 10-01-2005 22:11:01 8.8 C 4.96 g/m*3 8.8 C 0 km/h
1674 10-01-2005 22:23:01 8.7 C 4.93 g/m*3 8.7 C 0 km/h
1675 10-01-2005 22:35:01 8.5 C 4.87 g/m*3 8.5 C 0 km/h
Sensor: Nr:Datum:Temp:Abs-Feuchte:Windchill:Wind:
Aussen-T/F 1676 10-01-2005 22:47:01 8.1 C 4.74 g/m*3 8.1 C 0 km/h
1677 10-01-2005 22:59:01 8 C 4.71 g/m*3 8 C 0 km/h
1678 10-01-2005 23:11:01 8.2 C 4.77 g/m*3 8.2 C 0 km/h
1679 10-01-2005 23:23:01 8.5 C 4.7 g/m*3 8.5 C 0 km/h
1680 10-01-2005 23:35:02 8.4 C 4.67 g/m*3 8.4 C 0 km/h
1681 10-01-2005 23:47:01 8.4 C 4.75 g/m*3 8.4 C 0 km/h
1682 10-01-2005 23:59:01 8.6 C 4.73 g/m*3 8.6 C 0 km/h
1683 11-01-2005 00:11:01 8.5 C 4.7 g/m*3 8.5 C 0 km/h
1684 11-01-2005 00:23:02 8.5 C 4.7 g/m*3 8.5 C 0 km/h
1685 11-01-2005 00:35:01 8.4 C 4.67 g/m*3 8.4 C 0 km/h
1686 11-01-2005 00:47:02 8.5 C 4.7 g/m*3 8.5 C 0 km/h
1687 11-01-2005 00:59:02 8.8 C 4.7 g/m*3 8.8 C 0 km/h
1688 11-01-2005 01:11:02 8.8 C 4.79 g/m*3 8.8 C 0 km/h
1689 11-01-2005 01:23:02 8.8 C 4.87 g/m*3 8.8 C 0 km/h
1690 11-01-2005 01:35:02 8.8 C 4.96 g/m*3 8.8 C 0 km/h
1691 11-01-2005 01:47:02 8.7 C 5.02 g/m*3 8.7 C 0 km/h
1692 11-01-2005 01:59:02 8.8 C 5.14 g/m*3 8.8 C 0 km/h
1693 11-01-2005 02:11:02 8.9 C 5.17 g/m*3 8.9 C 0 km/h
1694 11-01-2005 02:23:02 8.9 C 5.26 g/m*3 8.9 C 0 km/h
1695 11-01-2005 02:35:02 8.9 C 5.34 g/m*3 8.9 C 0 km/h
1696 11-01-2005 02:48:03 8.7 C 5.45 g/m*3 8.7 C 0 km/h
1697 11-01-2005 03:00:03 8.6 C 5.41 g/m*3 8.6 C 0 km/h
1698 11-01-2005 03:12:03 8.5 C 5.55 g/m*3 8.5 C 0 km/h
1699 11-01-2005 03:24:03 8.5 C 5.72 g/m*3 8.5 C 0 km/h
1700 11-01-2005 03:36:02 8.4 C 5.77 g/m*3 8.4 C 0 km/h
Sensor: Nr:Datum:Temp:Abs-Feuchte:Windchill:Wind:
Aussen-T/F 1701 11-01-2005 03:48:02 8.3 C 5.82 g/m*3 8.3 C 0 km/h
1702 11-01-2005 04:00:02 8.2 C 5.78 g/m*3 8.2 C 0 km/h
1703 11-01-2005 04:12:02 8.3 C 5.9 g/m*3 8.3 C 0 km/h
1704 11-01-2005 04:24:02 8.1 C 5.99 g/m*3 8.1 C 0 km/h
1705 11-01-2005 04:36:01 8.2 C 6.11 g/m*3 8.2 C 0 km/h
1706 11-01-2005 04:48:02 8.1 C 6.16 g/m*3 8.1 C 0 km/h
1707 11-01-2005 05:00:02 8.1 C 6.24 g/m*3 8.1 C 0 km/h
1708 11-01-2005 05:12:01 8.1 C 6.32 g/m*3 8.1 C 0 km/h
1709 11-01-2005 05:24:02 8.1 C 6.32 g/m*3 8.1 C 0 km/h
1710 11-01-2005 05:36:01 8.2 C 6.36 g/m*3 8.2 C 0 km/h
1711 11-01-2005 05:48:01 8.3 C 6.32 g/m*3 8.3 C 0 km/h
1712 11-01-2005 06:00:01 8.4 C 6.36 g/m*3 8.4 C 0 km/h
1713 11-01-2005 06:12:02 8.4 C 6.28 g/m*3 8.4 C 0 km/h
1714 11-01-2005 06:24:02 8.4 C 6.28 g/m*3 8.4 C 0 km/h
1715 11-01-2005 06:36:01 8.4 C 6.28 g/m*3 8.4 C 0 km/h
1716 11-01-2005 06:48:01 8.5 C 6.23 g/m*3 8.5 C 0 km/h
1717 11-01-2005 07:00:01 8.5 C 6.15 g/m*3 8.5 C 0 km/h
1718 11-01-2005 07:12:02 8.4 C 6.19 g/m*3 8.4 C 0 km/h
1719 11-01-2005 07:24:02 8.3 C 6.15 g/m*3 8.3 C 0 km/h
1720 11-01-2005 07:36:01 8.2 C 6.11 g/m*3 8.2 C 0 km/h
1721 11-01-2005 07:48:02 8 C 6.12 g/m*3 8 C 0 km/h
1722 11-01-2005 08:00:02 7.7 C 6.08 g/m*3 7.7 C 0 km/h
1723 11-01-2005 08:12:02 7.4 C 6.04 g/m*3 7.4 C 0 km/h
1724 11-01-2005 08:24:01 7 C 5.97 g/m*3 7 C 0 km/h
1725 11-01-2005 08:36:02 6.8 C 6.12 g/m*3 6.8 C 0 km/h
Sensor: Nr:Datum:Temp:Abs-Feuchte:Windchill:Wind:
Aussen-T/F 1726 11-01-2005 08:48:01 6.7 C 6.15 g/m*3 6.7 C 0 km/h
1727 11-01-2005 09:00:01 6.7 C 6.15 g/m*3 6.7 C 0 km/h
1728 11-01-2005 09:12:02 6.6 C 6.11 g/m*3 6.6 C 0 km/h
1729 11-01-2005 09:24:01 6.6 C 6.19 g/m*3 6.6 C 0 km/h
1730 11-01-2005 09:36:01 6.7 C 6.23 g/m*3 6.7 C 0 km/h
1731 11-01-2005 09:48:02 6.9 C 6.39 g/m*3 6.9 C 0 km/h
1732 11-01-2005 10:00:02 7.1 C 6.24 g/m*3 7.1 C 0 km/h
1733 11-01-2005 10:12:03 7.3 C 6.24 g/m*3 7.3 C 0 km/h
1734 11-01-2005 10:24:02 7.8 C 6.37 g/m*3 7.8 C 0 km/h
1735 11-01-2005 10:36:02 8 C 6.2 g/m*3 8 C 0 km/h
1736 11-01-2005 10:48:01 8.4 C 6.19 g/m*3 8.4 C 0 km/h
1737 11-01-2005 11:00:01 8.6 C 6.1 g/m*3 8.6 C 0 km/h
1738 11-01-2005 11:12:02 8.5 C 6.06 g/m*3 8.5 C 0 km/h
1739 11-01-2005 11:24:02 9.1 C 6.03 g/m*3 9.1 C 0 km/h
1740 11-01-2005 11:36:01 9.6 C 6.14 g/m*3 9.6 C 0 km/h
1741 11-01-2005 11:48:01 9.7 C 6.08 g/m*3 9.7 C 0 km/h
1742 11-01-2005 12:00:01 9.4 C 6.06 g/m*3 9.4 C 0 km/h
1743 11-01-2005 12:12:01 9.6 C 6.14 g/m*3 9.6 C 0 km/h
1744 11-01-2005 12:24:02 9.8 C 6.12 g/m*3 9.8 C 0 km/h
1745 11-01-2005 12:36:01 10 C 6.01 g/m*3 10 C 0 km/h
1746 11-01-2005 12:48:01 10.3 C 6.03 g/m*3 10.3 C 0 km/h
1747 11-01-2005 13:00:01 10.4 C 6.07 g/m*3 10.4 C 0 km/h
1748 11-01-2005 13:12:01 10.4 C 6.07 g/m*3 10.4 C 0 km/h
1749 11-01-2005 13:24:02 10.4 C 5.98 g/m*3 10.4 C 0 km/h
1750 11-01-2005 13:36:01 10.4 C 6.07 g/m*3 10.4 C 0 km/h
Sensor: Nr:Datum:Temp:Abs-Feuchte:Windchill:Wind:
Aussen-T/F 1751 11-01-2005 13:48:01 10.7 C 6.09 g/m*3 10.7 C 0 km/h
1752 11-01-2005 14:00:01 10.8 C 6.13 g/m*3 10.8 C 0 km/h
1753 11-01-2005 14:12:01 10.6 C 6.05 g/m*3 10.6 C 0 km/h
1754 11-01-2005 14:24:02 10.6 C 6.05 g/m*3 10.6 C 0 km/h
1755 11-01-2005 14:36:01 10.6 C 6.05 g/m*3 10.6 C 0 km/h
1756 11-01-2005 14:48:02 10.8 C 6.13 g/m*3 10.8 C 0 km/h
1757 11-01-2005 15:00:02 10.7 C 5.99 g/m*3 10.7 C 0 km/h
1758 11-01-2005 15:12:02 10.6 C 5.95 g/m*3 10.6 C 0 km/h
1759 11-01-2005 15:24:02 10.5 C 5.92 g/m*3 10.5 C 0 km/h
1760 11-01-2005 15:36:02 10.4 C 5.88 g/m*3 10.4 C 0 km/h
1761 11-01-2005 15:48:01 10.4 C 5.88 g/m*3 10.4 C 0 km/h
1762 11-01-2005 16:00:01 10.1 C 5.77 g/m*3 10.1 C 0 km/h
1763 11-01-2005 16:12:02 10.2 C 5.9 g/m*3 10.2 C 0 km/h
1764 11-01-2005 16:24:02 10 C 5.83 g/m*3 10 C 0 km/h
1765 11-01-2005 16:36:02 9.6 C 5.86 g/m*3 9.6 C 0 km/h
1766 11-01-2005 16:48:01 9.5 C 5.83 g/m*3 9.5 C 0 km/h
1767 11-01-2005 17:00:01 9.5 C 5.73 g/m*3 9.5 C 0 km/h
1768 11-01-2005 17:12:02 9.3 C 5.75 g/m*3 9.3 C 0 km/h
1769 11-01-2005 17:24:02 9.1 C 5.77 g/m*3 9.1 C 0 km/h
1770 11-01-2005 17:36:01 9.1 C 5.86 g/m*3 9.1 C 0 km/h
1771 11-01-2005 17:48:02 9.1 C 5.86 g/m*3 9.1 C 0 km/h
1772 11-01-2005 18:00:02 9.3 C 5.93 g/m*3 9.3 C 0 km/h
1773 11-01-2005 18:12:02 9.5 C 6.01 g/m*3 9.5 C 0 km/h
1774 11-01-2005 18:24:02 9.6 C 6.05 g/m*3 9.6 C 0 km/h
1775 11-01-2005 18:36:02 9.6 C 6.05 g/m*3 9.6 C 0 km/h
Sensor: Nr:Datum:Temp:Abs-Feuchte:Windchill:Wind:
Aussen-T/F 1776 11-01-2005 18:48:02 9.6 C 6.05 g/m*3 9.6 C 0 km/h
1777 11-01-2005 19:00:02 9.7 C 6.08 g/m*3 9.7 C 0 km/h
1778 11-01-2005 19:12:02 9.7 C 6.08 g/m*3 9.7 C 0 km/h
1779 11-01-2005 19:24:03 9.6 C 6.05 g/m*3 9.6 C 0 km/h
1780 11-01-2005 19:36:02 9.6 C 6.14 g/m*3 9.6 C 0 km/h
1781 11-01-2005 19:48:02 9.6 C 6.14 g/m*3 9.6 C 0 km/h
1782 11-01-2005 20:00:02 9.6 C 6.14 g/m*3 9.6 C 0 km/h
1783 11-01-2005 20:12:02 9.5 C 6.1 g/m*3 9.5 C 0 km/h
1784 11-01-2005 20:24:03 9.6 C 6.14 g/m*3 9.6 C 0 km/h
1785 11-01-2005 20:36:02 9.6 C 6.14 g/m*3 9.6 C 0 km/h
1786 11-01-2005 20:48:02 9.4 C 6.06 g/m*3 9.4 C 0 km/h
1787 11-01-2005 21:00:02 9.3 C 6.02 g/m*3 9.3 C 0 km/h
1788 11-01-2005 21:12:02 9.5 C 6.1 g/m*3 9.5 C 0 km/h
1789 11-01-2005 21:24:02 9.7 C 5.99 g/m*3 9.7 C 0 km/h
1790 11-01-2005 21:36:02 9.8 C 5.94 g/m*3 9.8 C 0 km/h
1791 11-01-2005 21:48:02 9.8 C 5.85 g/m*3 9.8 C 0 km/h
1792 11-01-2005 22:00:02 9.8 C 5.85 g/m*3 9.8 C 0 km/h
1793 11-01-2005 22:12:02 10.1 C 5.77 g/m*3 10.1 C 0 km/h
1794 11-01-2005 22:24:02 9.8 C 5.94 g/m*3 9.8 C 0 km/h
1795 11-01-2005 22:36:02 10.1 C 5.77 g/m*3 10.1 C 0 km/h
1796 11-01-2005 22:48:02 10.3 C 5.75 g/m*3 10.3 C 0 km/h
1797 11-01-2005 23:00:02 10.3 C 5.75 g/m*3 10.3 C 0 km/h
1798 11-01-2005 23:12:02 10.4 C 5.78 g/m*3 10.4 C 0 km/h
1799 11-01-2005 23:24:02 10.4 C 5.88 g/m*3 10.4 C 0 km/h
1800 11-01-2005 23:36:02 10.4 C 5.88 g/m*3 10.4 C 0 km/h
Sensor: Nr:Datum:Temp:Abs-Feuchte:Windchill:Wind:
Aussen-T/F 1801 11-01-2005 23:48:02 10.3 C 5.94 g/m*3 10.3 C 0 km/h
1802 12-01-2005 00:00:02 10.3 C 6.03 g/m*3 10.3 C 0 km/h
1803 12-01-2005 00:12:03 10.2 C 6 g/m*3 10.2 C 0 km/h
1804 12-01-2005 00:24:03 10.2 C 6.09 g/m*3 10.2 C 0 km/h
1805 12-01-2005 00:36:02 10.2 C 6.09 g/m*3 10.2 C 0 km/h
1806 12-01-2005 00:48:02 10.3 C 6.13 g/m*3 10.3 C 0 km/h
1807 12-01-2005 01:00:02 10.2 C 6.09 g/m*3 10.2 C 0 km/h
1808 12-01-2005 01:12:02 10.2 C 6.09 g/m*3 10.2 C 0 km/h
1809 12-01-2005 01:24:02 10.2 C 6.19 g/m*3 10.2 C 0 km/h
1810 12-01-2005 01:36:02 10.2 C 6.19 g/m*3 10.2 C 0 km/h
1811 12-01-2005 01:48:02 10.3 C 6.22 g/m*3 10.3 C 0 km/h
1812 12-01-2005 02:00:02 10.4 C 6.26 g/m*3 10.4 C 0 km/h
1813 12-01-2005 02:12:02 10.5 C 6.21 g/m*3 10.5 C 0 km/h
1814 12-01-2005 02:24:02 10.4 C 6.26 g/m*3 10.4 C 0 km/h
1815 12-01-2005 02:36:02 10.4 C 6.26 g/m*3 10.4 C 0 km/h
1816 12-01-2005 02:48:02 10.4 C 6.26 g/m*3 10.4 C 0 km/h
1817 12-01-2005 03:00:02 10.5 C 6.3 g/m*3 10.5 C 0 km/h
1818 12-01-2005 03:12:02 10.6 C 6.25 g/m*3 10.6 C 0 km/h
1819 12-01-2005 03:24:02 10.6 C 6.34 g/m*3 10.6 C 0 km/h
1820 12-01-2005 03:36:01 10.7 C 6.38 g/m*3 10.7 C 0 km/h
1821 12-01-2005 03:48:01 10.6 C 6.34 g/m*3 10.6 C 0 km/h
1822 12-01-2005 04:00:01 10.7 C 6.38 g/m*3 10.7 C 0 km/h
1823 12-01-2005 04:12:01 10.7 C 6.38 g/m*3 10.7 C 0 km/h
1824 12-01-2005 04:24:02 10.7 C 6.38 g/m*3 10.7 C 0 km/h
1825 12-01-2005 04:36:02 10.6 C 6.34 g/m*3 10.6 C 0 km/h
Sensor: Nr:Datum:Temp:Abs-Feuchte:Windchill:Wind:
Aussen-T/F 1826 12-01-2005 04:48:02 10.6 C 6.34 g/m*3 10.6 C 0 km/h
1827 12-01-2005 05:00:02 10.6 C 6.44 g/m*3 10.6 C 0 km/h
1828 12-01-2005 05:12:02 10.6 C 6.34 g/m*3 10.6 C 0 km/h
1829 12-01-2005 05:24:01 10.7 C 6.38 g/m*3 10.7 C 0 km/h
1830 12-01-2005 05:36:02 10.5 C 6.3 g/m*3 10.5 C 0 km/h
1831 12-01-2005 05:48:01 10.5 C 6.4 g/m*3 10.5 C 0 km/h
1832 12-01-2005 06:00:01 10.4 C 6.46 g/m*3 10.4 C 0 km/h
1833 12-01-2005 06:12:01 10.5 C 6.4 g/m*3 10.5 C 0 km/h
1834 12-01-2005 06:24:01 10.5 C 6.4 g/m*3 10.5 C 0 km/h
1835 12-01-2005 06:36:02 10.6 C 6.44 g/m*3 10.6 C 0 km/h
1836 12-01-2005 06:48:02 10.5 C 6.5 g/m*3 10.5 C 0 km/h
1837 12-01-2005 07:00:02 10.4 C 6.46 g/m*3 10.4 C 0 km/h
1838 12-01-2005 07:12:01 10.4 C 6.46 g/m*3 10.4 C 0 km/h
1839 12-01-2005 07:24:01 10.4 C 6.46 g/m*3 10.4 C 0 km/h
1840 12-01-2005 07:36:02 10.3 C 6.42 g/m*3 10.3 C 0 km/h
1841 12-01-2005 07:48:01 10.2 C 6.47 g/m*3 10.2 C 0 km/h
1842 12-01-2005 08:00:01 10.2 C 6.47 g/m*3 10.2 C 0 km/h
1843 12-01-2005 08:12:02 10.2 C 6.47 g/m*3 10.2 C 0 km/h
1844 12-01-2005 08:24:01 10.1 C 6.52 g/m*3 10.1 C 0 km/h
1845 12-01-2005 08:36:02 10 C 6.58 g/m*3 10 C 0 km/h
1846 12-01-2005 08:48:01 10 C 6.58 g/m*3 10 C 0 km/h
1847 12-01-2005 09:00:01 10 C 6.67 g/m*3 10 C 0 km/h
1848 12-01-2005 09:12:01 10 C 6.67 g/m*3 10 C 0 km/h
1849 12-01-2005 09:24:01 10 C 6.67 g/m*3 10 C 0 km/h
1850 12-01-2005 09:36:01 10.1 C 6.62 g/m*3 10.1 C 0 km/h
Sensor: Nr:Datum:Temp:Abs-Feuchte:Windchill:Wind:
Aussen-T/F 1851 12-01-2005 09:48:01 10 C 6.58 g/m*3 10 C 0 km/h
1852 12-01-2005 10:00:01 10 C 6.67 g/m*3 10 C 0 km/h
1853 12-01-2005 10:12:01 10.1 C 6.62 g/m*3 10.1 C 0 km/h
1854 12-01-2005 10:24:01 10.2 C 6.66 g/m*3 10.2 C 0 km/h
1855 12-01-2005 10:36:02 10.2 C 6.66 g/m*3 10.2 C 0 km/h
1856 12-01-2005 10:48:02 10.2 C 6.76 g/m*3 10.2 C 0 km/h
1857 12-01-2005 11:00:02 10 C 6.86 g/m*3 10 C 0 km/h
1858 12-01-2005 11:12:01 9.7 C 7.1 g/m*3 9.7 C 0 km/h
1859 12-01-2005 11:24:01 9.2 C 7.14 g/m*3 9.2 C 0 km/h
1860 12-01-2005 11:36:02 8.4 C 6.53 g/m*3 8.4 C 0 km/h
1861 12-01-2005 11:48:02 8.1 C 6.57 g/m*3 8.1 C 0 km/h
1862 12-01-2005 12:00:02 8.1 C 6.74 g/m*3 8.1 C 0 km/h
1863 12-01-2005 12:12:02 8.2 C 6.87 g/m*3 8.2 C 0 km/h
1864 12-01-2005 12:24:02 8.2 C 6.78 g/m*3 8.2 C 0 km/h
1865 12-01-2005 12:36:02 8.4 C 6.79 g/m*3 8.4 C 0 km/h
1866 12-01-2005 12:48:01 8.4 C 6.7 g/m*3 8.4 C 0 km/h
1867 12-01-2005 13:00:01 8.6 C 6.79 g/m*3 8.6 C 0 km/h
1868 12-01-2005 13:12:01 8.8 C 6.7 g/m*3 8.8 C 0 km/h
1869 12-01-2005 13:24:02 9 C 6.52 g/m*3 9 C 0 km/h
1870 12-01-2005 13:36:01 9.1 C 6.57 g/m*3 9.1 C 0 km/h
1871 12-01-2005 13:48:01 9.2 C 6.43 g/m*3 9.2 C 0 km/h
1872 12-01-2005 14:00:01 9.3 C 6.38 g/m*3 9.3 C 0 km/h
1873 12-01-2005 14:12:01 9.3 C 6.2 g/m*3 9.3 C 0 km/h
1874 12-01-2005 14:24:02 9.3 C 6.2 g/m*3 9.3 C 0 km/h
1875 12-01-2005 14:36:02 9.4 C 6.24 g/m*3 9.4 C 0 km/h
Sensor: Nr:Datum:Temp:Abs-Feuchte:Windchill:Wind:
Aussen-T/F 1876 12-01-2005 14:48:01 9.4 C 6.06 g/m*3 9.4 C 0 km/h
1877 12-01-2005 15:00:01 9.2 C 5.89 g/m*3 9.2 C 0 km/h
1878 12-01-2005 15:12:01 9.2 C 5.89 g/m*3 9.2 C 0 km/h
1879 12-01-2005 15:24:01 9 C 5.91 g/m*3 9 C 0 km/h
1880 12-01-2005 15:36:01 8.9 C 6.04 g/m*3 8.9 C 0 km/h
1881 12-01-2005 15:48:02 8.8 C 6.01 g/m*3 8.8 C 0 km/h
1882 12-01-2005 16:00:02 8.7 C 6.05 g/m*3 8.7 C 0 km/h
1883 12-01-2005 16:12:02 8.6 C 6.02 g/m*3 8.6 C 0 km/h
1884 12-01-2005 16:24:02 8.5 C 5.98 g/m*3 8.5 C 0 km/h
1885 12-01-2005 16:36:02 8.5 C 5.98 g/m*3 8.5 C 0 km/h
1886 12-01-2005 16:48:01 8.6 C 5.93 g/m*3 8.6 C 0 km/h
1887 12-01-2005 17:00:01 8.4 C 5.85 g/m*3 8.4 C 0 km/h
1888 12-01-2005 17:12:02 8.3 C 5.9 g/m*3 8.3 C 0 km/h
1889 12-01-2005 17:24:01 8.4 C 5.77 g/m*3 8.4 C 0 km/h
1890 12-01-2005 17:36:01 8.3 C 5.82 g/m*3 8.3 C 0 km/h
1891 12-01-2005 17:48:02 7.8 C 5.88 g/m*3 7.8 C 0 km/h
1892 12-01-2005 18:00:02 7.3 C 5.77 g/m*3 7.3 C 0 km/h
1893 12-01-2005 18:12:02 7.1 C 5.85 g/m*3 7.1 C 0 km/h
1894 12-01-2005 18:24:02 7 C 5.89 g/m*3 7 C 0 km/h
1895 12-01-2005 18:36:02 6.8 C 5.89 g/m*3 6.8 C 0 km/h
1896 12-01-2005 18:48:01 6.5 C 5.85 g/m*3 6.5 C 0 km/h
1897 12-01-2005 19:00:01 6.7 C 5.93 g/m*3 6.7 C 0 km/h
1898 12-01-2005 19:12:01 6.5 C 5.77 g/m*3 6.5 C 0 km/h
1899 12-01-2005 19:24:01 6.4 C 5.81 g/m*3 6.4 C 0 km/h
1900 12-01-2005 19:36:01 6.2 C 5.74 g/m*3 6.2 C 0 km/h
Sensor: Nr:Datum:Temp:Abs-Feuchte:Windchill:Wind:
Aussen-T/F 1901 12-01-2005 19:48:02 6.2 C 5.74 g/m*3 6.2 C 0 km/h
1902 12-01-2005 20:00:02 5.9 C 5.77 g/m*3 5.9 C 0 km/h
1903 12-01-2005 20:12:01 6 C 5.73 g/m*3 6 C 0 km/h
1904 12-01-2005 20:24:01 5.9 C 5.77 g/m*3 5.9 C 0 km/h
1905 12-01-2005 20:36:02 6.2 C 5.74 g/m*3 6.2 C 0 km/h
1906 12-01-2005 20:48:02 6 C 5.59 g/m*3 6 C 0 km/h
1907 12-01-2005 21:00:02 5.7 C 5.62 g/m*3 5.7 C 0 km/h
1908 12-01-2005 21:12:01 5.7 C 5.69 g/m*3 5.7 C 0 km/h
1909 12-01-2005 21:24:01 5.6 C 5.59 g/m*3 5.6 C 0 km/h
1910 12-01-2005 21:36:01 5.5 C 5.55 g/m*3 5.5 C 0 km/h
1911 12-01-2005 21:48:01 5.3 C 5.41 g/m*3 5.3 C 0 km/h
1912 12-01-2005 22:00:01 5.2 C 5.44 g/m*3 5.2 C 0 km/h
1913 12-01-2005 22:12:02 4.9 C 5.4 g/m*3 4.9 C 0 km/h
1914 12-01-2005 22:24:02 5 C 5.37 g/m*3 5 C 0 km/h
1915 12-01-2005 22:36:01 4.8 C 5.36 g/m*3 4.8 C 0 km/h
1916 12-01-2005 22:48:01 4.7 C 5.2 g/m*3 4.7 C 0 km/h
1917 12-01-2005 23:00:01 4.2 C 5.09 g/m*3 4.2 C 0 km/h
1918 12-01-2005 23:12:01 4.1 C 5.12 g/m*3 4.1 C 0 km/h
1919 12-01-2005 23:24:01 3.8 C 5.08 g/m*3 3.8 C 0 km/h
1920 12-01-2005 23:36:02 3.7 C 5.11 g/m*3 3.7 C 0 km/h
1921 12-01-2005 23:48:02 3.7 C 5.11 g/m*3 3.7 C 0 km/h
1922 13-01-2005 00:00:02 3.7 C 5.17 g/m*3 3.7 C 0 km/h
1923 13-01-2005 00:12:01 3.6 C 5.14 g/m*3 3.6 C 0 km/h
1924 13-01-2005 00:24:03 3.6 C 5.14 g/m*3 3.6 C 0 km/h
1925 13-01-2005 00:36:02 3.4 C 5.01 g/m*3 3.4 C 0 km/h
Sensor: Nr:Datum:Temp:Abs-Feuchte:Windchill:Wind:
Aussen-T/F 1926 13-01-2005 00:48:01 3.3 C 5.04 g/m*3 3.3 C 0 km/h
1927 13-01-2005 01:00:01 3.2 C 4.94 g/m*3 3.2 C 0 km/h
1928 13-01-2005 01:12:02 3.1 C 4.97 g/m*3 3.1 C 0 km/h
1929 13-01-2005 01:24:02 2.9 C 4.9 g/m*3 2.9 C 0 km/h
1930 13-01-2005 01:36:02 2.8 C 4.93 g/m*3 2.8 C 0 km/h
1931 13-01-2005 01:48:02 2.9 C 4.96 g/m*3 2.9 C 0 km/h
1932 13-01-2005 02:00:02 3 C 4.99 g/m*3 3 C 0 km/h
1933 13-01-2005 02:12:01 2.9 C 5.02 g/m*3 2.9 C 0 km/h
1934 13-01-2005 02:24:02 3.1 C 5.03 g/m*3 3.1 C 0 km/h
1935 13-01-2005 02:36:01 3.3 C 5.1 g/m*3 3.3 C 0 km/h
1936 13-01-2005 02:49:05 3.4 C 5.13 g/m*3 3.4 C 0 km/h
1937 13-01-2005 03:01:05 3.7 C 5.23 g/m*3 3.7 C 0 km/h
1938 13-01-2005 03:13:05 3.8 C 5.14 g/m*3 3.8 C 0 km/h
1939 13-01-2005 03:25:05 4.2 C 5.03 g/m*3 4.2 C 0 km/h
1940 13-01-2005 03:37:03 4.1 C 4.93 g/m*3 4.1 C 0 km/h
1941 13-01-2005 03:49:03 3.8 C 4.96 g/m*3 3.8 C 0 km/h
1942 13-01-2005 04:01:02 3.6 C 4.95 g/m*3 3.6 C 0 km/h
1943 13-01-2005 04:13:02 3.6 C 4.95 g/m*3 3.6 C 0 km/h
1944 13-01-2005 04:25:03 3.5 C 4.92 g/m*3 3.5 C 0 km/h
1945 13-01-2005 04:37:02 3.3 C 4.85 g/m*3 3.3 C 0 km/h
1946 13-01-2005 04:49:02 3.3 C 4.91 g/m*3 3.3 C 0 km/h
1947 13-01-2005 05:01:01 3.3 C 4.85 g/m*3 3.3 C 0 km/h
1948 13-01-2005 05:13:01 3.3 C 4.85 g/m*3 3.3 C 0 km/h
1949 13-01-2005 05:25:02 3.2 C 4.82 g/m*3 3.2 C 0 km/h
1950 13-01-2005 05:37:02 3 C 4.82 g/m*3 3 C 0 km/h
Sensor: Nr:Datum:Temp:Abs-Feuchte:Windchill:Wind:
Aussen-T/F 1951 13-01-2005 05:49:02 3 C 4.88 g/m*3 3 C 0 km/h
1952 13-01-2005 06:01:02 3.2 C 4.88 g/m*3 3.2 C 0 km/h
1953 13-01-2005 06:13:02 3 C 4.76 g/m*3 3 C 0 km/h
1954 13-01-2005 06:25:02 2.7 C 4.72 g/m*3 2.7 C 0 km/h
1955 13-01-2005 06:37:02 3.1 C 4.85 g/m*3 3.1 C 0 km/h
1956 13-01-2005 06:49:01 3.3 C 4.73 g/m*3 3.3 C 0 km/h
1957 13-01-2005 07:01:02 3.1 C 4.67 g/m*3 3.1 C 0 km/h
1958 13-01-2005 07:13:02 3 C 4.7 g/m*3 3 C 0 km/h
1959 13-01-2005 07:25:02 3.1 C 4.73 g/m*3 3.1 C 0 km/h
1960 13-01-2005 07:37:02 3.5 C 4.8 g/m*3 3.5 C 0 km/h
1961 13-01-2005 07:49:02 3.3 C 4.67 g/m*3 3.3 C 0 km/h
1962 13-01-2005 08:01:03 2.8 C 4.63 g/m*3 2.8 C 0 km/h
1963 13-01-2005 08:13:03 2.7 C 4.66 g/m*3 2.7 C 0 km/h
1964 13-01-2005 08:25:03 2.7 C 4.66 g/m*3 2.7 C 0 km/h
1965 13-01-2005 08:37:02 2.6 C 4.63 g/m*3 2.6 C 0 km/h
1966 13-01-2005 08:49:01 2.4 C 4.62 g/m*3 2.4 C 0 km/h
1967 13-01-2005 09:01:02 2.3 C 4.59 g/m*3 2.3 C 0 km/h
1968 13-01-2005 09:13:02 2.7 C 4.72 g/m*3 2.7 C 0 km/h
1969 13-01-2005 09:25:02 3 C 4.7 g/m*3 3 C 0 km/h
1970 13-01-2005 09:37:02 3 C 4.64 g/m*3 3 C 0 km/h
1971 13-01-2005 09:49:01 3.2 C 4.7 g/m*3 3.2 C 0 km/h
1972 13-01-2005 10:01:01 3.5 C 4.73 g/m*3 3.5 C 0 km/h
1973 13-01-2005 10:13:01 3.4 C 4.64 g/m*3 3.4 C 0 km/h
1974 13-01-2005 10:25:02 3.5 C 4.67 g/m*3 3.5 C 0 km/h
1975 13-01-2005 10:37:01 3.7 C 4.74 g/m*3 3.7 C 0 km/h
Sensor: Nr:Datum:Temp:Abs-Feuchte:Windchill:Wind:
Aussen-T/F 1976 13-01-2005 10:49:01 3.8 C 4.71 g/m*3 3.8 C 0 km/h
1977 13-01-2005 11:01:02 4.1 C 4.67 g/m*3 4.1 C 0 km/h
1978 13-01-2005 11:13:02 4.3 C 4.61 g/m*3 4.3 C 0 km/h
1979 13-01-2005 11:25:02 5 C 4.48 g/m*3 5 C 0 km/h
1980 13-01-2005 11:37:01 5.5 C 4.49 g/m*3 5.5 C 0 km/h
1981 13-01-2005 11:49:01 5.8 C 4.44 g/m*3 5.8 C 0 km/h
1982 13-01-2005 12:01:01 5.8 C 4.3 g/m*3 5.8 C 0 km/h
1983 13-01-2005 12:13:01 6.3 C 4.15 g/m*3 6.3 C 0 km/h
1984 13-01-2005 12:25:02 6.5 C 3.97 g/m*3 6.5 C 0 km/h
1985 13-01-2005 12:37:01 6.5 C 3.82 g/m*3 6.5 C 0 km/h
1986 13-01-2005 12:49:02 6.3 C 3.78 g/m*3 6.3 C 0 km/h
1987 13-01-2005 13:01:02 6.4 C 3.8 g/m*3 6.4 C 0 km/h
1988 13-01-2005 13:13:02 6.5 C 3.82 g/m*3 6.5 C 0 km/h
1989 13-01-2005 13:25:03 6.4 C 3.8 g/m*3 6.4 C 0 km/h
1990 13-01-2005 13:37:03 6.7 C 3.88 g/m*3 6.7 C 0 km/h
1991 13-01-2005 13:49:02 7.1 C 3.67 g/m*3 7.1 C 0 km/h
1992 13-01-2005 14:01:02 7.1 C 3.59 g/m*3 7.1 C 0 km/h
1993 13-01-2005 14:13:02 7.1 C 3.51 g/m*3 7.1 C 0 km/h
1994 13-01-2005 14:25:02 6.8 C 3.59 g/m*3 6.8 C 0 km/h
1995 13-01-2005 14:37:02 6.7 C 3.57 g/m*3 6.7 C 0 km/h
1996 13-01-2005 14:49:01 6.5 C 3.6 g/m*3 6.5 C 0 km/h
1997 13-01-2005 15:01:01 6.3 C 3.63 g/m*3 6.3 C 0 km/h
1998 13-01-2005 15:13:01 6.4 C 3.65 g/m*3 6.4 C 0 km/h
1999 13-01-2005 15:25:02 6.8 C 3.75 g/m*3 6.8 C 0 km/h
2000 13-01-2005 15:37:02 7 C 3.49 g/m*3 7 C 0 km/h
Sensor: Nr:Datum:Temp:Abs-Feuchte:Windchill:Wind:
Aussen-T/F 2001 13-01-2005 15:49:02 6.8 C 3.44 g/m*3 6.8 C 0 km/h
2002 13-01-2005 16:01:02 6.6 C 3.47 g/m*3 6.6 C 0 km/h
2003 13-01-2005 16:13:02 6.7 C 3.5 g/m*3 6.7 C 0 km/h
2004 13-01-2005 16:25:02 6.4 C 3.5 g/m*3 6.4 C 0 km/h
2005 13-01-2005 16:37:02 6.3 C 3.55 g/m*3 6.3 C 0 km/h
2006 13-01-2005 16:49:01 5.8 C 3.58 g/m*3 5.8 C 0 km/h
2007 13-01-2005 17:01:02 5.4 C 3.56 g/m*3 5.4 C 0 km/h
2008 13-01-2005 17:13:02 5 C 3.6 g/m*3 5 C 0 km/h
2009 13-01-2005 17:25:02 4.8 C 3.76 g/m*3 4.8 C 0 km/h
2010 13-01-2005 17:37:01 4.8 C 3.76 g/m*3 4.8 C 0 km/h
2011 13-01-2005 17:49:01 5.2 C 3.72 g/m*3 5.2 C 0 km/h
2012 13-01-2005 18:01:01 5.1 C 3.63 g/m*3 5.1 C 0 km/h
2013 13-01-2005 18:13:01 4.8 C 3.69 g/m*3 4.8 C 0 km/h
2014 13-01-2005 18:25:01 4.8 C 3.76 g/m*3 4.8 C 0 km/h
2015 13-01-2005 18:37:01 4.7 C 3.73 g/m*3 4.7 C 0 km/h
2016 13-01-2005 18:49:15 4.3 C 3.7 g/m*3 4.3 C 0 km/h
2017 13-01-2005 19:01:02 4.2 C 3.74 g/m*3 4.2 C 0 km/h
2018 13-01-2005 19:13:02 4 C 3.75 g/m*3 4 C 0 km/h
2019 13-01-2005 19:25:02 3.8 C 3.76 g/m*3 3.8 C 0 km/h
2020 13-01-2005 19:37:02 3.9 C 3.79 g/m*3 3.9 C 0 km/h
2021 13-01-2005 19:49:02 4.1 C 3.78 g/m*3 4.1 C 0 km/h
2022 13-01-2005 20:01:02 4.1 C 3.71 g/m*3 4.1 C 0 km/h
2023 13-01-2005 20:13:03 3.9 C 3.79 g/m*3 3.9 C 0 km/h
2024 13-01-2005 20:25:02 3.7 C 3.8 g/m*3 3.7 C 0 km/h
2025 13-01-2005 20:37:02 3.7 C 3.8 g/m*3 3.7 C 0 km/h
Sensor: Nr:Datum:Temp:Abs-Feuchte:Windchill:Wind:
Aussen-T/F 2026 13-01-2005 20:49:01 3.7 C 3.8 g/m*3 3.7 C 0 km/h
2027 13-01-2005 21:01:01 3.6 C 3.84 g/m*3 3.6 C 0 km/h
2028 13-01-2005 21:13:01 3.5 C 3.87 g/m*3 3.5 C 0 km/h
2029 13-01-2005 21:25:01 3.7 C 3.86 g/m*3 3.7 C 0 km/h
2030 13-01-2005 21:37:01 3.6 C 3.9 g/m*3 3.6 C 0 km/h
2031 13-01-2005 21:49:01 3.3 C 3.88 g/m*3 3.3 C 0 km/h
2032 13-01-2005 22:01:02 3.3 C 3.94 g/m*3 3.3 C 0 km/h
2033 13-01-2005 22:13:02 3.6 C 3.96 g/m*3 3.6 C 0 km/h
2034 13-01-2005 22:25:02 3.4 C 3.91 g/m*3 3.4 C 0 km/h
2035 13-01-2005 22:37:01 3.1 C 3.95 g/m*3 3.1 C 0 km/h
2036 13-01-2005 22:49:01 3 C 3.92 g/m*3 3 C 0 km/h
2037 13-01-2005 23:01:02 3 C 3.92 g/m*3 3 C 0 km/h
2038 13-01-2005 23:13:03 3.1 C 3.95 g/m*3 3.1 C 0 km/h
2039 13-01-2005 23:25:02 3.1 C 3.95 g/m*3 3.1 C 0 km/h
2040 13-01-2005 23:37:02 3.2 C 3.98 g/m*3 3.2 C 0 km/h
2041 13-01-2005 23:49:01 3.4 C 3.97 g/m*3 3.4 C 0 km/h
2042 14-01-2005 00:01:01 3.1 C 3.95 g/m*3 3.1 C 0 km/h
2043 14-01-2005 00:13:01 3.1 C 3.95 g/m*3 3.1 C 0 km/h
2044 14-01-2005 00:25:02 3.1 C 3.95 g/m*3 3.1 C 0 km/h
2045 14-01-2005 00:37:01 2.8 C 3.99 g/m*3 2.8 C 0 km/h
2046 14-01-2005 00:49:02 2.8 C 3.99 g/m*3 2.8 C 0 km/h
2047 14-01-2005 01:01:02 2.5 C 3.97 g/m*3 2.5 C 0 km/h
2048 14-01-2005 01:13:02 2.5 C 4.02 g/m*3 2.5 C 0 km/h
2049 14-01-2005 01:25:02 2.6 C 4.05 g/m*3 2.6 C 0 km/h
2050 14-01-2005 01:37:01 2.4 C 4 g/m*3 2.4 C 0 km/h
Sensor: Nr:Datum:Temp:Abs-Feuchte:Windchill:Wind:
Aussen-T/F 2051 14-01-2005 01:49:02 2.1 C 3.97 g/m*3 2.1 C 0 km/h
2052 14-01-2005 02:01:02 2.1 C 3.97 g/m*3 2.1 C 0 km/h
2053 14-01-2005 02:13:02 2 C 4 g/m*3 2 C 0 km/h
2054 14-01-2005 02:25:02 1.8 C 4.06 g/m*3 1.8 C 0 km/h
2055 14-01-2005 02:37:02 1.7 C 4.08 g/m*3 1.7 C 0 km/h
2056 14-01-2005 02:49:02 1.9 C 4.14 g/m*3 1.9 C 0 km/h
2057 14-01-2005 03:01:02 2.1 C 4.08 g/m*3 2.1 C 0 km/h
2058 14-01-2005 03:13:02 2 C 4.06 g/m*3 2 C 0 km/h
2059 14-01-2005 03:25:02 2.1 C 4.08 g/m*3 2.1 C 0 km/h
2060 14-01-2005 03:37:01 1.9 C 4.08 g/m*3 1.9 C 0 km/h
2061 14-01-2005 03:49:01 1.9 C 4.14 g/m*3 1.9 C 0 km/h
2062 14-01-2005 04:01:02 2 C 4.11 g/m*3 2 C 0 km/h
2063 14-01-2005 04:13:02 1.9 C 4.14 g/m*3 1.9 C 0 km/h
2064 14-01-2005 04:25:02 2.1 C 4.14 g/m*3 2.1 C 0 km/h
2065 14-01-2005 04:37:01 2.2 C 4.17 g/m*3 2.2 C 0 km/h
2066 14-01-2005 04:49:02 2.2 C 4.11 g/m*3 2.2 C 0 km/h
2067 14-01-2005 05:01:02 2.1 C 4.14 g/m*3 2.1 C 0 km/h
2068 14-01-2005 05:13:02 2.1 C 4.08 g/m*3 2.1 C 0 km/h
2069 14-01-2005 05:25:02 2 C 4.11 g/m*3 2 C 0 km/h
2070 14-01-2005 05:37:01 2.1 C 4.08 g/m*3 2.1 C 0 km/h
2071 14-01-2005 05:49:02 2.1 C 4.08 g/m*3 2.1 C 0 km/h
2072 14-01-2005 06:01:01 2.1 C 4.08 g/m*3 2.1 C 0 km/h
2073 14-01-2005 06:13:01 2.1 C 4.08 g/m*3 2.1 C 0 km/h
2074 14-01-2005 06:25:01 2 C 4.06 g/m*3 2 C 0 km/h
2075 14-01-2005 06:37:02 1.7 C 4.08 g/m*3 1.7 C 0 km/h
Sensor: Nr:Datum:Temp:Abs-Feuchte:Windchill:Wind:
Aussen-T/F 2076 14-01-2005 06:49:02 1.5 C 4.08 g/m*3 1.5 C 0 km/h
2077 14-01-2005 07:01:01 1.5 C 4.14 g/m*3 1.5 C 0 km/h
2078 14-01-2005 07:13:01 1.4 C 4.11 g/m*3 1.4 C 0 km/h
2079 14-01-2005 07:25:01 1.5 C 4.14 g/m*3 1.5 C 0 km/h
2080 14-01-2005 07:37:02 1.2 C 4.1 g/m*3 1.2 C 0 km/h
2081 14-01-2005 07:49:01 0.9 C 4.12 g/m*3 0.9 C 0 km/h
2082 14-01-2005 08:01:02 0.7 C 4.07 g/m*3 0.7 C 0 km/h
2083 14-01-2005 08:13:02 0.7 C 4.12 g/m*3 0.7 C 0 km/h
2084 14-01-2005 08:25:02 0.8 C 4.15 g/m*3 0.8 C 0 km/h
2085 14-01-2005 08:37:01 0.7 C 4.12 g/m*3 0.7 C 0 km/h
2086 14-01-2005 08:49:01 0.9 C 4.23 g/m*3 0.9 C 0 km/h
2087 14-01-2005 09:01:02 0.8 C 4.15 g/m*3 0.8 C 0 km/h
2088 14-01-2005 09:13:02 0.8 C 4.2 g/m*3 0.8 C 0 km/h
2089 14-01-2005 09:25:01 0.9 C 4.23 g/m*3 0.9 C 0 km/h
2090 14-01-2005 09:37:01 1.1 C 4.23 g/m*3 1.1 C 0 km/h
2091 14-01-2005 09:49:01 1.2 C 4.21 g/m*3 1.2 C 0 km/h
2092 14-01-2005 10:01:02 1 C 4.15 g/m*3 1 C 0 km/h
2093 14-01-2005 10:13:02 0.9 C 4.23 g/m*3 0.9 C 0 km/h
2094 14-01-2005 10:25:02 1 C 4.26 g/m*3 1 C 0 km/h
2095 14-01-2005 10:37:02 1.5 C 4.4 g/m*3 1.5 C 0 km/h
2096 14-01-2005 10:49:01 1.8 C 4.39 g/m*3 1.8 C 0 km/h
2097 14-01-2005 11:01:02 2.1 C 4.31 g/m*3 2.1 C 0 km/h
2098 14-01-2005 11:13:02 2.3 C 4.31 g/m*3 2.3 C 0 km/h
2099 14-01-2005 11:25:02 2.3 C 4.25 g/m*3 2.3 C 0 km/h
2100 14-01-2005 11:37:01 2.2 C 4.28 g/m*3 2.2 C 0 km/h
Sensor: Nr:Datum:Temp:Abs-Feuchte:Windchill:Wind:
Aussen-T/F 2101 14-01-2005 11:49:01 2.6 C 4.46 g/m*3 2.6 C 0 km/h
2102 14-01-2005 12:01:02 3 C 4.4 g/m*3 3 C 0 km/h
2103 14-01-2005 12:13:02 3.2 C 4.34 g/m*3 3.2 C 0 km/h
2104 14-01-2005 12:25:02 3.2 C 4.34 g/m*3 3.2 C 0 km/h
2105 14-01-2005 12:37:01 3 C 4.28 g/m*3 3 C 0 km/h
2106 14-01-2005 12:49:01 3 C 4.34 g/m*3 3 C 0 km/h
2107 14-01-2005 13:01:02 2.9 C 4.37 g/m*3 2.9 C 0 km/h
2108 14-01-2005 13:13:02 3.2 C 4.4 g/m*3 3.2 C 0 km/h
2109 14-01-2005 13:25:01 3.4 C 4.34 g/m*3 3.4 C 0 km/h
2110 14-01-2005 13:37:02 3.4 C 4.28 g/m*3 3.4 C 0 km/h
2111 14-01-2005 13:49:01 3.5 C 4.3 g/m*3 3.5 C 0 km/h
2112 14-01-2005 14:01:01 3.5 C 4.3 g/m*3 3.5 C 0 km/h
2113 14-01-2005 14:13:01 3.6 C 4.33 g/m*3 3.6 C 0 km/h
2114 14-01-2005 14:25:01 3.3 C 4.31 g/m*3 3.3 C 0 km/h
2115 14-01-2005 14:37:01 3 C 4.28 g/m*3 3 C 0 km/h
2116 14-01-2005 14:49:02 2.8 C 4.34 g/m*3 2.8 C 0 km/h
2117 14-01-2005 15:01:01 2.7 C 4.37 g/m*3 2.7 C 0 km/h
2118 14-01-2005 15:13:01 2.6 C 4.34 g/m*3 2.6 C 0 km/h
2119 14-01-2005 15:25:02 2.5 C 4.37 g/m*3 2.5 C 0 km/h
2120 14-01-2005 15:37:02 2.4 C 4.34 g/m*3 2.4 C 0 km/h
2121 14-01-2005 15:49:01 2.2 C 4.34 g/m*3 2.2 C 0 km/h
2122 14-01-2005 16:01:02 2.1 C 4.31 g/m*3 2.1 C 0 km/h
2123 14-01-2005 16:13:02 1.9 C 4.36 g/m*3 1.9 C 0 km/h
2124 14-01-2005 16:25:01 1.7 C 4.3 g/m*3 1.7 C 0 km/h
2125 14-01-2005 16:37:01 1.5 C 4.3 g/m*3 1.5 C 0 km/h
Sensor: Nr:Datum:Temp:Abs-Feuchte:Windchill:Wind:
Aussen-T/F 2126 14-01-2005 16:49:01 1.3 C 4.29 g/m*3 1.3 C 0 km/h
2127 14-01-2005 17:01:01 1.1 C 4.23 g/m*3 1.1 C 0 km/h
2128 14-01-2005 17:13:01 1 C 4.26 g/m*3 1 C 0 km/h
2129 14-01-2005 17:25:01 0.8 C 4.25 g/m*3 0.8 C 0 km/h
2130 14-01-2005 17:37:02 0.9 C 4.33 g/m*3 0.9 C 0 km/h
2131 14-01-2005 17:49:01 1 C 4.31 g/m*3 1 C 0 km/h
2132 14-01-2005 18:01:01 1.1 C 4.34 g/m*3 1.1 C 0 km/h
2133 14-01-2005 18:13:01 1 C 4.31 g/m*3 1 C 0 km/h
2134 14-01-2005 18:25:01 0.8 C 4.25 g/m*3 0.8 C 0 km/h
2135 14-01-2005 18:37:02 0.5 C 4.16 g/m*3 0.5 C 0 km/h
2136 14-01-2005 18:49:02 0.3 C 4.11 g/m*3 0.3 C 0 km/h
2137 14-01-2005 19:01:02 0.4 C 4.18 g/m*3 0.4 C 0 km/h
2138 14-01-2005 19:13:02 0.4 C 4.18 g/m*3 0.4 C 0 km/h
2139 14-01-2005 19:25:02 0.7 C 4.27 g/m*3 0.7 C 0 km/h
2140 14-01-2005 19:37:01 0.9 C 4.33 g/m*3 0.9 C 0 km/h
2141 14-01-2005 19:49:02 1 C 4.26 g/m*3 1 C 0 km/h
2142 14-01-2005 20:01:02 1 C 4.26 g/m*3 1 C 0 km/h
2143 14-01-2005 20:13:02 1.1 C 4.23 g/m*3 1.1 C 0 km/h
2144 14-01-2005 20:25:02 1 C 4.26 g/m*3 1 C 0 km/h
2145 14-01-2005 20:37:02 1.1 C 4.29 g/m*3 1.1 C 0 km/h
2146 14-01-2005 20:49:01 1 C 4.26 g/m*3 1 C 0 km/h
2147 14-01-2005 21:01:02 1 C 4.26 g/m*3 1 C 0 km/h
2148 14-01-2005 21:13:02 0.9 C 4.28 g/m*3 0.9 C 0 km/h
2149 14-01-2005 21:25:02 0.9 C 4.33 g/m*3 0.9 C 0 km/h
2150 14-01-2005 21:37:01 0.9 C 4.33 g/m*3 0.9 C 0 km/h
Sensor: Nr:Datum:Temp:Abs-Feuchte:Windchill:Wind:
Aussen-T/F 2151 14-01-2005 21:49:01 0.7 C 4.27 g/m*3 0.7 C 0 km/h
2152 14-01-2005 22:01:02 0.5 C 4.21 g/m*3 0.5 C 0 km/h
2153 14-01-2005 22:13:02 0.5 C 4.26 g/m*3 0.5 C 0 km/h
2154 14-01-2005 22:25:01 0.4 C 4.23 g/m*3 0.4 C 0 km/h
2155 14-01-2005 22:37:02 0.2 C 4.18 g/m*3 0.2 C 0 km/h
2156 14-01-2005 22:49:02 0.2 C 4.22 g/m*3 0.2 C 0 km/h
2157 14-01-2005 23:01:02 0.2 C 4.22 g/m*3 0.2 C 0 km/h
2158 14-01-2005 23:13:02 0.3 C 4.25 g/m*3 0.3 C 0 km/h
2159 14-01-2005 23:25:02 0.3 C 4.25 g/m*3 0.3 C 0 km/h
2160 14-01-2005 23:37:01 0.3 C 4.25 g/m*3 0.3 C 0 km/h
2161 14-01-2005 23:49:01 0.4 C 4.28 g/m*3 0.4 C 0 km/h
2162 15-01-2005 00:01:01 0.4 C 4.28 g/m*3 0.4 C 0 km/h
2163 15-01-2005 00:13:01 0.5 C 4.31 g/m*3 0.5 C 0 km/h
2164 15-01-2005 00:25:02 0.7 C 4.37 g/m*3 0.7 C 0 km/h
2165 15-01-2005 00:37:01 0.6 C 4.34 g/m*3 0.6 C 0 km/h
2166 15-01-2005 00:49:02 0.7 C 4.37 g/m*3 0.7 C 0 km/h
2167 15-01-2005 01:01:02 0.7 C 4.37 g/m*3 0.7 C 0 km/h
2168 15-01-2005 01:13:02 0.6 C 4.29 g/m*3 0.6 C 0 km/h
2169 15-01-2005 01:25:02 0.4 C 4.18 g/m*3 0.4 C 0 km/h
2170 15-01-2005 01:37:02 0.5 C 4.26 g/m*3 0.5 C 0 km/h
2171 15-01-2005 01:49:01 0.5 C 4.21 g/m*3 0.5 C 0 km/h
2172 15-01-2005 02:01:01 0.3 C 4.11 g/m*3 0.3 C 0 km/h
2173 15-01-2005 02:13:01 0.2 C 4.08 g/m*3 0.2 C 0 km/h
2174 15-01-2005 02:25:02 0.1 C 4 g/m*3 0.1 C 0 km/h
2175 15-01-2005 02:37:02 0.1 C 4 g/m*3 0.1 C 0 km/h
Sensor: Nr:Datum:Temp:Abs-Feuchte:Windchill:Wind:
Aussen-T/F 2176 15-01-2005 02:50:05 0.2 C 4.03 g/m*3 0.2 C 0 km/h
2177 15-01-2005 03:02:05 0.2 C 4.03 g/m*3 0.2 C 0 km/h
2178 15-01-2005 03:14:05 0 C 4.02 g/m*3 0 C 0 km/h
2179 15-01-2005 03:26:05 0 C 4.02 g/m*3 0 C 0 km/h
2180 15-01-2005 03:38:03 0.1 C 4.05 g/m*3 0.1 C 0 km/h
2181 15-01-2005 03:50:04 0 C 4.02 g/m*3 0 C 0 km/h
2182 15-01-2005 04:02:02 0 C 3.97 g/m*3 0 C 0 km/h
2183 15-01-2005 04:14:02 -0.3 C 3.84 g/m*3 -0.3 C 0 km/h
2184 15-01-2005 04:26:02 -0.5 C 3.74 g/m*3 -0.5 C 0 km/h
2185 15-01-2005 04:38:03 -0.6 C 3.76 g/m*3 -0.6 C 0 km/h
2186 15-01-2005 04:50:02 -0.4 C 3.86 g/m*3 -0.4 C 0 km/h
2187 15-01-2005 05:02:02 -0.5 C 3.84 g/m*3 -0.5 C 0 km/h
2188 15-01-2005 05:14:03 -0.7 C 3.74 g/m*3 -0.7 C 0 km/h
2189 15-01-2005 05:26:02 -0.5 C 3.84 g/m*3 -0.5 C 0 km/h
2190 15-01-2005 05:38:02 -0.6 C 3.81 g/m*3 -0.6 C 0 km/h
2191 15-01-2005 05:50:02 -0.5 C 3.84 g/m*3 -0.5 C 0 km/h
2192 15-01-2005 06:02:02 -0.5 C 3.84 g/m*3 -0.5 C 0 km/h
2193 15-01-2005 06:14:02 -0.6 C 3.81 g/m*3 -0.6 C 0 km/h
2194 15-01-2005 06:26:02 -0.7 C 3.78 g/m*3 -0.7 C 0 km/h
2195 15-01-2005 06:38:02 -0.7 C 3.78 g/m*3 -0.7 C 0 km/h
2196 15-01-2005 06:50:02 -0.6 C 3.86 g/m*3 -0.6 C 0 km/h
2197 15-01-2005 07:02:02 -0.5 C 3.88 g/m*3 -0.5 C 0 km/h
2198 15-01-2005 07:14:02 -0.4 C 3.91 g/m*3 -0.4 C 0 km/h
2199 15-01-2005 07:26:02 -0.3 C 3.94 g/m*3 -0.3 C 0 km/h
2200 15-01-2005 07:38:02 -0.3 C 3.94 g/m*3 -0.3 C 0 km/h
Sensor: Nr:Datum:Temp:Abs-Feuchte:Windchill:Wind:
Aussen-T/F 2201 15-01-2005 07:50:02 -0.2 C 3.97 g/m*3 -0.2 C 0 km/h
2202 15-01-2005 08:02:02 -0.2 C 3.97 g/m*3 -0.2 C 0 km/h
2203 15-01-2005 08:14:02 -0.3 C 3.89 g/m*3 -0.3 C 0 km/h
2204 15-01-2005 08:26:02 -0.2 C 3.92 g/m*3 -0.2 C 0 km/h
2205 15-01-2005 08:38:03 -0.3 C 3.89 g/m*3 -0.3 C 0 km/h
2206 15-01-2005 08:50:02 -0.2 C 3.92 g/m*3 -0.2 C 0 km/h
2207 15-01-2005 09:02:02 0 C 3.97 g/m*3 0 C 0 km/h
2208 15-01-2005 09:14:02 0.1 C 4 g/m*3 0.1 C 0 km/h
2209 15-01-2005 09:26:02 0.2 C 4.03 g/m*3 0.2 C 0 km/h
2210 15-01-2005 09:38:02 0.3 C 4.01 g/m*3 0.3 C 0 km/h
2211 15-01-2005 09:50:01 0.4 C 3.98 g/m*3 0.4 C 0 km/h
2212 15-01-2005 10:02:02 0.5 C 3.96 g/m*3 0.5 C 0 km/h
2213 15-01-2005 10:14:02 0.5 C 3.91 g/m*3 0.5 C 0 km/h
2214 15-01-2005 10:26:01 0.2 C 3.83 g/m*3 0.2 C 0 km/h
2215 15-01-2005 10:38:01 0 C 3.83 g/m*3 0 C 0 km/h
2216 15-01-2005 10:50:02 -0.2 C 3.78 g/m*3 -0.2 C 0 km/h
2217 15-01-2005 11:02:02 -0.3 C 3.8 g/m*3 -0.3 C 0 km/h
2218 15-01-2005 11:14:02 -0.2 C 3.87 g/m*3 -0.2 C 0 km/h
2219 15-01-2005 11:26:02 -0.3 C 3.84 g/m*3 -0.3 C 0 km/h
2220 15-01-2005 11:38:01 -0.2 C 3.92 g/m*3 -0.2 C 0 km/h
2221 15-01-2005 11:50:02 -0.2 C 3.92 g/m*3 -0.2 C 0 km/h
2222 15-01-2005 12:02:02 0.1 C 4 g/m*3 0.1 C 0 km/h
2223 15-01-2005 12:14:02 0.6 C 4.14 g/m*3 0.6 C 0 km/h
2224 15-01-2005 12:26:02 0.8 C 4.15 g/m*3 0.8 C 0 km/h
2225 15-01-2005 12:38:02 1.1 C 4.13 g/m*3 1.1 C 0 km/h
Sensor: Nr:Datum:Temp:Abs-Feuchte:Windchill:Wind:
Aussen-T/F 2226 15-01-2005 12:50:02 1.4 C 4.16 g/m*3 1.4 C 0 km/h
2227 15-01-2005 13:02:02 2.1 C 4.2 g/m*3 2.1 C 0 km/h
2228 15-01-2005 13:14:02 2.5 C 4.2 g/m*3 2.5 C 0 km/h
2229 15-01-2005 13:26:02 2.7 C 4.14 g/m*3 2.7 C 0 km/h
2230 15-01-2005 13:38:02 2.7 C 4.14 g/m*3 2.7 C 0 km/h
2231 15-01-2005 13:50:02 3.1 C 4.19 g/m*3 3.1 C 0 km/h
2232 15-01-2005 14:02:02 3.4 C 4.15 g/m*3 3.4 C 0 km/h
2233 15-01-2005 14:14:02 3.7 C 4.18 g/m*3 3.7 C 0 km/h
2234 15-01-2005 14:26:03 3.8 C 4.2 g/m*3 3.8 C 0 km/h
2235 15-01-2005 14:38:02 2.6 C 4.05 g/m*3 2.6 C 0 km/h
2236 15-01-2005 14:50:02 2.2 C 4.11 g/m*3 2.2 C 0 km/h
2237 15-01-2005 15:02:02 1.8 C 4.17 g/m*3 1.8 C 0 km/h
2238 15-01-2005 15:14:02 1.7 C 4.19 g/m*3 1.7 C 0 km/h
2239 15-01-2005 15:26:02 1.6 C 4.22 g/m*3 1.6 C 0 km/h
2240 15-01-2005 15:38:03 1.5 C 4.24 g/m*3 1.5 C 0 km/h
2241 15-01-2005 15:50:03 1.4 C 4.27 g/m*3 1.4 C 0 km/h
2242 15-01-2005 16:02:03 1.4 C 4.27 g/m*3 1.4 C 0 km/h
2243 15-01-2005 16:14:03 1.2 C 4.21 g/m*3 1.2 C 0 km/h
2244 15-01-2005 16:26:03 1 C 4.15 g/m*3 1 C 0 km/h
2245 15-01-2005 16:38:02 0.8 C 4.1 g/m*3 0.8 C 0 km/h
2246 15-01-2005 16:50:02 0.6 C 4.04 g/m*3 0.6 C 0 km/h
2247 15-01-2005 17:02:03 0.3 C 3.96 g/m*3 0.3 C 0 km/h
2248 15-01-2005 17:14:03 0.1 C 3.9 g/m*3 0.1 C 0 km/h
2249 15-01-2005 17:26:02 -0.1 C 3.85 g/m*3 -0.1 C 0 km/h
2250 15-01-2005 17:38:02 -0.4 C 3.77 g/m*3 -0.4 C 0 km/h
Sensor: Nr:Datum:Temp:Abs-Feuchte:Windchill:Wind:
Aussen-T/F 2251 15-01-2005 17:50:02 -0.6 C 3.72 g/m*3 -0.6 C 0 km/h
2252 15-01-2005 18:02:02 -0.9 C 3.64 g/m*3 -0.9 C 0 km/h
2253 15-01-2005 18:14:02 -1 C 3.62 g/m*3 -1 C 0 km/h
2254 15-01-2005 18:26:02 -1.2 C 3.57 g/m*3 -1.2 C 0 km/h
2255 15-01-2005 18:38:02 -1.2 C 3.61 g/m*3 -1.2 C 0 km/h
2256 15-01-2005 18:50:01 -1.3 C 3.63 g/m*3 -1.3 C 0 km/h
2257 15-01-2005 19:02:02 -1.3 C 3.67 g/m*3 -1.3 C 0 km/h
2258 15-01-2005 19:14:02 -1.6 C 3.55 g/m*3 -1.6 C 0 km/h
2259 15-01-2005 19:26:02 -1.6 C 3.6 g/m*3 -1.6 C 0 km/h
2260 15-01-2005 19:38:02 -1.9 C 3.48 g/m*3 -1.9 C 0 km/h
2261 15-01-2005 19:50:02 -2.1 C 3.43 g/m*3 -2.1 C 0 km/h
2262 15-01-2005 20:02:02 -2 C 3.5 g/m*3 -2 C 0 km/h
2263 15-01-2005 20:14:02 -2 C 3.5 g/m*3 -2 C 0 km/h
2264 15-01-2005 20:26:02 -2.1 C 3.52 g/m*3 -2.1 C 0 km/h
2265 15-01-2005 20:38:02 -2.3 C 3.47 g/m*3 -2.3 C 0 km/h
2266 15-01-2005 20:50:01 -2.3 C 3.47 g/m*3 -2.3 C 0 km/h
2267 15-01-2005 21:02:01 -2.3 C 3.47 g/m*3 -2.3 C 0 km/h
2268 15-01-2005 21:14:01 -2.4 C 3.44 g/m*3 -2.4 C 0 km/h
2269 15-01-2005 21:26:01 -2.5 C 3.46 g/m*3 -2.5 C 0 km/h
2270 15-01-2005 21:38:02 -2.7 C 3.37 g/m*3 -2.7 C 0 km/h
2271 15-01-2005 21:50:02 -2.7 C 3.37 g/m*3 -2.7 C 0 km/h
2272 15-01-2005 22:02:02 -2.7 C 3.37 g/m*3 -2.7 C 0 km/h
2273 15-01-2005 22:14:02 -2.9 C 3.32 g/m*3 -2.9 C 0 km/h
2274 15-01-2005 22:26:02 -2.9 C 3.32 g/m*3 -2.9 C 0 km/h
2275 15-01-2005 22:38:03 -3.1 C 3.28 g/m*3 -3.1 C 0 km/h
Sensor: Nr:Datum:Temp:Abs-Feuchte:Windchill:Wind:
Aussen-T/F 2276 15-01-2005 22:50:02 -3.3 C 3.23 g/m*3 -3.3 C 0 km/h
2277 15-01-2005 23:02:02 -3.4 C 3.21 g/m*3 -3.4 C 0 km/h
2278 15-01-2005 23:14:02 -3.2 C 3.25 g/m*3 -3.2 C 0 km/h
2279 15-01-2005 23:26:02 -3.2 C 3.29 g/m*3 -3.2 C 0 km/h
2280 15-01-2005 23:38:02 -3.4 C 3.25 g/m*3 -3.4 C 0 km/h
2281 15-01-2005 23:50:01 -3.7 C 3.18 g/m*3 -3.7 C 0 km/h
2282 16-01-2005 00:02:02 -3.8 C 3.12 g/m*3 -3.8 C 0 km/h
2283 16-01-2005 00:14:02 -3.9 C 3.09 g/m*3 -3.9 C 0 km/h
2284 16-01-2005 00:26:03 -4 C 3.11 g/m*3 -4 C 0 km/h
2285 16-01-2005 00:38:02 -3.9 C 3.13 g/m*3 -3.9 C 0 km/h
2286 16-01-2005 00:50:03 -4.2 C 3.07 g/m*3 -4.2 C 0 km/h
2287 16-01-2005 01:02:02 -4.3 C 3.04 g/m*3 -4.3 C 0 km/h
2288 16-01-2005 01:14:02 -4.3 C 3.04 g/m*3 -4.3 C 0 km/h
2289 16-01-2005 01:26:02 -4.6 C 2.94 g/m*3 -4.6 C 0 km/h
2290 16-01-2005 01:38:03 -4.5 C 2.96 g/m*3 -4.5 C 0 km/h
2291 16-01-2005 01:50:02 -4.5 C 2.96 g/m*3 -4.5 C 0 km/h
2292 16-01-2005 02:02:01 -4.5 C 3 g/m*3 -4.5 C 0 km/h
2293 16-01-2005 02:14:01 -4.6 C 2.94 g/m*3 -4.6 C 0 km/h
2294 16-01-2005 02:26:02 -4.7 C 2.92 g/m*3 -4.7 C 0 km/h
2295 16-01-2005 02:38:02 -4.8 C 2.9 g/m*3 -4.8 C 0 km/h
2296 16-01-2005 02:51:03 -4.8 C 2.9 g/m*3 -4.8 C 0 km/h
2297 16-01-2005 03:03:03 -4.9 C 2.88 g/m*3 -4.9 C 0 km/h
2298 16-01-2005 03:15:03 -4.9 C 2.88 g/m*3 -4.9 C 0 km/h
2299 16-01-2005 03:27:03 -4.8 C 2.9 g/m*3 -4.8 C 0 km/h
2300 16-01-2005 03:39:02 -4.8 C 2.9 g/m*3 -4.8 C 0 km/h
Sensor: Nr:Datum:Temp:Abs-Feuchte:Windchill:Wind:
Aussen-T/F 2301 16-01-2005 03:51:02 -4.9 C 2.88 g/m*3 -4.9 C 0 km/h
2302 16-01-2005 04:03:02 -4.7 C 2.96 g/m*3 -4.7 C 0 km/h
2303 16-01-2005 04:15:02 -4.8 C 2.94 g/m*3 -4.8 C 0 km/h
2304 16-01-2005 04:27:02 -5 C 2.89 g/m*3 -5 C 0 km/h
2305 16-01-2005 04:39:02 -5.1 C 2.84 g/m*3 -5.1 C 0 km/h
2306 16-01-2005 04:51:02 -5.2 C 2.82 g/m*3 -5.2 C 0 km/h
2307 16-01-2005 05:03:02 -5.3 C 2.8 g/m*3 -5.3 C 0 km/h
2308 16-01-2005 05:15:03 -5.2 C 2.82 g/m*3 -5.2 C 0 km/h
2309 16-01-2005 05:27:03 -5.3 C 2.8 g/m*3 -5.3 C 0 km/h
2310 16-01-2005 05:39:02 -5.5 C 2.73 g/m*3 -5.5 C 0 km/h
2311 16-01-2005 05:51:02 -5.6 C 2.67 g/m*3 -5.6 C 0 km/h
2312 16-01-2005 06:03:02 -5.6 C 2.67 g/m*3 -5.6 C 0 km/h
2313 16-01-2005 06:15:02 -5.5 C 2.66 g/m*3 -5.5 C 0 km/h
2314 16-01-2005 06:27:02 -5.5 C 2.69 g/m*3 -5.5 C 0 km/h
2315 16-01-2005 06:39:02 -5.4 C 2.71 g/m*3 -5.4 C 0 km/h
2316 16-01-2005 06:51:02 -5.5 C 2.69 g/m*3 -5.5 C 0 km/h
2317 16-01-2005 07:03:03 -5.6 C 2.64 g/m*3 -5.6 C 0 km/h
2318 16-01-2005 07:15:02 -5.7 C 2.59 g/m*3 -5.7 C 0 km/h
2319 16-01-2005 07:27:02 -5.8 C 2.57 g/m*3 -5.8 C 0 km/h
2320 16-01-2005 07:39:02 -5.9 C 2.55 g/m*3 -5.9 C 0 km/h
2321 16-01-2005 07:51:02 -5.8 C 2.57 g/m*3 -5.8 C 0 km/h
2322 16-01-2005 08:03:02 -5.7 C 2.59 g/m*3 -5.7 C 0 km/h
2323 16-01-2005 08:15:02 -5.5 C 2.66 g/m*3 -5.5 C 0 km/h
2324 16-01-2005 08:27:02 -5.5 C 2.63 g/m*3 -5.5 C 0 km/h
2325 16-01-2005 08:39:02 -5.6 C 2.64 g/m*3 -5.6 C 0 km/h
Sensor: Nr:Datum:Temp:Abs-Feuchte:Windchill:Wind:
Aussen-T/F 2326 16-01-2005 08:51:02 -5.7 C 2.59 g/m*3 -5.7 C 0 km/h
2327 16-01-2005 09:03:03 -5.8 C 2.54 g/m*3 -5.8 C 0 km/h
2328 16-01-2005 09:15:03 -5.7 C 2.59 g/m*3 -5.7 C 0 km/h
2329 16-01-2005 09:27:03 -5.7 C 2.59 g/m*3 -5.7 C 0 km/h
2330 16-01-2005 09:39:02 -5.7 C 2.59 g/m*3 -5.7 C 0 km/h
2331 16-01-2005 09:51:02 -5.7 C 2.59 g/m*3 -5.7 C 0 km/h
2332 16-01-2005 10:03:02 -5.7 C 2.59 g/m*3 -5.7 C 0 km/h
2333 16-01-2005 10:15:02 -5.6 C 2.61 g/m*3 -5.6 C 0 km/h
2334 16-01-2005 10:27:03 -5.4 C 2.65 g/m*3 -5.4 C 0 km/h
2335 16-01-2005 10:39:02 -5.3 C 2.67 g/m*3 -5.3 C 0 km/h
2336 16-01-2005 10:51:01 -5.2 C 2.68 g/m*3 -5.2 C 0 km/h
2337 16-01-2005 11:03:01 -4.9 C 2.78 g/m*3 -4.9 C 0 km/h
2338 16-01-2005 11:15:01 -4.6 C 2.84 g/m*3 -4.6 C 0 km/h
2339 16-01-2005 11:27:01 -4.5 C 2.89 g/m*3 -4.5 C 0 km/h
2340 16-01-2005 11:39:02 -4.4 C 2.92 g/m*3 -4.4 C 0 km/h
2341 16-01-2005 11:51:02 -4.1 C 2.98 g/m*3 -4.1 C 0 km/h
2342 16-01-2005 12:03:02 -3.9 C 3.06 g/m*3 -3.9 C 0 km/h
2343 16-01-2005 12:15:02 -3.4 C 3.21 g/m*3 -3.4 C 0 km/h
2344 16-01-2005 12:27:02 -2.8 C 3.39 g/m*3 -2.8 C 0 km/h
2345 16-01-2005 12:39:02 -2.3 C 3.51 g/m*3 -2.3 C 0 km/h
2346 16-01-2005 12:51:01 -1.7 C 3.7 g/m*3 -1.7 C 0 km/h
2347 16-01-2005 13:03:02 -1 C 3.89 g/m*3 -1 C 0 km/h
2348 16-01-2005 13:15:02 -0.4 C 4.05 g/m*3 -0.4 C 0 km/h
2349 16-01-2005 13:27:02 0.1 C 4.2 g/m*3 0.1 C 0 km/h
2350 16-01-2005 13:39:02 0.8 C 4.35 g/m*3 0.8 C 0 km/h
Sensor: Nr:Datum:Temp:Abs-Feuchte:Windchill:Wind:
Aussen-T/F 2351 16-01-2005 13:51:02 1.3 C 4.45 g/m*3 1.3 C 0 km/h
2352 16-01-2005 14:03:02 1.6 C 4.43 g/m*3 1.6 C 0 km/h
2353 16-01-2005 14:15:02 1.9 C 4.42 g/m*3 1.9 C 0 km/h
2354 16-01-2005 14:27:02 2.1 C 4.42 g/m*3 2.1 C 0 km/h
2355 16-01-2005 14:39:02 1.3 C 4.13 g/m*3 1.3 C 0 km/h
2356 16-01-2005 14:51:01 1 C 4.15 g/m*3 1 C 0 km/h
2357 16-01-2005 15:03:02 0.8 C 4.2 g/m*3 0.8 C 0 km/h
2358 16-01-2005 15:15:01 0.9 C 4.23 g/m*3 0.9 C 0 km/h
2359 16-01-2005 15:27:01 1 C 4.26 g/m*3 1 C 0 km/h
2360 16-01-2005 15:39:02 1.3 C 4.29 g/m*3 1.3 C 0 km/h
2361 16-01-2005 15:51:02 1.3 C 4.29 g/m*3 1.3 C 0 km/h
2362 16-01-2005 16:03:02 1.5 C 4.24 g/m*3 1.5 C 0 km/h
2363 16-01-2005 16:15:03 2.1 C 3.92 g/m*3 2.1 C 0 km/h
2364 16-01-2005 16:27:03 1.9 C 3.86 g/m*3 1.9 C 0 km/h
2365 16-01-2005 16:39:02 1.8 C 3.73 g/m*3 1.8 C 0 km/h
2366 16-01-2005 16:51:02 1.5 C 3.65 g/m*3 1.5 C 0 km/h
2367 16-01-2005 17:03:02 1 C 3.63 g/m*3 1 C 0 km/h
2368 16-01-2005 17:15:02 0.6 C 3.69 g/m*3 0.6 C 0 km/h
2369 16-01-2005 17:27:02 0.1 C 3.66 g/m*3 0.1 C 0 km/h
2370 16-01-2005 17:39:03 -0.2 C 3.63 g/m*3 -0.2 C 0 km/h
2371 16-01-2005 17:51:02 -0.3 C 3.65 g/m*3 -0.3 C 0 km/h
2372 16-01-2005 18:03:04 -0.3 C 3.7 g/m*3 -0.3 C 0 km/h
2373 16-01-2005 18:15:03 -0.3 C 3.75 g/m*3 -0.3 C 0 km/h
2374 16-01-2005 18:27:03 -0.2 C 3.78 g/m*3 -0.2 C 0 km/h
2375 16-01-2005 18:39:04 -0.4 C 3.68 g/m*3 -0.4 C 0 km/h
Sensor: Nr:Datum:Temp:Abs-Feuchte:Windchill:Wind:
Aussen-T/F 2376 16-01-2005 18:51:03 -0.7 C 3.6 g/m*3 -0.7 C 0 km/h
2377 16-01-2005 19:03:03 -0.8 C 3.62 g/m*3 -0.8 C 0 km/h
2378 16-01-2005 19:15:03 -1.1 C 3.59 g/m*3 -1.1 C 0 km/h
2379 16-01-2005 19:27:03 -1.2 C 3.61 g/m*3 -1.2 C 0 km/h
2380 16-01-2005 19:39:02 -1.4 C 3.56 g/m*3 -1.4 C 0 km/h
2381 16-01-2005 19:51:02 -1.4 C 3.56 g/m*3 -1.4 C 0 km/h
2382 16-01-2005 20:03:02 -1.5 C 3.58 g/m*3 -1.5 C 0 km/h
2383 16-01-2005 20:15:02 -1.6 C 3.55 g/m*3 -1.6 C 0 km/h
2384 16-01-2005 20:27:02 -1.6 C 3.6 g/m*3 -1.6 C 0 km/h
2385 16-01-2005 20:39:02 -1.6 C 3.6 g/m*3 -1.6 C 0 km/h
2386 16-01-2005 20:51:02 -1.6 C 3.6 g/m*3 -1.6 C 0 km/h
2387 16-01-2005 21:03:02 -1.6 C 3.64 g/m*3 -1.6 C 0 km/h
2388 16-01-2005 21:15:02 -1.7 C 3.62 g/m*3 -1.7 C 0 km/h
2389 16-01-2005 21:27:02 -1.7 C 3.62 g/m*3 -1.7 C 0 km/h
2390 16-01-2005 21:39:02 -1.7 C 3.62 g/m*3 -1.7 C 0 km/h
2391 16-01-2005 21:51:01 -1.7 C 3.62 g/m*3 -1.7 C 0 km/h
2392 16-01-2005 22:03:01 -1.8 C 3.59 g/m*3 -1.8 C 0 km/h
2393 16-01-2005 22:15:01 -1.8 C 3.59 g/m*3 -1.8 C 0 km/h
2394 16-01-2005 22:27:01 -1.9 C 3.57 g/m*3 -1.9 C 0 km/h
2395 16-01-2005 22:39:02 -1.9 C 3.61 g/m*3 -1.9 C 0 km/h
2396 16-01-2005 22:51:02 -1.6 C 3.68 g/m*3 -1.6 C 0 km/h
2397 16-01-2005 23:03:02 -1.7 C 3.66 g/m*3 -1.7 C 0 km/h
2398 16-01-2005 23:15:02 -1.5 C 3.75 g/m*3 -1.5 C 0 km/h
2399 16-01-2005 23:27:02 -1.5 C 3.71 g/m*3 -1.5 C 0 km/h
2400 16-01-2005 23:39:02 -1.1 C 3.86 g/m*3 -1.1 C 0 km/h
Sensor: Nr:Datum:Temp:Abs-Feuchte:Windchill:Wind:
Aussen-T/F 2401 16-01-2005 23:51:02 -1 C 3.89 g/m*3 -1 C 0 km/h
2402 17-01-2005 00:03:02 -0.5 C 4.03 g/m*3 -0.5 C 0 km/h
2403 17-01-2005 00:15:04 0.3 C 4.2 g/m*3 0.3 C 0 km/h
2404 17-01-2005 00:27:04 0.6 C 4.14 g/m*3 0.6 C 0 km/h
2405 17-01-2005 00:39:03 0.4 C 3.98 g/m*3 0.4 C 0 km/h
2406 17-01-2005 00:51:02 0.4 C 3.98 g/m*3 0.4 C 0 km/h
2407 17-01-2005 01:03:02 0.1 C 3.9 g/m*3 0.1 C 0 km/h
2408 17-01-2005 01:15:02 -0.2 C 3.87 g/m*3 -0.2 C 0 km/h
2409 17-01-2005 01:27:02 -0.4 C 3.86 g/m*3 -0.4 C 0 km/h
2410 17-01-2005 01:39:02 -0.8 C 3.76 g/m*3 -0.8 C 0 km/h
2411 17-01-2005 01:51:02 -1 C 3.71 g/m*3 -1 C 0 km/h
2412 17-01-2005 02:03:02 -1.2 C 3.7 g/m*3 -1.2 C 0 km/h
2413 17-01-2005 02:15:02 -1.3 C 3.67 g/m*3 -1.3 C 0 km/h
2414 17-01-2005 02:27:02 -0.6 C 3.95 g/m*3 -0.6 C 0 km/h
2415 17-01-2005 02:39:02 -0.4 C 3.96 g/m*3 -0.4 C 0 km/h
2416 17-01-2005 02:51:01 0.3 C 4.16 g/m*3 0.3 C 0 km/h
2417 17-01-2005 03:03:01 0.2 C 4.03 g/m*3 0.2 C 0 km/h
2418 17-01-2005 03:15:01 0.3 C 4.06 g/m*3 0.3 C 0 km/h
2419 17-01-2005 03:27:01 0.4 C 4.03 g/m*3 0.4 C 0 km/h
2420 17-01-2005 03:39:02 0.5 C 4.01 g/m*3 0.5 C 0 km/h
2421 17-01-2005 03:51:02 0.6 C 4.04 g/m*3 0.6 C 0 km/h
2422 17-01-2005 04:03:02 0.6 C 3.99 g/m*3 0.6 C 0 km/h
2423 17-01-2005 04:15:01 0.7 C 4.02 g/m*3 0.7 C 0 km/h
2424 17-01-2005 04:27:01 1 C 4.1 g/m*3 1 C 0 km/h
2425 17-01-2005 04:39:01 1.1 C 4.13 g/m*3 1.1 C 0 km/h
Sensor: Nr:Datum:Temp:Abs-Feuchte:Windchill:Wind:
Aussen-T/F 2426 17-01-2005 04:51:02 1.1 C 4.13 g/m*3 1.1 C 0 km/h
2427 17-01-2005 05:03:02 1.2 C 4.16 g/m*3 1.2 C 0 km/h
2428 17-01-2005 05:15:01 1.2 C 4.16 g/m*3 1.2 C 0 km/h
2429 17-01-2005 05:27:01 1.3 C 4.24 g/m*3 1.3 C 0 km/h
2430 17-01-2005 05:39:01 1.4 C 4.21 g/m*3 1.4 C 0 km/h
2431 17-01-2005 05:51:01 1.5 C 4.24 g/m*3 1.5 C 0 km/h
2432 17-01-2005 06:03:01 1.5 C 4.24 g/m*3 1.5 C 0 km/h
2433 17-01-2005 06:15:01 1.5 C 4.3 g/m*3 1.5 C 0 km/h
2434 17-01-2005 06:27:01 1.4 C 4.27 g/m*3 1.4 C 0 km/h
2435 17-01-2005 06:39:01 1.5 C 4.35 g/m*3 1.5 C 0 km/h
2436 17-01-2005 06:51:02 1.5 C 4.35 g/m*3 1.5 C 0 km/h
2437 17-01-2005 07:03:01 1.5 C 4.35 g/m*3 1.5 C 0 km/h
2438 17-01-2005 07:15:01 1.6 C 4.38 g/m*3 1.6 C 0 km/h
2439 17-01-2005 07:27:01 1.6 C 4.38 g/m*3 1.6 C 0 km/h
2440 17-01-2005 07:39:01 1.9 C 4.53 g/m*3 1.9 C 0 km/h
2441 17-01-2005 07:51:02 1.9 C 4.47 g/m*3 1.9 C 0 km/h
2442 17-01-2005 08:03:01 1.9 C 4.53 g/m*3 1.9 C 0 km/h
2443 17-01-2005 08:15:01 2.1 C 4.53 g/m*3 2.1 C 0 km/h
2444 17-01-2005 08:27:01 2.1 C 4.53 g/m*3 2.1 C 0 km/h
2445 17-01-2005 08:39:01 2.1 C 4.53 g/m*3 2.1 C 0 km/h
2446 17-01-2005 08:51:01 2.2 C 4.56 g/m*3 2.2 C 0 km/h
2447 17-01-2005 09:03:02 2.2 C 4.56 g/m*3 2.2 C 0 km/h
2448 17-01-2005 09:15:01 2.2 C 4.56 g/m*3 2.2 C 0 km/h
2449 17-01-2005 09:27:02 2.3 C 4.59 g/m*3 2.3 C 0 km/h
2450 17-01-2005 09:39:02 1.9 C 4.53 g/m*3 1.9 C 0 km/h
Sensor: Nr:Datum:Temp:Abs-Feuchte:Windchill:Wind:
Aussen-T/F 2451 17-01-2005 09:51:02 2.2 C 4.62 g/m*3 2.2 C 0 km/h
2452 17-01-2005 10:03:01 2.5 C 4.66 g/m*3 2.5 C 0 km/h
2453 17-01-2005 10:15:01 2.7 C 4.66 g/m*3 2.7 C 0 km/h
2454 17-01-2005 10:27:01 2.9 C 4.72 g/m*3 2.9 C 0 km/h
2455 17-01-2005 10:39:02 3 C 4.64 g/m*3 3 C 0 km/h
2456 17-01-2005 10:51:01 3.2 C 4.7 g/m*3 3.2 C 0 km/h
2457 17-01-2005 11:03:02 3.3 C 4.73 g/m*3 3.3 C 0 km/h
2458 17-01-2005 11:15:02 3.4 C 4.7 g/m*3 3.4 C 0 km/h
2459 17-01-2005 11:27:02 3.5 C 4.73 g/m*3 3.5 C 0 km/h
2460 17-01-2005 11:39:01 3.6 C 4.77 g/m*3 3.6 C 0 km/h
2461 17-01-2005 11:51:01 3.7 C 4.74 g/m*3 3.7 C 0 km/h
2462 17-01-2005 12:03:01 4 C 4.77 g/m*3 4 C 0 km/h
2463 17-01-2005 12:15:01 4.2 C 4.77 g/m*3 4.2 C 0 km/h
2464 17-01-2005 12:27:01 4.1 C 4.67 g/m*3 4.1 C 0 km/h
2465 17-01-2005 12:39:01 4.4 C 4.83 g/m*3 4.4 C 0 km/h
2466 17-01-2005 12:51:01 4.6 C 4.83 g/m*3 4.6 C 0 km/h
2467 17-01-2005 13:03:01 4.6 C 4.83 g/m*3 4.6 C 0 km/h
2468 17-01-2005 13:15:01 4.7 C 4.86 g/m*3 4.7 C 0 km/h
2469 17-01-2005 13:27:01 4.8 C 4.9 g/m*3 4.8 C 0 km/h
2470 17-01-2005 13:39:02 4.7 C 4.86 g/m*3 4.7 C 0 km/h
2471 17-01-2005 13:51:02 4.6 C 4.9 g/m*3 4.6 C 0 km/h
2472 17-01-2005 14:03:02 4.5 C 4.86 g/m*3 4.5 C 0 km/h
2473 17-01-2005 14:15:02 4.5 C 4.86 g/m*3 4.5 C 0 km/h
2474 17-01-2005 14:27:02 4.8 C 4.96 g/m*3 4.8 C 0 km/h
2475 17-01-2005 14:39:01 5 C 4.96 g/m*3 5 C 0 km/h
Sensor: Nr:Datum:Temp:Abs-Feuchte:Windchill:Wind:
Aussen-T/F 2476 17-01-2005 14:51:01 5.2 C 5.03 g/m*3 5.2 C 0 km/h
2477 17-01-2005 15:03:02 5.1 C 4.99 g/m*3 5.1 C 0 km/h
2478 17-01-2005 15:15:01 5 C 4.96 g/m*3 5 C 0 km/h
2479 17-01-2005 15:27:01 4.7 C 5 g/m*3 4.7 C 0 km/h
2480 17-01-2005 15:39:01 4.6 C 4.96 g/m*3 4.6 C 0 km/h
2481 17-01-2005 15:51:01 4.5 C 5 g/m*3 4.5 C 0 km/h
2482 17-01-2005 16:03:02 4.4 C 5.03 g/m*3 4.4 C 0 km/h
2483 17-01-2005 16:15:02 4.4 C 4.96 g/m*3 4.4 C 0 km/h
2484 17-01-2005 16:27:02 4.4 C 4.96 g/m*3 4.4 C 0 km/h
2485 17-01-2005 16:39:02 4.4 C 4.96 g/m*3 4.4 C 0 km/h
2486 17-01-2005 16:51:02 4.2 C 4.96 g/m*3 4.2 C 0 km/h
2487 17-01-2005 17:03:01 4 C 4.9 g/m*3 4 C 0 km/h
2488 17-01-2005 17:15:01 4 C 5.02 g/m*3 4 C 0 km/h
2489 17-01-2005 17:27:01 4 C 4.96 g/m*3 4 C 0 km/h
2490 17-01-2005 17:39:02 4.1 C 4.99 g/m*3 4.1 C 0 km/h
2491 17-01-2005 17:51:01 4.1 C 4.99 g/m*3 4.1 C 0 km/h
2492 17-01-2005 18:03:01 4.1 C 4.93 g/m*3 4.1 C 0 km/h
2493 17-01-2005 18:15:01 4 C 4.96 g/m*3 4 C 0 km/h
2494 17-01-2005 18:27:02 4 C 4.96 g/m*3 4 C 0 km/h
2495 17-01-2005 18:39:03 4.1 C 4.99 g/m*3 4.1 C 0 km/h
2496 17-01-2005 18:51:03 4.2 C 4.9 g/m*3 4.2 C 0 km/h
2497 17-01-2005 19:03:04 4.2 C 4.9 g/m*3 4.2 C 0 km/h
2498 17-01-2005 19:15:05 4.1 C 4.8 g/m*3 4.1 C 0 km/h
2499 17-01-2005 19:27:05 4.1 C 4.8 g/m*3 4.1 C 0 km/h
2500 17-01-2005 19:39:07 4 C 4.77 g/m*3 4 C 0 km/h
Sensor: Nr:Datum:Temp:Abs-Feuchte:Windchill:Wind:
Aussen-T/F 2501 17-01-2005 19:51:04 4 C 4.77 g/m*3 4 C 0 km/h
2502 17-01-2005 20:03:02 3.6 C 4.7 g/m*3 3.6 C 0 km/h
2503 17-01-2005 20:15:03 3.1 C 4.61 g/m*3 3.1 C 0 km/h
2504 17-01-2005 20:27:03 2.8 C 4.63 g/m*3 2.8 C 0 km/h
2505 17-01-2005 20:39:03 2.8 C 4.69 g/m*3 2.8 C 0 km/h
2506 17-01-2005 20:51:04 2.9 C 4.78 g/m*3 2.9 C 0 km/h
2507 17-01-2005 21:03:03 3 C 4.76 g/m*3 3 C 0 km/h
2508 17-01-2005 21:15:02 3.3 C 4.85 g/m*3 3.3 C 0 km/h
2509 17-01-2005 21:27:02 3.3 C 4.79 g/m*3 3.3 C 0 km/h
2510 17-01-2005 21:39:02 3.4 C 4.83 g/m*3 3.4 C 0 km/h
2511 17-01-2005 21:51:02 3.4 C 4.83 g/m*3 3.4 C 0 km/h
2512 17-01-2005 22:03:02 3.3 C 4.73 g/m*3 3.3 C 0 km/h
2513 17-01-2005 22:15:02 3.3 C 4.79 g/m*3 3.3 C 0 km/h
2514 17-01-2005 22:27:02 3.3 C 4.73 g/m*3 3.3 C 0 km/h
2515 17-01-2005 22:39:01 3.4 C 4.76 g/m*3 3.4 C 0 km/h
2516 17-01-2005 22:51:02 3.4 C 4.76 g/m*3 3.4 C 0 km/h
2517 17-01-2005 23:03:02 3.4 C 4.83 g/m*3 3.4 C 0 km/h
2518 17-01-2005 23:15:01 3.2 C 4.82 g/m*3 3.2 C 0 km/h
2519 17-01-2005 23:27:01 3.1 C 4.91 g/m*3 3.1 C 0 km/h
2520 17-01-2005 23:39:01 3.2 C 5 g/m*3 3.2 C 0 km/h
2521 17-01-2005 23:51:01 3.2 C 5 g/m*3 3.2 C 0 km/h
2522 18-01-2005 00:03:02 3.3 C 5.1 g/m*3 3.3 C 0 km/h
2523 18-01-2005 00:15:03 3.3 C 5.16 g/m*3 3.3 C 0 km/h
2524 18-01-2005 00:27:03 3.3 C 5.16 g/m*3 3.3 C 0 km/h
2525 18-01-2005 00:39:01 3.4 C 5.25 g/m*3 3.4 C 0 km/h
Sensor: Nr:Datum:Temp:Abs-Feuchte:Windchill:Wind:
Aussen-T/F 2526 18-01-2005 00:51:02 3.5 C 5.35 g/m*3 3.5 C 0 km/h
2527 18-01-2005 01:03:01 3.6 C 5.39 g/m*3 3.6 C 0 km/h
2528 18-01-2005 01:15:02 3.7 C 5.48 g/m*3 3.7 C 0 km/h
2529 18-01-2005 01:27:02 4.1 C 5.63 g/m*3 4.1 C 0 km/h
2530 18-01-2005 01:39:02 4.3 C 5.77 g/m*3 4.3 C 0 km/h
2531 18-01-2005 01:51:01 4.5 C 5.85 g/m*3 4.5 C 0 km/h
2532 18-01-2005 02:03:02 4.6 C 5.89 g/m*3 4.6 C 0 km/h
2533 18-01-2005 02:15:02 4.6 C 5.89 g/m*3 4.6 C 0 km/h
2534 18-01-2005 02:27:02 4.7 C 5.93 g/m*3 4.7 C 0 km/h
2535 18-01-2005 02:39:01 4.8 C 5.9 g/m*3 4.8 C 0 km/h
2536 18-01-2005 02:52:05 4.9 C 5.94 g/m*3 4.9 C 0 km/h
2537 18-01-2005 03:04:05 5.1 C 5.95 g/m*3 5.1 C 0 km/h
2538 18-01-2005 03:16:06 5.4 C 6 g/m*3 5.4 C 0 km/h
2539 18-01-2005 03:28:06 5.6 C 5.94 g/m*3 5.6 C 0 km/h
2540 18-01-2005 03:40:02 5.8 C 5.87 g/m*3 5.8 C 0 km/h
2541 18-01-2005 03:52:02 6 C 5.81 g/m*3 6 C 0 km/h
2542 18-01-2005 04:04:01 6.3 C 5.77 g/m*3 6.3 C 0 km/h
2543 18-01-2005 04:16:02 6.3 C 5.77 g/m*3 6.3 C 0 km/h
2544 18-01-2005 04:28:02 6.4 C 5.89 g/m*3 6.4 C 0 km/h
2545 18-01-2005 04:40:02 6.4 C 5.89 g/m*3 6.4 C 0 km/h
2546 18-01-2005 04:52:03 6.5 C 5.92 g/m*3 6.5 C 0 km/h
2547 18-01-2005 05:04:03 6.3 C 6.07 g/m*3 6.3 C 0 km/h
2548 18-01-2005 05:16:03 6.2 C 6.1 g/m*3 6.2 C 0 km/h
2549 18-01-2005 05:28:03 6.2 C 6.1 g/m*3 6.2 C 0 km/h
2550 18-01-2005 05:40:02 6.3 C 6.07 g/m*3 6.3 C 0 km/h
Sensor: Nr:Datum:Temp:Abs-Feuchte:Windchill:Wind:
Aussen-T/F 2551 18-01-2005 05:52:01 6.3 C 6.07 g/m*3 6.3 C 0 km/h
2552 18-01-2005 06:04:02 6.3 C 6 g/m*3 6.3 C 0 km/h
2553 18-01-2005 06:16:01 6.2 C 6.03 g/m*3 6.2 C 0 km/h
2554 18-01-2005 06:28:01 6.1 C 5.99 g/m*3 6.1 C 0 km/h
2555 18-01-2005 06:40:02 6 C 5.95 g/m*3 6 C 0 km/h
2556 18-01-2005 06:52:01 6.2 C 6.03 g/m*3 6.2 C 0 km/h
2557 18-01-2005 07:04:01 6.1 C 6.06 g/m*3 6.1 C 0 km/h
2558 18-01-2005 07:16:01 6.4 C 6.04 g/m*3 6.4 C 0 km/h
2559 18-01-2005 07:28:02 6.5 C 6.07 g/m*3 6.5 C 0 km/h
2560 18-01-2005 07:40:02 6.6 C 6.04 g/m*3 6.6 C 0 km/h
2561 18-01-2005 07:52:03 6.7 C 6.08 g/m*3 6.7 C 0 km/h
2562 18-01-2005 08:04:02 6.8 C 6.19 g/m*3 6.8 C 0 km/h
2563 18-01-2005 08:16:02 6.4 C 6.18 g/m*3 6.4 C 0 km/h
2564 18-01-2005 08:28:02 6.5 C 6.22 g/m*3 6.5 C 0 km/h
2565 18-01-2005 08:40:02 6.5 C 6.22 g/m*3 6.5 C 0 km/h
2566 18-01-2005 08:52:02 6.5 C 6.22 g/m*3 6.5 C 0 km/h
2567 18-01-2005 09:04:02 6.8 C 6.19 g/m*3 6.8 C 0 km/h
2568 18-01-2005 09:16:02 6.7 C 6.08 g/m*3 6.7 C 0 km/h
2569 18-01-2005 09:28:03 6.9 C 6.08 g/m*3 6.9 C 0 km/h
2570 18-01-2005 09:40:02 7.2 C 5.97 g/m*3 7.2 C 0 km/h
2571 18-01-2005 09:52:01 6.8 C 6.04 g/m*3 6.8 C 0 km/h
2572 18-01-2005 10:04:01 6.6 C 6.04 g/m*3 6.6 C 0 km/h
2573 18-01-2005 10:16:02 6.3 C 6 g/m*3 6.3 C 0 km/h
2574 18-01-2005 10:28:02 6.1 C 5.92 g/m*3 6.1 C 0 km/h
2575 18-01-2005 10:40:02 5.3 C 5.68 g/m*3 5.3 C 0 km/h
Sensor: Nr:Datum:Temp:Abs-Feuchte:Windchill:Wind:
Aussen-T/F 2576 18-01-2005 10:52:02 4.8 C 5.63 g/m*3 4.8 C 0 km/h
2577 18-01-2005 11:04:03 4.6 C 5.69 g/m*3 4.6 C 0 km/h
2578 18-01-2005 11:16:02 4.8 C 5.83 g/m*3 4.8 C 0 km/h
2579 18-01-2005 11:28:02 4.9 C 5.87 g/m*3 4.9 C 0 km/h
2580 18-01-2005 11:40:02 5.2 C 5.99 g/m*3 5.2 C 0 km/h
2581 18-01-2005 11:52:01 5.3 C 6.1 g/m*3 5.3 C 0 km/h
2582 18-01-2005 12:04:02 5.6 C 6.22 g/m*3 5.6 C 0 km/h
2583 18-01-2005 12:16:02 5.5 C 6.18 g/m*3 5.5 C 0 km/h
2584 18-01-2005 12:28:02 5.6 C 6.22 g/m*3 5.6 C 0 km/h
2585 18-01-2005 12:40:02 5.6 C 6.08 g/m*3 5.6 C 0 km/h
2586 18-01-2005 12:52:02 5.8 C 5.95 g/m*3 5.8 C 0 km/h
2587 18-01-2005 13:04:02 6 C 5.81 g/m*3 6 C 0 km/h
2588 18-01-2005 13:16:02 6.1 C 5.7 g/m*3 6.1 C 0 km/h
2589 18-01-2005 13:28:02 6 C 5.52 g/m*3 6 C 0 km/h
2590 18-01-2005 13:40:02 6 C 5.52 g/m*3 6 C 0 km/h
2591 18-01-2005 13:52:01 6.1 C 5.48 g/m*3 6.1 C 0 km/h
2592 18-01-2005 14:04:02 6.2 C 5.52 g/m*3 6.2 C 0 km/h
2593 18-01-2005 14:16:02 6.2 C 5.52 g/m*3 6.2 C 0 km/h
2594 18-01-2005 14:28:02 6.2 C 5.66 g/m*3 6.2 C 0 km/h
2595 18-01-2005 14:40:02 6.2 C 5.59 g/m*3 6.2 C 0 km/h
2596 18-01-2005 14:52:02 6.2 C 5.52 g/m*3 6.2 C 0 km/h
2597 18-01-2005 15:04:02 6.2 C 5.52 g/m*3 6.2 C 0 km/h
2598 18-01-2005 15:16:03 5.8 C 5.66 g/m*3 5.8 C 0 km/h
2599 18-01-2005 15:28:03 5.5 C 5.69 g/m*3 5.5 C 0 km/h
2600 18-01-2005 15:40:02 5.4 C 5.58 g/m*3 5.4 C 0 km/h
Sensor: Nr:Datum:Temp:Abs-Feuchte:Windchill:Wind:
Aussen-T/F 2601 18-01-2005 15:52:01 5 C 5.5 g/m*3 5 C 0 km/h
2602 18-01-2005 16:04:02 4.8 C 5.57 g/m*3 4.8 C 0 km/h
2603 18-01-2005 16:16:02 4.8 C 5.43 g/m*3 4.8 C 0 km/h
2604 18-01-2005 16:28:02 4.9 C 4.93 g/m*3 4.9 C 0 km/h
2605 18-01-2005 16:40:02 4.7 C 4.53 g/m*3 4.7 C 0 km/h
2606 18-01-2005 16:52:02 4.6 C 4.43 g/m*3 4.6 C 0 km/h
2607 18-01-2005 17:04:02 4.4 C 4.31 g/m*3 4.4 C 0 km/h
2608 18-01-2005 17:16:02 4.3 C 4.22 g/m*3 4.3 C 0 km/h
2609 18-01-2005 17:28:02 4 C 4.13 g/m*3 4 C 0 km/h
2610 18-01-2005 17:40:02 3.8 C 4.08 g/m*3 3.8 C 0 km/h
2611 18-01-2005 17:52:01 3.4 C 4.09 g/m*3 3.4 C 0 km/h
2612 18-01-2005 18:04:02 3.7 C 4.05 g/m*3 3.7 C 0 km/h
2613 18-01-2005 18:16:01 3.7 C 4.11 g/m*3 3.7 C 0 km/h
2614 18-01-2005 18:28:01 3.7 C 4.05 g/m*3 3.7 C 0 km/h
2615 18-01-2005 18:40:01 3.6 C 4.09 g/m*3 3.6 C 0 km/h
2616 18-01-2005 18:52:02 3.3 C 3.94 g/m*3 3.3 C 0 km/h
2617 18-01-2005 19:04:02 3 C 3.92 g/m*3 3 C 0 km/h
2618 18-01-2005 19:16:02 3 C 3.98 g/m*3 3 C 0 km/h
2619 18-01-2005 19:28:02 3.2 C 3.8 g/m*3 3.2 C 0 km/h
2620 18-01-2005 19:40:03 3.1 C 3.77 g/m*3 3.1 C 0 km/h
2621 18-01-2005 19:52:03 3.3 C 3.76 g/m*3 3.3 C 0 km/h
2622 18-01-2005 20:04:04 3.2 C 3.68 g/m*3 3.2 C 0 km/h
2623 18-01-2005 20:16:03 2.7 C 3.85 g/m*3 2.7 C 0 km/h
2624 18-01-2005 20:28:03 2.8 C 3.81 g/m*3 2.8 C 0 km/h
2625 18-01-2005 20:40:02 2.7 C 3.79 g/m*3 2.7 C 0 km/h
Sensor: Nr:Datum:Temp:Abs-Feuchte:Windchill:Wind:
Aussen-T/F 2626 18-01-2005 20:52:02 3 C 3.75 g/m*3 3 C 0 km/h
2627 18-01-2005 21:04:03 2.9 C 3.78 g/m*3 2.9 C 0 km/h
2628 18-01-2005 21:16:03 2.8 C 3.64 g/m*3 2.8 C 0 km/h
2629 18-01-2005 21:28:03 2.5 C 3.68 g/m*3 2.5 C 0 km/h
2630 18-01-2005 21:40:03 2.2 C 3.66 g/m*3 2.2 C 0 km/h
2631 18-01-2005 21:52:02 2.1 C 3.75 g/m*3 2.1 C 0 km/h
2632 18-01-2005 22:04:02 2.2 C 3.77 g/m*3 2.2 C 0 km/h
2633 18-01-2005 22:16:02 2.2 C 3.77 g/m*3 2.2 C 0 km/h
2634 18-01-2005 22:28:02 2.4 C 3.71 g/m*3 2.4 C 0 km/h
2635 18-01-2005 22:40:02 2.4 C 3.77 g/m*3 2.4 C 0 km/h
2636 18-01-2005 22:52:01 2.6 C 3.76 g/m*3 2.6 C 0 km/h
2637 18-01-2005 23:04:02 2.8 C 3.81 g/m*3 2.8 C 0 km/h
2638 18-01-2005 23:16:02 2.8 C 3.81 g/m*3 2.8 C 0 km/h
2639 18-01-2005 23:28:02 1.7 C 4.19 g/m*3 1.7 C 0 km/h
2640 18-01-2005 23:40:02 1.6 C 4.38 g/m*3 1.6 C 0 km/h
2641 18-01-2005 23:52:02 1.4 C 4.43 g/m*3 1.4 C 0 km/h
2642 19-01-2005 00:04:03 1.4 C 4.48 g/m*3 1.4 C 0 km/h
2643 19-01-2005 00:16:03 1.5 C 4.51 g/m*3 1.5 C 0 km/h
2644 19-01-2005 00:28:03 1.6 C 4.54 g/m*3 1.6 C 0 km/h
2645 19-01-2005 00:40:02 1.7 C 4.52 g/m*3 1.7 C 0 km/h
2646 19-01-2005 00:52:03 1.6 C 4.54 g/m*3 1.6 C 0 km/h
2647 19-01-2005 01:04:03 1.6 C 4.6 g/m*3 1.6 C 0 km/h
2648 19-01-2005 01:16:03 1.7 C 4.63 g/m*3 1.7 C 0 km/h
2649 19-01-2005 01:28:03 1.6 C 4.6 g/m*3 1.6 C 0 km/h
2650 19-01-2005 01:40:03 1.6 C 4.6 g/m*3 1.6 C 0 km/h
Sensor: Nr:Datum:Temp:Abs-Feuchte:Windchill:Wind:
Aussen-T/F 2651 19-01-2005 01:52:02 1.8 C 4.66 g/m*3 1.8 C 0 km/h
2652 19-01-2005 02:04:02 2.1 C 4.64 g/m*3 2.1 C 0 km/h
2653 19-01-2005 02:16:02 2.2 C 4.62 g/m*3 2.2 C 0 km/h
2654 19-01-2005 02:28:03 2.3 C 4.59 g/m*3 2.3 C 0 km/h
2655 19-01-2005 02:40:02 2.2 C 4.56 g/m*3 2.2 C 0 km/h
2656 19-01-2005 02:53:04 2.4 C 4.68 g/m*3 2.4 C 0 km/h
2657 19-01-2005 03:05:04 2.5 C 4.54 g/m*3 2.5 C 0 km/h
2658 19-01-2005 03:17:05 2.4 C 4.57 g/m*3 2.4 C 0 km/h
2659 19-01-2005 03:29:05 2.4 C 4.62 g/m*3 2.4 C 0 km/h
2660 19-01-2005 03:41:03 2.6 C 4.63 g/m*3 2.6 C 0 km/h
2661 19-01-2005 03:53:03 2.7 C 4.66 g/m*3 2.7 C 0 km/h
2662 19-01-2005 04:05:02 2.6 C 4.63 g/m*3 2.6 C 0 km/h
2663 19-01-2005 04:17:02 2.2 C 4.56 g/m*3 2.2 C 0 km/h
2664 19-01-2005 04:29:02 2.1 C 4.59 g/m*3 2.1 C 0 km/h
2665 19-01-2005 04:41:02 2.1 C 4.59 g/m*3 2.1 C 0 km/h
2666 19-01-2005 04:53:02 2.1 C 4.59 g/m*3 2.1 C 0 km/h
2667 19-01-2005 05:05:02 2.1 C 4.59 g/m*3 2.1 C 0 km/h
2668 19-01-2005 05:17:02 1.9 C 4.58 g/m*3 1.9 C 0 km/h
2669 19-01-2005 05:29:02 2.1 C 4.59 g/m*3 2.1 C 0 km/h
2670 19-01-2005 05:41:01 2 C 4.56 g/m*3 2 C 0 km/h
2671 19-01-2005 05:53:01 1.9 C 4.58 g/m*3 1.9 C 0 km/h
2672 19-01-2005 06:05:02 1.7 C 4.57 g/m*3 1.7 C 0 km/h
2673 19-01-2005 06:17:02 1.5 C 4.57 g/m*3 1.5 C 0 km/h
2674 19-01-2005 06:29:02 1.6 C 4.65 g/m*3 1.6 C 0 km/h
2675 19-01-2005 06:41:02 1.9 C 4.75 g/m*3 1.9 C 0 km/h
Sensor: Nr:Datum:Temp:Abs-Feuchte:Windchill:Wind:
Aussen-T/F 2676 19-01-2005 06:53:01 2.2 C 4.73 g/m*3 2.2 C 0 km/h
2677 19-01-2005 07:05:02 2.4 C 4.74 g/m*3 2.4 C 0 km/h
2678 19-01-2005 07:17:02 2.4 C 4.68 g/m*3 2.4 C 0 km/h
2679 19-01-2005 07:29:02 2.5 C 4.66 g/m*3 2.5 C 0 km/h
2680 19-01-2005 07:41:02 2.5 C 4.66 g/m*3 2.5 C 0 km/h
2681 19-01-2005 07:53:01 2.3 C 4.59 g/m*3 2.3 C 0 km/h
2682 19-01-2005 08:05:02 2.5 C 4.66 g/m*3 2.5 C 0 km/h
2683 19-01-2005 08:17:02 2.7 C 4.72 g/m*3 2.7 C 0 km/h
2684 19-01-2005 08:29:02 2.8 C 4.69 g/m*3 2.8 C 0 km/h
2685 19-01-2005 08:41:01 2.9 C 4.72 g/m*3 2.9 C 0 km/h
2686 19-01-2005 08:53:01 3.2 C 4.7 g/m*3 3.2 C 0 km/h
2687 19-01-2005 09:05:01 3.3 C 4.67 g/m*3 3.3 C 0 km/h
2688 19-01-2005 09:17:01 3.2 C 4.58 g/m*3 3.2 C 0 km/h
2689 19-01-2005 09:29:01 3.1 C 4.61 g/m*3 3.1 C 0 km/h
2690 19-01-2005 09:41:02 3 C 4.64 g/m*3 3 C 0 km/h
2691 19-01-2005 09:53:02 3.3 C 4.61 g/m*3 3.3 C 0 km/h
2692 19-01-2005 10:05:02 3.3 C 4.55 g/m*3 3.3 C 0 km/h
2693 19-01-2005 10:17:02 3.1 C 4.49 g/m*3 3.1 C 0 km/h
2694 19-01-2005 10:29:02 3 C 4.46 g/m*3 3 C 0 km/h
2695 19-01-2005 10:41:02 3.2 C 4.4 g/m*3 3.2 C 0 km/h
2696 19-01-2005 10:53:02 3.3 C 4.37 g/m*3 3.3 C 0 km/h
2697 19-01-2005 11:05:02 3.3 C 4.37 g/m*3 3.3 C 0 km/h
2698 19-01-2005 11:17:02 3.4 C 4.4 g/m*3 3.4 C 0 km/h
2699 19-01-2005 11:29:02 3.5 C 4.37 g/m*3 3.5 C 0 km/h
2700 19-01-2005 11:41:01 3.9 C 4.48 g/m*3 3.9 C 0 km/h
Sensor: Nr:Datum:Temp:Abs-Feuchte:Windchill:Wind:
Aussen-T/F 2701 19-01-2005 11:53:02 4 C 4.45 g/m*3 4 C 0 km/h
2702 19-01-2005 12:05:02 4.3 C 4.48 g/m*3 4.3 C 0 km/h
2703 19-01-2005 12:17:02 4.6 C 4.43 g/m*3 4.6 C 0 km/h
2704 19-01-2005 12:29:02 5 C 4.35 g/m*3 5 C 0 km/h
2705 19-01-2005 12:41:02 5.3 C 4.23 g/m*3 5.3 C 0 km/h
2706 19-01-2005 12:53:02 5.3 C 4.16 g/m*3 5.3 C 0 km/h
2707 19-01-2005 13:05:02 5.2 C 4.2 g/m*3 5.2 C 0 km/h
2708 19-01-2005 13:17:02 5.3 C 4.16 g/m*3 5.3 C 0 km/h
2709 19-01-2005 13:29:02 5.2 C 4.2 g/m*3 5.2 C 0 km/h
2710 19-01-2005 13:41:02 5.3 C 4.3 g/m*3 5.3 C 0 km/h
2711 19-01-2005 13:53:02 5.2 C 4.27 g/m*3 5.2 C 0 km/h
2712 19-01-2005 14:05:02 5 C 4.28 g/m*3 5 C 0 km/h
2713 19-01-2005 14:17:02 4.7 C 4.53 g/m*3 4.7 C 0 km/h
2714 19-01-2005 14:29:02 4.7 C 4.46 g/m*3 4.7 C 0 km/h
2715 19-01-2005 14:41:02 4.8 C 4.49 g/m*3 4.8 C 0 km/h
2716 19-01-2005 14:53:01 4.8 C 4.43 g/m*3 4.8 C 0 km/h
2717 19-01-2005 15:05:02 4.8 C 4.43 g/m*3 4.8 C 0 km/h
2718 19-01-2005 15:17:02 4.8 C 4.43 g/m*3 4.8 C 0 km/h
2719 19-01-2005 15:29:02 4.9 C 4.39 g/m*3 4.9 C 0 km/h
2720 19-01-2005 15:41:02 4.8 C 4.43 g/m*3 4.8 C 0 km/h
2721 19-01-2005 15:53:02 4.9 C 4.46 g/m*3 4.9 C 0 km/h
2722 19-01-2005 16:05:02 4.8 C 4.43 g/m*3 4.8 C 0 km/h
2723 19-01-2005 16:17:02 4.8 C 4.43 g/m*3 4.8 C 0 km/h
2724 19-01-2005 16:29:02 4.9 C 4.39 g/m*3 4.9 C 0 km/h
2725 19-01-2005 16:41:02 4.8 C 4.43 g/m*3 4.8 C 0 km/h
Sensor: Nr:Datum:Temp:Abs-Feuchte:Windchill:Wind:
Aussen-T/F 2726 19-01-2005 16:53:01 4.8 C 4.43 g/m*3 4.8 C 0 km/h
2727 19-01-2005 17:05:02 4.8 C 4.43 g/m*3 4.8 C 0 km/h
2728 19-01-2005 17:17:02 4.7 C 4.33 g/m*3 4.7 C 0 km/h
2729 19-01-2005 17:29:03 4.7 C 4.33 g/m*3 4.7 C 0 km/h
2730 19-01-2005 17:41:01 4.8 C 4.36 g/m*3 4.8 C 0 km/h
2731 19-01-2005 17:53:01 4.8 C 4.36 g/m*3 4.8 C 0 km/h
2732 19-01-2005 18:05:02 4.8 C 4.36 g/m*3 4.8 C 0 km/h
2733 19-01-2005 18:17:02 4.8 C 4.36 g/m*3 4.8 C 0 km/h
2734 19-01-2005 18:29:02 4.7 C 4.4 g/m*3 4.7 C 0 km/h
2735 19-01-2005 18:41:02 4.7 C 4.4 g/m*3 4.7 C 0 km/h
2736 19-01-2005 18:53:02 4.7 C 4.4 g/m*3 4.7 C 0 km/h
2737 19-01-2005 19:05:02 4.7 C 4.4 g/m*3 4.7 C 0 km/h
2738 19-01-2005 19:17:02 4.6 C 4.43 g/m*3 4.6 C 0 km/h
2739 19-01-2005 19:29:02 4.6 C 4.43 g/m*3 4.6 C 0 km/h
2740 19-01-2005 19:41:01 4.5 C 4.34 g/m*3 4.5 C 0 km/h
2741 19-01-2005 19:53:01 4.5 C 4.27 g/m*3 4.5 C 0 km/h
2742 19-01-2005 20:05:02 4.6 C 4.23 g/m*3 4.6 C 0 km/h
2743 19-01-2005 20:17:01 4.6 C 4.3 g/m*3 4.6 C 0 km/h
2744 19-01-2005 20:29:01 4.4 C 4.31 g/m*3 4.4 C 0 km/h
2745 19-01-2005 20:41:02 4.3 C 4.28 g/m*3 4.3 C 0 km/h
2746 19-01-2005 20:53:02 4.2 C 4.32 g/m*3 4.2 C 0 km/h
2747 19-01-2005 21:05:02 3.9 C 4.36 g/m*3 3.9 C 0 km/h
2748 19-01-2005 21:17:02 3.6 C 4.39 g/m*3 3.6 C 0 km/h
2749 19-01-2005 21:29:02 3.4 C 4.4 g/m*3 3.4 C 0 km/h
2750 19-01-2005 21:41:02 3.4 C 4.4 g/m*3 3.4 C 0 km/h
Sensor: Nr:Datum:Temp:Abs-Feuchte:Windchill:Wind:
Aussen-T/F 2751 19-01-2005 21:54:02 3.5 C 4.43 g/m*3 3.5 C 0 km/h
2752 19-01-2005 22:06:02 3.9 C 4.48 g/m*3 3.9 C 0 km/h
2753 19-01-2005 22:18:02 3.7 C 4.42 g/m*3 3.7 C 0 km/h
2754 19-01-2005 22:30:02 3.7 C 4.42 g/m*3 3.7 C 0 km/h
2755 19-01-2005 22:42:02 3.6 C 4.39 g/m*3 3.6 C 0 km/h
2756 19-01-2005 22:54:02 3.8 C 4.52 g/m*3 3.8 C 0 km/h
2757 19-01-2005 23:06:02 3.6 C 4.46 g/m*3 3.6 C 0 km/h
2758 19-01-2005 23:18:02 3.5 C 4.49 g/m*3 3.5 C 0 km/h
2759 19-01-2005 23:30:02 3.5 C 4.55 g/m*3 3.5 C 0 km/h
2760 19-01-2005 23:42:02 3.8 C 4.64 g/m*3 3.8 C 0 km/h
2761 19-01-2005 23:54:02 3.9 C 4.61 g/m*3 3.9 C 0 km/h
2762 20-01-2005 00:06:02 4.1 C 4.61 g/m*3 4.1 C 0 km/h
2763 20-01-2005 00:18:02 4.3 C 4.67 g/m*3 4.3 C 0 km/h
2764 20-01-2005 00:30:02 4.4 C 4.7 g/m*3 4.4 C 0 km/h
2765 20-01-2005 00:42:02 4.6 C 4.76 g/m*3 4.6 C 0 km/h
2766 20-01-2005 00:54:02 4.6 C 4.83 g/m*3 4.6 C 0 km/h
2767 20-01-2005 01:06:02 4.3 C 5.06 g/m*3 4.3 C 0 km/h
2768 20-01-2005 01:18:02 4.3 C 5.12 g/m*3 4.3 C 0 km/h
2769 20-01-2005 01:30:02 4.3 C 5.19 g/m*3 4.3 C 0 km/h
2770 20-01-2005 01:42:03 4.3 C 5.25 g/m*3 4.3 C 0 km/h
2771 20-01-2005 01:54:03 4.3 C 5.32 g/m*3 4.3 C 0 km/h
2772 20-01-2005 02:06:03 4.4 C 5.35 g/m*3 4.4 C 0 km/h
2773 20-01-2005 02:18:03 4.5 C 5.39 g/m*3 4.5 C 0 km/h
2774 20-01-2005 02:30:03 4.7 C 5.4 g/m*3 4.7 C 0 km/h
2775 20-01-2005 02:42:03 5.1 C 5.34 g/m*3 5.1 C 0 km/h
Sensor: Nr:Datum:Temp:Abs-Feuchte:Windchill:Wind:
Aussen-T/F 2776 20-01-2005 02:54:03 5.2 C 5.37 g/m*3 5.2 C 0 km/h
2777 20-01-2005 03:06:03 5.3 C 5.41 g/m*3 5.3 C 0 km/h
2778 20-01-2005 03:18:03 5.5 C 5.41 g/m*3 5.5 C 0 km/h
2779 20-01-2005 03:30:03 5.4 C 5.44 g/m*3 5.4 C 0 km/h
2780 20-01-2005 03:42:03 5.6 C 5.51 g/m*3 5.6 C 0 km/h
2781 20-01-2005 03:54:03 5.7 C 5.55 g/m*3 5.7 C 0 km/h
2782 20-01-2005 04:06:03 5.7 C 5.55 g/m*3 5.7 C 0 km/h
2783 20-01-2005 04:18:03 5.8 C 5.59 g/m*3 5.8 C 0 km/h
2784 20-01-2005 04:30:03 6 C 5.59 g/m*3 6 C 0 km/h
2785 20-01-2005 04:42:03 6.1 C 5.63 g/m*3 6.1 C 0 km/h
2786 20-01-2005 04:54:03 6.1 C 5.63 g/m*3 6.1 C 0 km/h
2787 20-01-2005 05:06:03 6.2 C 5.66 g/m*3 6.2 C 0 km/h
2788 20-01-2005 05:18:03 6.2 C 5.66 g/m*3 6.2 C 0 km/h
2789 20-01-2005 05:30:03 6.3 C 5.77 g/m*3 6.3 C 0 km/h
2790 20-01-2005 05:42:03 6.4 C 5.81 g/m*3 6.4 C 0 km/h
2791 20-01-2005 05:54:03 6.5 C 5.85 g/m*3 6.5 C 0 km/h
2792 20-01-2005 06:06:04 6.6 C 5.89 g/m*3 6.6 C 0 km/h
2793 20-01-2005 06:18:04 6.6 C 5.89 g/m*3 6.6 C 0 km/h
2794 20-01-2005 06:30:04 6.7 C 6 g/m*3 6.7 C 0 km/h
2795 20-01-2005 06:42:04 6.7 C 6 g/m*3 6.7 C 0 km/h
2796 20-01-2005 06:54:04 6.8 C 6.12 g/m*3 6.8 C 0 km/h
2797 20-01-2005 07:06:04 7 C 6.04 g/m*3 7 C 0 km/h
2798 20-01-2005 07:18:04 7.1 C 6.08 g/m*3 7.1 C 0 km/h
2799 20-01-2005 07:30:04 7.3 C 6.16 g/m*3 7.3 C 0 km/h
2800 20-01-2005 07:42:04 7.5 C 6.16 g/m*3 7.5 C 0 km/h
Sensor: Nr:Datum:Temp:Abs-Feuchte:Windchill:Wind:
Aussen-T/F 2801 20-01-2005 07:54:04 7.6 C 6.2 g/m*3 7.6 C 0 km/h
2802 20-01-2005 08:06:04 7.8 C 6.28 g/m*3 7.8 C 0 km/h
2803 20-01-2005 08:18:04 7.8 C 6.28 g/m*3 7.8 C 0 km/h
2804 20-01-2005 08:30:04 7.8 C 6.37 g/m*3 7.8 C 0 km/h
2805 20-01-2005 08:42:04 8.1 C 6.32 g/m*3 8.1 C 0 km/h
2806 20-01-2005 08:54:04 8 C 6.45 g/m*3 8 C 0 km/h
2807 20-01-2005 09:06:04 8 C 6.45 g/m*3 8 C 0 km/h
2808 20-01-2005 09:18:04 8.1 C 6.49 g/m*3 8.1 C 0 km/h
2809 20-01-2005 09:30:04 8.3 C 6.49 g/m*3 8.3 C 0 km/h
2810 20-01-2005 09:42:04 8.6 C 6.44 g/m*3 8.6 C 0 km/h
2811 20-01-2005 09:54:02 8.8 C 6.44 g/m*3 8.8 C 0 km/h
2812 20-01-2005 10:06:03 8.8 C 6.35 g/m*3 8.8 C 0 km/h
2813 20-01-2005 10:18:03 9.3 C 6.2 g/m*3 9.3 C 0 km/h
2814 20-01-2005 10:30:03 9.6 C 6.05 g/m*3 9.6 C 0 km/h
2815 20-01-2005 10:42:02 9.6 C 6.05 g/m*3 9.6 C 0 km/h
2816 20-01-2005 10:54:01 9.7 C 6.08 g/m*3 9.7 C 0 km/h
2817 20-01-2005 11:06:02 9.9 C 6.07 g/m*3 9.9 C 0 km/h
2818 20-01-2005 11:18:01 9.8 C 6.12 g/m*3 9.8 C 0 km/h
2819 20-01-2005 11:30:01 9.7 C 6.18 g/m*3 9.7 C 0 km/h
2820 20-01-2005 11:42:01 9.8 C 6.22 g/m*3 9.8 C 0 km/h
2821 20-01-2005 11:54:01 10 C 6.11 g/m*3 10 C 0 km/h
2822 20-01-2005 12:06:02 10 C 6.11 g/m*3 10 C 0 km/h
2823 20-01-2005 12:18:01 10 C 6.11 g/m*3 10 C 0 km/h
2824 20-01-2005 12:30:01 10.2 C 6 g/m*3 10.2 C 0 km/h
2825 20-01-2005 12:42:02 10.1 C 6.05 g/m*3 10.1 C 0 km/h
Sensor: Nr:Datum:Temp:Abs-Feuchte:Windchill:Wind:
Aussen-T/F 2826 20-01-2005 12:54:02 10.1 C 6.05 g/m*3 10.1 C 0 km/h
2827 20-01-2005 13:06:02 10.1 C 6.05 g/m*3 10.1 C 0 km/h
2828 20-01-2005 13:18:02 10.1 C 6.05 g/m*3 10.1 C 0 km/h
2829 20-01-2005 13:30:02 10 C 6.11 g/m*3 10 C 0 km/h
2830 20-01-2005 13:42:03 9.9 C 6.26 g/m*3 9.9 C 0 km/h
2831 20-01-2005 13:54:02 10 C 6.2 g/m*3 10 C 0 km/h
2832 20-01-2005 14:06:03 9.8 C 6.4 g/m*3 9.8 C 0 km/h
2833 20-01-2005 14:18:02 9.6 C 6.5 g/m*3 9.6 C 0 km/h
2834 20-01-2005 14:30:02 9.5 C 6.64 g/m*3 9.5 C 0 km/h
2835 20-01-2005 14:42:02 9.5 C 6.64 g/m*3 9.5 C 0 km/h
2836 20-01-2005 14:54:01 9.5 C 6.64 g/m*3 9.5 C 0 km/h
2837 20-01-2005 15:06:01 9.3 C 6.65 g/m*3 9.3 C 0 km/h
2838 20-01-2005 15:18:01 9.2 C 6.79 g/m*3 9.2 C 0 km/h
2839 20-01-2005 15:30:02 9.3 C 7.01 g/m*3 9.3 C 0 km/h
2840 20-01-2005 15:42:01 9.3 C 7.01 g/m*3 9.3 C 0 km/h
2841 20-01-2005 15:54:01 9.5 C 7.1 g/m*3 9.5 C 0 km/h
2842 20-01-2005 16:06:01 9.7 C 7.1 g/m*3 9.7 C 0 km/h
2843 20-01-2005 16:18:01 10 C 6.95 g/m*3 10 C 0 km/h
2844 20-01-2005 16:30:01 10.1 C 7 g/m*3 10.1 C 0 km/h
2845 20-01-2005 16:42:01 10.1 C 7 g/m*3 10.1 C 0 km/h
2846 20-01-2005 16:54:01 10.1 C 6.9 g/m*3 10.1 C 0 km/h
2847 20-01-2005 17:06:02 10.4 C 6.94 g/m*3 10.4 C 0 km/h
2848 20-01-2005 17:18:02 10.4 C 6.84 g/m*3 10.4 C 0 km/h
2849 20-01-2005 17:30:02 10.4 C 6.84 g/m*3 10.4 C 0 km/h
2850 20-01-2005 17:42:01 10.6 C 6.83 g/m*3 10.6 C 0 km/h
Sensor: Nr:Datum:Temp:Abs-Feuchte:Windchill:Wind:
Aussen-T/F 2851 20-01-2005 17:54:02 10.7 C 6.78 g/m*3 10.7 C 0 km/h
2852 20-01-2005 18:06:02 10.8 C 6.72 g/m*3 10.8 C 0 km/h
2853 20-01-2005 18:18:02 10.8 C 6.72 g/m*3 10.8 C 0 km/h
2854 20-01-2005 18:30:02 10.8 C 6.72 g/m*3 10.8 C 0 km/h
2855 20-01-2005 18:42:02 11 C 6.71 g/m*3 11 C 0 km/h
2856 20-01-2005 18:54:03 11.1 C 6.75 g/m*3 11.1 C 0 km/h
2857 20-01-2005 19:06:03 11.1 C 6.75 g/m*3 11.1 C 0 km/h
2858 20-01-2005 19:18:03 11.1 C 6.75 g/m*3 11.1 C 0 km/h
2859 20-01-2005 19:30:03 11.2 C 6.79 g/m*3 11.2 C 0 km/h
2860 20-01-2005 19:42:03 11.2 C 6.69 g/m*3 11.2 C 0 km/h
2861 20-01-2005 19:54:01 11.4 C 6.77 g/m*3 11.4 C 0 km/h
2862 20-01-2005 20:06:02 11.4 C 6.67 g/m*3 11.4 C 0 km/h
2863 20-01-2005 20:18:01 11.7 C 6.69 g/m*3 11.7 C 0 km/h
2864 20-01-2005 20:30:01 11.8 C 6.63 g/m*3 11.8 C 0 km/h
2865 20-01-2005 20:42:01 11.9 C 6.67 g/m*3 11.9 C 0 km/h
2866 20-01-2005 20:54:01 11.8 C 6.74 g/m*3 11.8 C 0 km/h
2867 20-01-2005 21:06:02 11.7 C 6.69 g/m*3 11.7 C 0 km/h
2868 20-01-2005 21:18:02 11.6 C 6.76 g/m*3 11.6 C 0 km/h
2869 20-01-2005 21:30:02 11.7 C 6.69 g/m*3 11.7 C 0 km/h
2870 20-01-2005 21:42:02 11.7 C 6.59 g/m*3 11.7 C 0 km/h
2871 20-01-2005 21:54:01 11.8 C 6.63 g/m*3 11.8 C 0 km/h
2872 20-01-2005 22:06:02 11.8 C 6.63 g/m*3 11.8 C 0 km/h
2873 20-01-2005 22:18:02 11.8 C 6.63 g/m*3 11.8 C 0 km/h
2874 20-01-2005 22:30:03 11.8 C 6.63 g/m*3 11.8 C 0 km/h
2875 20-01-2005 22:42:01 11.6 C 6.76 g/m*3 11.6 C 0 km/h
Sensor: Nr:Datum:Temp:Abs-Feuchte:Windchill:Wind:
Aussen-T/F 2876 20-01-2005 22:54:01 11.6 C 6.76 g/m*3 11.6 C 0 km/h
2877 20-01-2005 23:06:02 11.7 C 6.8 g/m*3 11.7 C 0 km/h
2878 20-01-2005 23:18:01 11.5 C 6.82 g/m*3 11.5 C 0 km/h
2879 20-01-2005 23:30:01 11.3 C 6.94 g/m*3 11.3 C 0 km/h
2880 20-01-2005 23:43:02 11.3 C 6.83 g/m*3 11.3 C 0 km/h
2881 20-01-2005 23:55:02 10.9 C 7.06 g/m*3 10.9 C 0 km/h
2882 21-01-2005 00:07:03 8.5 C 6.4 g/m*3 8.5 C 0 km/h
2883 21-01-2005 00:19:03 7.6 C 6.61 g/m*3 7.6 C 0 km/h
2884 21-01-2005 00:31:03 7.6 C 6.61 g/m*3 7.6 C 0 km/h
2885 21-01-2005 00:43:03 7.4 C 6.6 g/m*3 7.4 C 0 km/h
2886 21-01-2005 00:55:03 7.5 C 6.72 g/m*3 7.5 C 0 km/h
2887 21-01-2005 01:07:03 7.3 C 6.56 g/m*3 7.3 C 0 km/h
2888 21-01-2005 01:19:03 7.3 C 6.64 g/m*3 7.3 C 0 km/h
2889 21-01-2005 01:31:03 7.4 C 6.6 g/m*3 7.4 C 0 km/h
2890 21-01-2005 01:43:03 7.5 C 6.4 g/m*3 7.5 C 0 km/h
2891 21-01-2005 01:55:03 7.4 C 6.2 g/m*3 7.4 C 0 km/h
2892 21-01-2005 02:07:03 7.3 C 6 g/m*3 7.3 C 0 km/h
2893 21-01-2005 02:19:03 7.3 C 6.08 g/m*3 7.3 C 0 km/h
2894 21-01-2005 02:31:03 7.2 C 6.04 g/m*3 7.2 C 0 km/h
2895 21-01-2005 02:43:03 7.7 C 5.76 g/m*3 7.7 C 0 km/h
2896 21-01-2005 02:55:03 8 C 5.62 g/m*3 8 C 0 km/h
2897 21-01-2005 03:07:03 7.9 C 5.67 g/m*3 7.9 C 0 km/h
2898 21-01-2005 03:19:03 8.1 C 5.49 g/m*3 8.1 C 0 km/h
2899 21-01-2005 03:31:03 8.1 C 5.24 g/m*3 8.1 C 0 km/h
2900 21-01-2005 03:43:03 8 C 5.13 g/m*3 8 C 0 km/h
Sensor: Nr:Datum:Temp:Abs-Feuchte:Windchill:Wind:
Aussen-T/F 2901 21-01-2005 03:55:03 8 C 4.96 g/m*3 8 C 0 km/h
2902 21-01-2005 04:07:03 8 C 4.88 g/m*3 8 C 0 km/h
2903 21-01-2005 04:19:04 8 C 4.63 g/m*3 8 C 0 km/h
2904 21-01-2005 04:31:04 7.9 C 4.44 g/m*3 7.9 C 0 km/h
2905 21-01-2005 04:43:04 7.8 C 4.16 g/m*3 7.8 C 0 km/h
2906 21-01-2005 04:55:04 7.8 C 4.08 g/m*3 7.8 C 0 km/h
2907 21-01-2005 05:07:04 7.4 C 4.14 g/m*3 7.4 C 0 km/h
2908 21-01-2005 05:19:04 7.1 C 4.21 g/m*3 7.1 C 0 km/h
2909 21-01-2005 05:31:04 7.1 C 4.21 g/m*3 7.1 C 0 km/h
2910 21-01-2005 05:43:04 7 C 4.34 g/m*3 7 C 0 km/h
2911 21-01-2005 05:55:04 7 C 4.34 g/m*3 7 C 0 km/h
2912 21-01-2005 06:07:04 5.7 C 4.13 g/m*3 5.7 C 0 km/h
2913 21-01-2005 06:19:04 5.3 C 4.09 g/m*3 5.3 C 0 km/h
2914 21-01-2005 06:31:04 5.3 C 4.16 g/m*3 5.3 C 0 km/h
2915 21-01-2005 06:43:04 5.2 C 4.34 g/m*3 5.2 C 0 km/h
2916 21-01-2005 06:55:04 5.3 C 4.3 g/m*3 5.3 C 0 km/h
2917 21-01-2005 07:07:04 5.1 C 4.24 g/m*3 5.1 C 0 km/h
2918 21-01-2005 07:19:04 5.2 C 4.13 g/m*3 5.2 C 0 km/h
2919 21-01-2005 07:31:04 5.1 C 4.17 g/m*3 5.1 C 0 km/h
2920 21-01-2005 07:43:04 5.2 C 4.13 g/m*3 5.2 C 0 km/h
2921 21-01-2005 07:55:04 5.3 C 4.02 g/m*3 5.3 C 0 km/h
2922 21-01-2005 08:07:04 5.1 C 4.04 g/m*3 5.1 C 0 km/h
2923 21-01-2005 08:19:04 5.1 C 3.97 g/m*3 5.1 C 0 km/h
2924 21-01-2005 08:31:04 5 C 4.01 g/m*3 5 C 0 km/h
2925 21-01-2005 08:43:05 5.3 C 4.09 g/m*3 5.3 C 0 km/h
Sensor: Nr:Datum:Temp:Abs-Feuchte:Windchill:Wind:
Aussen-T/F 2926 21-01-2005 08:55:05 5.3 C 4.09 g/m*3 5.3 C 0 km/h
2927 21-01-2005 09:07:05 5.3 C 3.95 g/m*3 5.3 C 0 km/h
2928 21-01-2005 09:19:05 5.5 C 3.86 g/m*3 5.5 C 0 km/h
2929 21-01-2005 09:31:05 5.6 C 3.75 g/m*3 5.6 C 0 km/h
2930 21-01-2005 09:43:05 5.5 C 3.86 g/m*3 5.5 C 0 km/h
2931 21-01-2005 09:55:05 5.4 C 4.05 g/m*3 5.4 C 0 km/h
2932 21-01-2005 10:07:03 5.4 C 4.12 g/m*3 5.4 C 0 km/h
2933 21-01-2005 10:19:02 5.3 C 4.16 g/m*3 5.3 C 0 km/h
2934 21-01-2005 10:31:03 5.4 C 4.12 g/m*3 5.4 C 0 km/h
2935 21-01-2005 10:43:03 5.6 C 4.03 g/m*3 5.6 C 0 km/h
2936 21-01-2005 10:55:02 5.7 C 3.99 g/m*3 5.7 C 0 km/h
2937 21-01-2005 11:07:03 6 C 3.85 g/m*3 6 C 0 km/h
2938 21-01-2005 11:19:03 6.1 C 3.8 g/m*3 6.1 C 0 km/h
2939 21-01-2005 11:31:03 6 C 3.77 g/m*3 6 C 0 km/h
2940 21-01-2005 11:43:03 6.3 C 3.7 g/m*3 6.3 C 0 km/h
2941 21-01-2005 11:55:02 6.4 C 3.65 g/m*3 6.4 C 0 km/h
2942 21-01-2005 12:07:01 6.4 C 3.65 g/m*3 6.4 C 0 km/h
2943 21-01-2005 12:19:01 6.6 C 3.55 g/m*3 6.6 C 0 km/h
2944 21-01-2005 12:31:01 6.7 C 3.57 g/m*3 6.7 C 0 km/h
2945 21-01-2005 12:43:01 6.5 C 3.52 g/m*3 6.5 C 0 km/h
2946 21-01-2005 12:55:02 6.5 C 3.52 g/m*3 6.5 C 0 km/h
2947 21-01-2005 13:07:02 6.5 C 3.6 g/m*3 6.5 C 0 km/h
2948 21-01-2005 13:19:02 6.5 C 3.37 g/m*3 6.5 C 0 km/h
2949 21-01-2005 13:31:01 6.6 C 3.4 g/m*3 6.6 C 0 km/h
2950 21-01-2005 13:43:01 6.5 C 3.37 g/m*3 6.5 C 0 km/h
Sensor: Nr:Datum:Temp:Abs-Feuchte:Windchill:Wind:
Aussen-T/F 2951 21-01-2005 13:55:01 6.5 C 3.37 g/m*3 6.5 C 0 km/h
2952 21-01-2005 14:07:02 6.6 C 3.32 g/m*3 6.6 C 0 km/h
2953 21-01-2005 14:19:01 6.6 C 3.4 g/m*3 6.6 C 0 km/h
2954 21-01-2005 14:31:01 6.4 C 3.35 g/m*3 6.4 C 0 km/h
2955 21-01-2005 14:43:01 6.3 C 3.33 g/m*3 6.3 C 0 km/h
2956 21-01-2005 14:55:01 6.3 C 3.33 g/m*3 6.3 C 0 km/h
2957 21-01-2005 15:07:02 6.3 C 3.26 g/m*3 6.3 C 0 km/h
2958 21-01-2005 15:19:01 6.4 C 3.2 g/m*3 6.4 C 0 km/h
2959 21-01-2005 15:31:02 6.4 C 3.2 g/m*3 6.4 C 0 km/h
2960 21-01-2005 15:43:02 6.5 C 3.22 g/m*3 6.5 C 0 km/h
2961 21-01-2005 15:55:01 6.4 C 3.35 g/m*3 6.4 C 0 km/h
2962 21-01-2005 16:07:02 6.3 C 3.33 g/m*3 6.3 C 0 km/h
2963 21-01-2005 16:19:02 6.2 C 3.31 g/m*3 6.2 C 0 km/h
2964 21-01-2005 16:31:01 6 C 3.27 g/m*3 6 C 0 km/h
2965 21-01-2005 16:43:01 5.9 C 3.39 g/m*3 5.9 C 0 km/h
2966 21-01-2005 16:55:02 5.8 C 3.44 g/m*3 5.8 C 0 km/h
2967 21-01-2005 17:07:02 5.9 C 3.46 g/m*3 5.9 C 0 km/h
2968 21-01-2005 17:19:02 5.8 C 3.51 g/m*3 5.8 C 0 km/h
2969 21-01-2005 17:31:02 5.8 C 3.51 g/m*3 5.8 C 0 km/h
2970 21-01-2005 17:43:02 5.7 C 3.49 g/m*3 5.7 C 0 km/h
2971 21-01-2005 17:55:01 5.5 C 3.51 g/m*3 5.5 C 0 km/h
2972 21-01-2005 18:07:02 5.4 C 3.56 g/m*3 5.4 C 0 km/h
2973 21-01-2005 18:19:04 5.4 C 3.56 g/m*3 5.4 C 0 km/h
2974 21-01-2005 18:31:01 5.3 C 3.53 g/m*3 5.3 C 0 km/h
2975 21-01-2005 18:43:01 5.3 C 3.47 g/m*3 5.3 C 0 km/h
Sensor: Nr:Datum:Temp:Abs-Feuchte:Windchill:Wind:
Aussen-T/F 2976 21-01-2005 18:55:02 5.4 C 3.42 g/m*3 5.4 C 0 km/h
2977 21-01-2005 19:07:02 5.2 C 3.37 g/m*3 5.2 C 0 km/h
2978 21-01-2005 19:19:02 5.1 C 3.28 g/m*3 5.1 C 0 km/h
2979 21-01-2005 19:31:03 5.1 C 3.28 g/m*3 5.1 C 0 km/h
2980 21-01-2005 19:43:03 5.1 C 3.28 g/m*3 5.1 C 0 km/h
2981 21-01-2005 19:55:02 5 C 3.33 g/m*3 5 C 0 km/h
2982 21-01-2005 20:07:02 5 C 3.4 g/m*3 5 C 0 km/h
2983 21-01-2005 20:19:02 4.8 C 3.69 g/m*3 4.8 C 0 km/h
2984 21-01-2005 20:31:02 4.7 C 3.73 g/m*3 4.7 C 0 km/h
2985 21-01-2005 20:43:02 4.8 C 3.49 g/m*3 4.8 C 0 km/h
2986 21-01-2005 20:55:01 4.8 C 3.42 g/m*3 4.8 C 0 km/h
2987 21-01-2005 21:07:02 4.8 C 3.42 g/m*3 4.8 C 0 km/h
2988 21-01-2005 21:19:02 4.8 C 3.42 g/m*3 4.8 C 0 km/h
2989 21-01-2005 21:31:01 4.8 C 3.42 g/m*3 4.8 C 0 km/h
2990 21-01-2005 21:43:01 4.7 C 3.4 g/m*3 4.7 C 0 km/h
2991 21-01-2005 21:55:01 4.8 C 3.42 g/m*3 4.8 C 0 km/h
2992 21-01-2005 22:07:02 4.7 C 3.4 g/m*3 4.7 C 0 km/h
2993 21-01-2005 22:19:02 4.7 C 3.46 g/m*3 4.7 C 0 km/h
2994 21-01-2005 22:31:02 4.7 C 3.46 g/m*3 4.7 C 0 km/h
2995 21-01-2005 22:43:02 4.6 C 3.51 g/m*3 4.6 C 0 km/h
2996 21-01-2005 22:55:02 4.6 C 3.51 g/m*3 4.6 C 0 km/h
2997 21-01-2005 23:07:01 4.6 C 3.44 g/m*3 4.6 C 0 km/h
2998 21-01-2005 23:19:01 4.5 C 3.42 g/m*3 4.5 C 0 km/h
2999 21-01-2005 23:31:01 4.3 C 3.37 g/m*3 4.3 C 0 km/h
3000 21-01-2005 23:43:01 4.1 C 3.46 g/m*3 4.1 C 0 km/h
Sensor: Nr:Datum:Temp:Abs-Feuchte:Windchill:Wind:
Aussen-T/F 3001 21-01-2005 23:55:01 4 C 3.5 g/m*3 4 C 0 km/h
3002 22-01-2005 00:07:02 3.9 C 3.54 g/m*3 3.9 C 0 km/h
3003 22-01-2005 00:19:02 3.8 C 3.58 g/m*3 3.8 C 0 km/h
3004 22-01-2005 00:31:01 3.7 C 3.55 g/m*3 3.7 C 0 km/h
3005 22-01-2005 00:43:01 3.9 C 3.6 g/m*3 3.9 C 0 km/h
3006 22-01-2005 00:55:02 3.8 C 3.58 g/m*3 3.8 C 0 km/h
3007 22-01-2005 01:07:01 3.8 C 3.64 g/m*3 3.8 C 0 km/h
3008 22-01-2005 01:19:01 3.6 C 3.71 g/m*3 3.6 C 0 km/h
3009 22-01-2005 01:31:01 3.5 C 3.75 g/m*3 3.5 C 0 km/h
3010 22-01-2005 01:43:01 3.5 C 3.75 g/m*3 3.5 C 0 km/h
3011 22-01-2005 01:55:01 3.7 C 3.68 g/m*3 3.7 C 0 km/h
3012 22-01-2005 02:07:01 3.9 C 3.66 g/m*3 3.9 C 0 km/h
3013 22-01-2005 02:19:01 4.2 C 3.61 g/m*3 4.2 C 0 km/h
3014 22-01-2005 02:31:02 4.3 C 3.57 g/m*3 4.3 C 0 km/h
3015 22-01-2005 02:43:02 4.3 C 3.57 g/m*3 4.3 C 0 km/h
3016 22-01-2005 02:56:04 4.4 C 3.59 g/m*3 4.4 C 0 km/h
3017 22-01-2005 03:08:04 4.2 C 3.54 g/m*3 4.2 C 0 km/h
3018 22-01-2005 03:20:04 4.1 C 3.52 g/m*3 4.1 C 0 km/h
3019 22-01-2005 03:32:02 3.9 C 3.6 g/m*3 3.9 C 0 km/h
3020 22-01-2005 03:44:02 4 C 3.56 g/m*3 4 C 0 km/h
3021 22-01-2005 03:56:02 4.1 C 3.58 g/m*3 4.1 C 0 km/h
3022 22-01-2005 04:08:02 4 C 3.56 g/m*3 4 C 0 km/h
3023 22-01-2005 04:20:02 4 C 3.56 g/m*3 4 C 0 km/h
3024 22-01-2005 04:32:02 4.1 C 3.58 g/m*3 4.1 C 0 km/h
3025 22-01-2005 04:44:02 4.1 C 3.52 g/m*3 4.1 C 0 km/h
Sensor: Nr:Datum:Temp:Abs-Feuchte:Windchill:Wind:
Aussen-T/F 3026 22-01-2005 04:56:02 4.1 C 3.58 g/m*3 4.1 C 0 km/h
3027 22-01-2005 05:08:03 4.1 C 3.58 g/m*3 4.1 C 0 km/h
3028 22-01-2005 05:20:02 4.2 C 3.61 g/m*3 4.2 C 0 km/h
3029 22-01-2005 05:32:02 4.2 C 3.67 g/m*3 4.2 C 0 km/h
3030 22-01-2005 05:44:02 4.2 C 3.61 g/m*3 4.2 C 0 km/h
3031 22-01-2005 05:56:02 4.1 C 3.65 g/m*3 4.1 C 0 km/h
3032 22-01-2005 06:08:02 4.3 C 3.63 g/m*3 4.3 C 0 km/h
3033 22-01-2005 06:20:02 4.4 C 3.66 g/m*3 4.4 C 0 km/h
3034 22-01-2005 06:32:02 4.3 C 3.63 g/m*3 4.3 C 0 km/h
3035 22-01-2005 06:44:02 4.3 C 3.63 g/m*3 4.3 C 0 km/h
3036 22-01-2005 06:56:01 4.3 C 3.7 g/m*3 4.3 C 0 km/h
3037 22-01-2005 07:08:02 4.3 C 3.7 g/m*3 4.3 C 0 km/h
3038 22-01-2005 07:20:02 4.4 C 3.72 g/m*3 4.4 C 0 km/h
3039 22-01-2005 07:32:01 4.1 C 3.9 g/m*3 4.1 C 0 km/h
3040 22-01-2005 07:44:01 4 C 3.94 g/m*3 4 C 0 km/h
3041 22-01-2005 07:56:02 4.1 C 3.9 g/m*3 4.1 C 0 km/h
3042 22-01-2005 08:08:02 4.1 C 3.9 g/m*3 4.1 C 0 km/h
3043 22-01-2005 08:20:02 3.8 C 4.14 g/m*3 3.8 C 0 km/h
3044 22-01-2005 08:32:02 3.6 C 4.21 g/m*3 3.6 C 0 km/h
3045 22-01-2005 08:44:02 3.7 C 4.18 g/m*3 3.7 C 0 km/h
3046 22-01-2005 08:56:01 4 C 4.2 g/m*3 4 C 0 km/h
3047 22-01-2005 09:08:01 4.1 C 4.16 g/m*3 4.1 C 0 km/h
3048 22-01-2005 09:20:01 4.1 C 4.22 g/m*3 4.1 C 0 km/h
3049 22-01-2005 09:32:02 4.2 C 4.25 g/m*3 4.2 C 0 km/h
3050 22-01-2005 09:44:02 4.2 C 4.25 g/m*3 4.2 C 0 km/h
Sensor: Nr:Datum:Temp:Abs-Feuchte:Windchill:Wind:
Aussen-T/F 3051 22-01-2005 09:56:02 4.2 C 4.32 g/m*3 4.2 C 0 km/h
3052 22-01-2005 10:08:04 4.1 C 4.35 g/m*3 4.1 C 0 km/h
3053 22-01-2005 10:20:02 4.3 C 4.41 g/m*3 4.3 C 0 km/h
3054 22-01-2005 10:32:06 4.5 C 4.34 g/m*3 4.5 C 0 km/h
3055 22-01-2005 10:44:06 4.4 C 4.37 g/m*3 4.4 C 0 km/h
3056 22-01-2005 10:56:03 4.5 C 4.4 g/m*3 4.5 C 0 km/h
3057 22-01-2005 11:08:03 4.7 C 4.4 g/m*3 4.7 C 0 km/h
3058 22-01-2005 11:20:02 4.2 C 4.57 g/m*3 4.2 C 0 km/h
3059 22-01-2005 11:32:04 4.2 C 4.64 g/m*3 4.2 C 0 km/h
3060 22-01-2005 11:44:04 4 C 4.7 g/m*3 4 C 0 km/h
3061 22-01-2005 11:56:01 3.8 C 4.89 g/m*3 3.8 C 0 km/h
3062 22-01-2005 12:08:02 3.7 C 4.92 g/m*3 3.7 C 0 km/h
3063 22-01-2005 12:20:02 3.7 C 4.99 g/m*3 3.7 C 0 km/h
3064 22-01-2005 12:32:01 3.8 C 5.08 g/m*3 3.8 C 0 km/h
3065 22-01-2005 12:44:01 4 C 5.15 g/m*3 4 C 0 km/h
3066 22-01-2005 12:56:01 4 C 5.09 g/m*3 4 C 0 km/h
3067 22-01-2005 13:08:02 4.1 C 4.99 g/m*3 4.1 C 0 km/h
3068 22-01-2005 13:20:02 4.5 C 5 g/m*3 4.5 C 0 km/h
3069 22-01-2005 13:32:02 4.9 C 4.93 g/m*3 4.9 C 0 km/h
3070 22-01-2005 13:44:02 5.1 C 4.79 g/m*3 5.1 C 0 km/h
3071 22-01-2005 13:56:02 5.7 C 4.91 g/m*3 5.7 C 0 km/h
3072 22-01-2005 14:08:02 5.2 C 4.75 g/m*3 5.2 C 0 km/h
3073 22-01-2005 14:20:02 5 C 4.89 g/m*3 5 C 0 km/h
3074 22-01-2005 14:32:03 5.1 C 4.99 g/m*3 5.1 C 0 km/h
3075 22-01-2005 14:44:03 4.8 C 5.16 g/m*3 4.8 C 0 km/h
Sensor: Nr:Datum:Temp:Abs-Feuchte:Windchill:Wind:
Aussen-T/F 3076 22-01-2005 14:56:02 4.6 C 5.1 g/m*3 4.6 C 0 km/h
3077 22-01-2005 15:08:03 4.2 C 4.64 g/m*3 4.2 C 0 km/h
3078 22-01-2005 15:20:03 4.1 C 4.61 g/m*3 4.1 C 0 km/h
3079 22-01-2005 15:32:02 4 C 4.58 g/m*3 4 C 0 km/h
3080 22-01-2005 15:44:03 3.8 C 4.58 g/m*3 3.8 C 0 km/h
3081 22-01-2005 15:56:02 3.7 C 4.67 g/m*3 3.7 C 0 km/h
3082 22-01-2005 16:08:02 3.6 C 4.64 g/m*3 3.6 C 0 km/h
3083 22-01-2005 16:20:02 3.4 C 4.64 g/m*3 3.4 C 0 km/h
3084 22-01-2005 16:32:02 3.3 C 4.67 g/m*3 3.3 C 0 km/h
3085 22-01-2005 16:44:02 3.1 C 4.67 g/m*3 3.1 C 0 km/h
3086 22-01-2005 16:56:02 2.9 C 4.72 g/m*3 2.9 C 0 km/h
3087 22-01-2005 17:08:02 3.1 C 4.79 g/m*3 3.1 C 0 km/h
3088 22-01-2005 17:20:03 3.2 C 4.82 g/m*3 3.2 C 0 km/h
3089 22-01-2005 17:32:02 3.2 C 4.76 g/m*3 3.2 C 0 km/h
3090 22-01-2005 17:44:02 3.2 C 4.82 g/m*3 3.2 C 0 km/h
3091 22-01-2005 17:56:01 3 C 4.7 g/m*3 3 C 0 km/h
3092 22-01-2005 18:08:02 2.7 C 4.66 g/m*3 2.7 C 0 km/h
3093 22-01-2005 18:20:02 2.7 C 4.66 g/m*3 2.7 C 0 km/h
3094 22-01-2005 18:32:02 3.2 C 4.64 g/m*3 3.2 C 0 km/h
3095 22-01-2005 18:44:02 3.4 C 4.64 g/m*3 3.4 C 0 km/h
3096 22-01-2005 18:56:02 3.6 C 4.52 g/m*3 3.6 C 0 km/h
3097 22-01-2005 19:08:02 3.5 C 4.49 g/m*3 3.5 C 0 km/h
3098 22-01-2005 19:20:04 3.5 C 4.55 g/m*3 3.5 C 0 km/h
3099 22-01-2005 19:32:03 3.3 C 4.61 g/m*3 3.3 C 0 km/h
3100 22-01-2005 19:44:03 3.4 C 4.46 g/m*3 3.4 C 0 km/h
Sensor: Nr:Datum:Temp:Abs-Feuchte:Windchill:Wind:
Aussen-T/F 3101 22-01-2005 19:56:03 3.6 C 4.39 g/m*3 3.6 C 0 km/h
3102 22-01-2005 20:08:02 3.6 C 4.33 g/m*3 3.6 C 0 km/h
3103 22-01-2005 20:20:02 3.5 C 4.37 g/m*3 3.5 C 0 km/h
3104 22-01-2005 20:32:02 3.3 C 4.43 g/m*3 3.3 C 0 km/h
3105 22-01-2005 20:44:03 3.4 C 4.4 g/m*3 3.4 C 0 km/h
3106 22-01-2005 20:56:01 3.5 C 4.37 g/m*3 3.5 C 0 km/h
3107 22-01-2005 21:08:02 3.6 C 4.39 g/m*3 3.6 C 0 km/h
3108 22-01-2005 21:20:02 3.5 C 4.43 g/m*3 3.5 C 0 km/h
3109 22-01-2005 21:32:02 3.5 C 4.49 g/m*3 3.5 C 0 km/h
3110 22-01-2005 21:44:03 3.4 C 4.52 g/m*3 3.4 C 0 km/h
3111 22-01-2005 21:56:02 3.3 C 4.55 g/m*3 3.3 C 0 km/h
3112 22-01-2005 22:08:02 3.2 C 4.58 g/m*3 3.2 C 0 km/h
3113 22-01-2005 22:20:02 3.3 C 4.61 g/m*3 3.3 C 0 km/h
3114 22-01-2005 22:32:02 3.4 C 4.7 g/m*3 3.4 C 0 km/h
3115 22-01-2005 22:44:02 3 C 4.7 g/m*3 3 C 0 km/h
3116 22-01-2005 22:56:01 2.9 C 4.78 g/m*3 2.9 C 0 km/h
3117 22-01-2005 23:08:02 2.7 C 4.78 g/m*3 2.7 C 0 km/h
3118 22-01-2005 23:20:02 2.6 C 4.8 g/m*3 2.6 C 0 km/h
3119 22-01-2005 23:32:01 2.5 C 4.83 g/m*3 2.5 C 0 km/h
3120 22-01-2005 23:44:01 2.5 C 4.89 g/m*3 2.5 C 0 km/h
3121 22-01-2005 23:56:01 2.5 C 4.89 g/m*3 2.5 C 0 km/h
3122 23-01-2005 00:08:01 2.4 C 4.85 g/m*3 2.4 C 0 km/h
3123 23-01-2005 00:20:03 2.3 C 4.82 g/m*3 2.3 C 0 km/h
3124 23-01-2005 00:32:02 2.3 C 4.88 g/m*3 2.3 C 0 km/h
3125 23-01-2005 00:44:02 2.2 C 4.84 g/m*3 2.2 C 0 km/h
Sensor: Nr:Datum:Temp:Abs-Feuchte:Windchill:Wind:
Aussen-T/F 3126 23-01-2005 00:56:03 2.3 C 4.88 g/m*3 2.3 C 0 km/h
3127 23-01-2005 01:08:03 1.9 C 4.75 g/m*3 1.9 C 0 km/h
3128 23-01-2005 01:20:03 1.6 C 4.65 g/m*3 1.6 C 0 km/h
3129 23-01-2005 01:32:02 1.3 C 4.56 g/m*3 1.3 C 0 km/h
3130 23-01-2005 01:44:02 1.4 C 4.64 g/m*3 1.4 C 0 km/h
3131 23-01-2005 01:56:02 1.5 C 4.67 g/m*3 1.5 C 0 km/h
3132 23-01-2005 02:08:01 1.9 C 4.86 g/m*3 1.9 C 0 km/h
3133 23-01-2005 02:20:01 1.9 C 4.86 g/m*3 1.9 C 0 km/h
3134 23-01-2005 02:32:02 1.7 C 4.79 g/m*3 1.7 C 0 km/h
3135 23-01-2005 02:44:02 1.8 C 4.82 g/m*3 1.8 C 0 km/h
3136 23-01-2005 02:57:03 1.8 C 4.82 g/m*3 1.8 C 0 km/h
3137 23-01-2005 03:09:03 2 C 4.89 g/m*3 2 C 0 km/h
3138 23-01-2005 03:21:04 2 C 4.89 g/m*3 2 C 0 km/h
3139 23-01-2005 03:33:02 1.7 C 4.79 g/m*3 1.7 C 0 km/h
3140 23-01-2005 03:45:02 1.6 C 4.76 g/m*3 1.6 C 0 km/h
3141 23-01-2005 03:57:02 1.8 C 4.82 g/m*3 1.8 C 0 km/h
3142 23-01-2005 04:09:02 1.8 C 4.82 g/m*3 1.8 C 0 km/h
3143 23-01-2005 04:21:02 1.6 C 4.76 g/m*3 1.6 C 0 km/h
3144 23-01-2005 04:33:02 1.8 C 4.88 g/m*3 1.8 C 0 km/h
3145 23-01-2005 04:45:02 1.9 C 4.91 g/m*3 1.9 C 0 km/h
3146 23-01-2005 04:57:02 1.9 C 4.91 g/m*3 1.9 C 0 km/h
3147 23-01-2005 05:09:03 1.9 C 4.91 g/m*3 1.9 C 0 km/h
3148 23-01-2005 05:21:02 2 C 4.89 g/m*3 2 C 0 km/h
3149 23-01-2005 05:33:02 2 C 4.83 g/m*3 2 C 0 km/h
3150 23-01-2005 05:45:02 2 C 4.83 g/m*3 2 C 0 km/h
Sensor: Nr:Datum:Temp:Abs-Feuchte:Windchill:Wind:
Aussen-T/F 3151 23-01-2005 05:57:02 2 C 4.72 g/m*3 2 C 0 km/h
3152 23-01-2005 06:09:02 2.1 C 4.7 g/m*3 2.1 C 0 km/h
3153 23-01-2005 06:21:02 2 C 4.67 g/m*3 2 C 0 km/h
3154 23-01-2005 06:33:02 2.1 C 4.64 g/m*3 2.1 C 0 km/h
3155 23-01-2005 06:45:01 2.2 C 4.68 g/m*3 2.2 C 0 km/h
3156 23-01-2005 06:57:01 2.1 C 4.64 g/m*3 2.1 C 0 km/h
3157 23-01-2005 07:09:01 2.1 C 4.64 g/m*3 2.1 C 0 km/h
3158 23-01-2005 07:21:01 2 C 4.56 g/m*3 2 C 0 km/h
3159 23-01-2005 07:33:02 1.7 C 4.46 g/m*3 1.7 C 0 km/h
3160 23-01-2005 07:45:02 1.3 C 4.34 g/m*3 1.3 C 0 km/h
3161 23-01-2005 07:57:02 0.7 C 4.22 g/m*3 0.7 C 0 km/h
3162 23-01-2005 08:09:02 0.9 C 4.33 g/m*3 0.9 C 0 km/h
3163 23-01-2005 08:21:03 1 C 4.36 g/m*3 1 C 0 km/h
3164 23-01-2005 08:33:03 0.7 C 4.27 g/m*3 0.7 C 0 km/h
3165 23-01-2005 08:45:02 0.6 C 4.24 g/m*3 0.6 C 0 km/h
3166 23-01-2005 08:57:02 0.9 C 4.38 g/m*3 0.9 C 0 km/h
3167 23-01-2005 09:09:02 1.1 C 4.34 g/m*3 1.1 C 0 km/h
3168 23-01-2005 09:21:03 1.3 C 4.4 g/m*3 1.3 C 0 km/h
3169 23-01-2005 09:33:02 1.5 C 4.35 g/m*3 1.5 C 0 km/h
3170 23-01-2005 09:45:01 1.5 C 4.3 g/m*3 1.5 C 0 km/h
3171 23-01-2005 09:57:01 1.6 C 4.33 g/m*3 1.6 C 0 km/h
3172 23-01-2005 10:09:02 1.8 C 4.33 g/m*3 1.8 C 0 km/h
3173 23-01-2005 10:21:02 2 C 4.28 g/m*3 2 C 0 km/h
3174 23-01-2005 10:33:01 2 C 4.17 g/m*3 2 C 0 km/h
3175 23-01-2005 10:45:01 2.4 C 4.23 g/m*3 2.4 C 0 km/h
Sensor: Nr:Datum:Temp:Abs-Feuchte:Windchill:Wind:
Aussen-T/F 3176 23-01-2005 10:57:01 2.4 C 4.23 g/m*3 2.4 C 0 km/h
3177 23-01-2005 11:09:02 2.4 C 4.23 g/m*3 2.4 C 0 km/h
3178 23-01-2005 11:21:02 2.2 C 4.17 g/m*3 2.2 C 0 km/h
3179 23-01-2005 11:33:01 2.6 C 4.22 g/m*3 2.6 C 0 km/h
3180 23-01-2005 11:45:01 2.8 C 4.16 g/m*3 2.8 C 0 km/h
3181 23-01-2005 11:57:01 2.6 C 4.05 g/m*3 2.6 C 0 km/h
3182 23-01-2005 12:09:02 2.5 C 4.02 g/m*3 2.5 C 0 km/h
3183 23-01-2005 12:21:02 2.5 C 3.97 g/m*3 2.5 C 0 km/h
3184 23-01-2005 12:33:02 2.7 C 3.96 g/m*3 2.7 C 0 km/h
3185 23-01-2005 12:45:02 3.1 C 3.89 g/m*3 3.1 C 0 km/h
3186 23-01-2005 12:57:02 3.6 C 3.9 g/m*3 3.6 C 0 km/h
3187 23-01-2005 13:09:03 3.8 C 3.83 g/m*3 3.8 C 0 km/h
3188 23-01-2005 13:21:03 3.8 C 3.76 g/m*3 3.8 C 0 km/h
3189 23-01-2005 13:33:02 3.6 C 3.71 g/m*3 3.6 C 0 km/h
3190 23-01-2005 13:45:01 3.8 C 3.76 g/m*3 3.8 C 0 km/h
3191 23-01-2005 13:57:01 4.2 C 3.74 g/m*3 4.2 C 0 km/h
3192 23-01-2005 14:09:02 4.4 C 3.66 g/m*3 4.4 C 0 km/h
3193 23-01-2005 14:21:01 4.1 C 3.65 g/m*3 4.1 C 0 km/h
3194 23-01-2005 14:33:02 4.4 C 3.72 g/m*3 4.4 C 0 km/h
3195 23-01-2005 14:45:02 4.6 C 3.64 g/m*3 4.6 C 0 km/h
3196 23-01-2005 14:57:02 4 C 3.56 g/m*3 4 C 0 km/h
3197 23-01-2005 15:09:02 4.1 C 3.58 g/m*3 4.1 C 0 km/h
3198 23-01-2005 15:21:02 3.7 C 3.61 g/m*3 3.7 C 0 km/h
3199 23-01-2005 15:33:02 3.7 C 3.68 g/m*3 3.7 C 0 km/h
3200 23-01-2005 15:45:02 4.2 C 3.61 g/m*3 4.2 C 0 km/h
Sensor: Nr:Datum:Temp:Abs-Feuchte:Windchill:Wind:
Aussen-T/F 3201 23-01-2005 15:57:02 4.1 C 3.58 g/m*3 4.1 C 0 km/h
3202 23-01-2005 16:09:02 4 C 3.56 g/m*3 4 C 0 km/h
3203 23-01-2005 16:21:02 3.8 C 3.58 g/m*3 3.8 C 0 km/h
3204 23-01-2005 16:33:02 3.7 C 3.61 g/m*3 3.7 C 0 km/h
3205 23-01-2005 16:45:01 3.8 C 3.7 g/m*3 3.8 C 0 km/h
3206 23-01-2005 16:57:01 3.6 C 3.59 g/m*3 3.6 C 0 km/h
3207 23-01-2005 17:09:02 3.4 C 3.48 g/m*3 3.4 C 0 km/h
3208 23-01-2005 17:21:02 3.4 C 3.48 g/m*3 3.4 C 0 km/h
3209 23-01-2005 17:33:02 3.3 C 3.46 g/m*3 3.3 C 0 km/h
3210 23-01-2005 17:45:02 3.4 C 3.48 g/m*3 3.4 C 0 km/h
3211 23-01-2005 17:57:02 3.8 C 3.51 g/m*3 3.8 C 0 km/h
3212 23-01-2005 18:09:02 3.4 C 3.6 g/m*3 3.4 C 0 km/h
3213 23-01-2005 18:21:02 2.9 C 3.9 g/m*3 2.9 C 0 km/h
3214 23-01-2005 18:33:01 2.7 C 4.02 g/m*3 2.7 C 0 km/h
3215 23-01-2005 18:45:02 2.6 C 4.05 g/m*3 2.6 C 0 km/h
3216 23-01-2005 18:57:02 2.5 C 3.91 g/m*3 2.5 C 0 km/h
3217 23-01-2005 19:09:02 2.5 C 4.02 g/m*3 2.5 C 0 km/h
3218 23-01-2005 19:21:02 2.5 C 4.08 g/m*3 2.5 C 0 km/h
3219 23-01-2005 19:33:02 2.4 C 4.11 g/m*3 2.4 C 0 km/h
3220 23-01-2005 19:45:01 2.4 C 4.11 g/m*3 2.4 C 0 km/h
3221 23-01-2005 19:57:01 2.4 C 4.11 g/m*3 2.4 C 0 km/h
3222 23-01-2005 20:09:01 2.4 C 4.11 g/m*3 2.4 C 0 km/h
3223 23-01-2005 20:21:01 2.3 C 4.2 g/m*3 2.3 C 0 km/h
3224 23-01-2005 20:33:02 1.7 C 4.3 g/m*3 1.7 C 0 km/h
3225 23-01-2005 20:45:02 1.1 C 4.34 g/m*3 1.1 C 0 km/h
Sensor: Nr:Datum:Temp:Abs-Feuchte:Windchill:Wind:
Aussen-T/F 3226 23-01-2005 20:57:02 0.8 C 4.4 g/m*3 0.8 C 0 km/h
3227 23-01-2005 21:09:02 0.7 C 4.42 g/m*3 0.7 C 0 km/h
3228 23-01-2005 21:21:02 0.7 C 4.47 g/m*3 0.7 C 0 km/h
3229 23-01-2005 21:33:02 0.9 C 4.59 g/m*3 0.9 C 0 km/h
3230 23-01-2005 21:45:01 1.1 C 4.65 g/m*3 1.1 C 0 km/h
3231 23-01-2005 21:57:01 1.3 C 4.66 g/m*3 1.3 C 0 km/h
3232 23-01-2005 22:09:02 1.4 C 4.64 g/m*3 1.4 C 0 km/h
3233 23-01-2005 22:21:02 1.4 C 4.59 g/m*3 1.4 C 0 km/h
3234 23-01-2005 22:33:02 0.9 C 4.48 g/m*3 0.9 C 0 km/h
3235 23-01-2005 22:45:01 1 C 4.46 g/m*3 1 C 0 km/h
3236 23-01-2005 22:57:01 0.8 C 4.45 g/m*3 0.8 C 0 km/h
3237 23-01-2005 23:09:02 0.7 C 4.37 g/m*3 0.7 C 0 km/h
3238 23-01-2005 23:21:02 1 C 4.41 g/m*3 1 C 0 km/h
3239 23-01-2005 23:33:01 1 C 4.36 g/m*3 1 C 0 km/h
3240 23-01-2005 23:45:01 0.9 C 4.33 g/m*3 0.9 C 0 km/h
3241 23-01-2005 23:57:01 1 C 4.36 g/m*3 1 C 0 km/h
3242 24-01-2005 00:09:02 0.6 C 4.29 g/m*3 0.6 C 0 km/h
3243 24-01-2005 00:21:02 0.3 C 4.25 g/m*3 0.3 C 0 km/h
3244 24-01-2005 00:33:02 0.2 C 4.27 g/m*3 0.2 C 0 km/h
3245 24-01-2005 00:45:02 0.3 C 4.35 g/m*3 0.3 C 0 km/h
3246 24-01-2005 00:57:02 0.3 C 4.3 g/m*3 0.3 C 0 km/h
3247 24-01-2005 01:09:02 0.5 C 4.21 g/m*3 0.5 C 0 km/h
3248 24-01-2005 01:21:02 0.3 C 4.11 g/m*3 0.3 C 0 km/h
3249 24-01-2005 01:33:01 0.3 C 4.06 g/m*3 0.3 C 0 km/h
3250 24-01-2005 01:45:02 0.3 C 4.06 g/m*3 0.3 C 0 km/h
Sensor: Nr:Datum: